<?xml version="1.0" encoding="UTF-8" standalone="no" ?>
<gpx xmlns="http://www.topografix.com/GPX/1/1" xmlns:xsi="http://www.w3.org/2001/XMLSchema-instance" xsi:schemaLocation="http://www.topografix.com/GPX/1/1 http://www.topografix.com/GPX/1/1/gpx.xsd" version="1.1" creator="VisuGPX - https://www.visugpx.com">
  <metadata>
    <name>64 - PEDESTRE - GR 108 &amp;amp; variante 108 A de Pont de Camps à Miegebat - Entretien balisage</name>
    <desc><![CDATA[Balisage 2 partie]]></desc>
  </metadata>
  <wpt lat="42.88509" lon="-0.39909">
    <ele>1291.647217</ele>
    <name><![CDATA[001]]></name>
    <desc><![CDATA[10-MAI-14 11:16:53]]></desc>
    <cmt><![CDATA[10-MAI-14 11:16:53]]></cmt>
  </wpt>
  <wpt lat="42.92114" lon="-0.44367">
    <ele>798.975342</ele>
    <name><![CDATA[002]]></name>
    <desc><![CDATA[10-MAI-14 15:54:43]]></desc>
    <cmt><![CDATA[10-MAI-14 15:54:43]]></cmt>
  </wpt>
  <trk>
    <name><![CDATA[ACTIVE LOG]]></name>
    <trkseg>
      <trkpt lat="42.86343" lon="-0.3922">
        <ele>1185.442871</ele>
        <time>2014-05-10T07:59:29Z</time>
      </trkpt>
      <trkpt lat="42.86343" lon="-0.39221">
        <ele>1185.442871</ele>
        <time>2014-05-10T07:59:30Z</time>
      </trkpt>
      <trkpt lat="42.86343" lon="-0.39221">
        <ele>1184.962402</ele>
        <time>2014-05-10T07:59:31Z</time>
      </trkpt>
      <trkpt lat="42.86343" lon="-0.39223">
        <ele>1185.442871</ele>
        <time>2014-05-10T07:59:56Z</time>
      </trkpt>
      <trkpt lat="42.86344" lon="-0.3922">
        <ele>1185.923584</ele>
        <time>2014-05-10T08:00:02Z</time>
      </trkpt>
      <trkpt lat="42.86336" lon="-0.39195">
        <ele>1187.365479</ele>
        <time>2014-05-10T08:00:24Z</time>
      </trkpt>
      <trkpt lat="42.86336" lon="-0.39193">
        <ele>1187.365479</ele>
        <time>2014-05-10T08:00:33Z</time>
      </trkpt>
      <trkpt lat="42.86329" lon="-0.39181">
        <ele>1187.846191</ele>
        <time>2014-05-10T08:00:49Z</time>
      </trkpt>
      <trkpt lat="42.86327" lon="-0.3918">
        <ele>1188.807617</ele>
        <time>2014-05-10T08:01:04Z</time>
      </trkpt>
      <trkpt lat="42.8633" lon="-0.39182">
        <ele>1189.288086</ele>
        <time>2014-05-10T08:01:21Z</time>
      </trkpt>
      <trkpt lat="42.86331" lon="-0.39183">
        <ele>1189.288086</ele>
        <time>2014-05-10T08:01:23Z</time>
      </trkpt>
      <trkpt lat="42.86333" lon="-0.39187">
        <ele>1190.249512</ele>
        <time>2014-05-10T08:01:40Z</time>
      </trkpt>
      <trkpt lat="42.86331" lon="-0.39184">
        <ele>1191.691406</ele>
        <time>2014-05-10T08:02:17Z</time>
      </trkpt>
      <trkpt lat="42.86321" lon="-0.39166">
        <ele>1193.614014</ele>
        <time>2014-05-10T08:02:36Z</time>
      </trkpt>
      <trkpt lat="42.86323" lon="-0.39166">
        <ele>1194.575195</ele>
        <time>2014-05-10T08:02:57Z</time>
      </trkpt>
      <trkpt lat="42.86323" lon="-0.39165">
        <ele>1195.055908</ele>
        <time>2014-05-10T08:03:11Z</time>
      </trkpt>
      <trkpt lat="42.86324" lon="-0.39169">
        <ele>1195.055908</ele>
        <time>2014-05-10T08:03:32Z</time>
      </trkpt>
      <trkpt lat="42.86324" lon="-0.39166">
        <ele>1196.97876</ele>
        <time>2014-05-10T08:03:46Z</time>
      </trkpt>
      <trkpt lat="42.86324" lon="-0.39167">
        <ele>1196.498291</ele>
        <time>2014-05-10T08:03:47Z</time>
      </trkpt>
      <trkpt lat="42.86331" lon="-0.39185">
        <ele>1195.536621</ele>
        <time>2014-05-10T08:04:02Z</time>
      </trkpt>
      <trkpt lat="42.86333" lon="-0.3919">
        <ele>1196.017578</ele>
        <time>2014-05-10T08:04:07Z</time>
      </trkpt>
      <trkpt lat="42.86324" lon="-0.39166">
        <ele>1198.420654</ele>
        <time>2014-05-10T08:04:24Z</time>
      </trkpt>
      <trkpt lat="42.86324" lon="-0.39166">
        <ele>1197.940186</ele>
        <time>2014-05-10T08:04:42Z</time>
      </trkpt>
      <trkpt lat="42.86319" lon="-0.39168">
        <ele>1200.343506</ele>
        <time>2014-05-10T08:05:16Z</time>
      </trkpt>
      <trkpt lat="42.86313" lon="-0.39171">
        <ele>1202.746582</ele>
        <time>2014-05-10T08:05:29Z</time>
      </trkpt>
      <trkpt lat="42.86313" lon="-0.39173">
        <ele>1201.304688</ele>
        <time>2014-05-10T08:05:45Z</time>
      </trkpt>
      <trkpt lat="42.86309" lon="-0.39168">
        <ele>1204.669189</ele>
        <time>2014-05-10T08:06:01Z</time>
      </trkpt>
      <trkpt lat="42.86304" lon="-0.39167">
        <ele>1204.669189</ele>
        <time>2014-05-10T08:06:07Z</time>
      </trkpt>
      <trkpt lat="42.86297" lon="-0.39167">
        <ele>1205.630615</ele>
        <time>2014-05-10T08:06:14Z</time>
      </trkpt>
      <trkpt lat="42.86295" lon="-0.39161">
        <ele>1206.111084</ele>
        <time>2014-05-10T08:06:27Z</time>
      </trkpt>
      <trkpt lat="42.86294" lon="-0.39161">
        <ele>1207.553223</ele>
        <time>2014-05-10T08:07:06Z</time>
      </trkpt>
      <trkpt lat="42.86294" lon="-0.39161">
        <ele>1210.437012</ele>
        <time>2014-05-10T08:08:39Z</time>
      </trkpt>
      <trkpt lat="42.86295" lon="-0.39161">
        <ele>1212.840576</ele>
        <time>2014-05-10T08:09:25Z</time>
      </trkpt>
      <trkpt lat="42.86308" lon="-0.39142">
        <ele>1213.801758</ele>
        <time>2014-05-10T08:09:41Z</time>
      </trkpt>
      <trkpt lat="42.86333" lon="-0.39137">
        <ele>1215.724609</ele>
        <time>2014-05-10T08:10:01Z</time>
      </trkpt>
      <trkpt lat="42.86358" lon="-0.39137">
        <ele>1217.166504</ele>
        <time>2014-05-10T08:10:20Z</time>
      </trkpt>
      <trkpt lat="42.86385" lon="-0.39139">
        <ele>1220.050293</ele>
        <time>2014-05-10T08:10:41Z</time>
      </trkpt>
      <trkpt lat="42.86408" lon="-0.39146">
        <ele>1221.011719</ele>
        <time>2014-05-10T08:10:59Z</time>
      </trkpt>
      <trkpt lat="42.86427" lon="-0.39146">
        <ele>1222.453613</ele>
        <time>2014-05-10T08:11:15Z</time>
      </trkpt>
      <trkpt lat="42.86446" lon="-0.39142">
        <ele>1223.895508</ele>
        <time>2014-05-10T08:11:30Z</time>
      </trkpt>
      <trkpt lat="42.86458" lon="-0.39161">
        <ele>1224.856934</ele>
        <time>2014-05-10T08:11:47Z</time>
      </trkpt>
      <trkpt lat="42.8647" lon="-0.3918">
        <ele>1224.856934</ele>
        <time>2014-05-10T08:12:03Z</time>
      </trkpt>
      <trkpt lat="42.86487" lon="-0.39196">
        <ele>1224.856934</ele>
        <time>2014-05-10T08:12:20Z</time>
      </trkpt>
      <trkpt lat="42.8651" lon="-0.39209">
        <ele>1225.818115</ele>
        <time>2014-05-10T08:12:40Z</time>
      </trkpt>
      <trkpt lat="42.86523" lon="-0.39216">
        <ele>1226.298828</ele>
        <time>2014-05-10T08:12:51Z</time>
      </trkpt>
      <trkpt lat="42.86526" lon="-0.39219">
        <ele>1226.298828</ele>
        <time>2014-05-10T08:12:55Z</time>
      </trkpt>
      <trkpt lat="42.86547" lon="-0.39235">
        <ele>1226.779541</ele>
        <time>2014-05-10T08:13:16Z</time>
      </trkpt>
      <trkpt lat="42.86566" lon="-0.39252">
        <ele>1227.740723</ele>
        <time>2014-05-10T08:13:36Z</time>
      </trkpt>
      <trkpt lat="42.86579" lon="-0.3926">
        <ele>1227.740723</ele>
        <time>2014-05-10T08:13:49Z</time>
      </trkpt>
      <trkpt lat="42.86577" lon="-0.39267">
        <ele>1228.22168</ele>
        <time>2014-05-10T08:14:05Z</time>
      </trkpt>
      <trkpt lat="42.86577" lon="-0.39266">
        <ele>1229.663574</ele>
        <time>2014-05-10T08:14:27Z</time>
      </trkpt>
      <trkpt lat="42.86577" lon="-0.39266">
        <ele>1229.663574</ele>
        <time>2014-05-10T08:14:56Z</time>
      </trkpt>
      <trkpt lat="42.86577" lon="-0.39266">
        <ele>1230.625</ele>
        <time>2014-05-10T08:15:37Z</time>
      </trkpt>
      <trkpt lat="42.86577" lon="-0.39266">
        <ele>1231.586182</ele>
        <time>2014-05-10T08:16:07Z</time>
      </trkpt>
      <trkpt lat="42.86579" lon="-0.39263">
        <ele>1232.547607</ele>
        <time>2014-05-10T08:16:33Z</time>
      </trkpt>
      <trkpt lat="42.86581" lon="-0.39261">
        <ele>1232.547607</ele>
        <time>2014-05-10T08:16:49Z</time>
      </trkpt>
      <trkpt lat="42.86603" lon="-0.39262">
        <ele>1230.625</ele>
        <time>2014-05-10T08:17:10Z</time>
      </trkpt>
      <trkpt lat="42.86625" lon="-0.39272">
        <ele>1229.663574</ele>
        <time>2014-05-10T08:17:31Z</time>
      </trkpt>
      <trkpt lat="42.86641" lon="-0.39285">
        <ele>1229.663574</ele>
        <time>2014-05-10T08:17:48Z</time>
      </trkpt>
      <trkpt lat="42.86651" lon="-0.39293">
        <ele>1230.144287</ele>
        <time>2014-05-10T08:18:04Z</time>
      </trkpt>
      <trkpt lat="42.86675" lon="-0.39299">
        <ele>1229.663574</ele>
        <time>2014-05-10T08:18:25Z</time>
      </trkpt>
      <trkpt lat="42.86686" lon="-0.39305">
        <ele>1228.702393</ele>
        <time>2014-05-10T08:18:35Z</time>
      </trkpt>
      <trkpt lat="42.86709" lon="-0.39306">
        <ele>1227.260254</ele>
        <time>2014-05-10T08:18:53Z</time>
      </trkpt>
      <trkpt lat="42.86731" lon="-0.39297">
        <ele>1226.779541</ele>
        <time>2014-05-10T08:19:13Z</time>
      </trkpt>
      <trkpt lat="42.86747" lon="-0.39296">
        <ele>1225.337402</ele>
        <time>2014-05-10T08:19:27Z</time>
      </trkpt>
      <trkpt lat="42.86756" lon="-0.39296">
        <ele>1225.818115</ele>
        <time>2014-05-10T08:19:35Z</time>
      </trkpt>
      <trkpt lat="42.86776" lon="-0.39293">
        <ele>1222.934326</ele>
        <time>2014-05-10T08:19:53Z</time>
      </trkpt>
      <trkpt lat="42.86795" lon="-0.39283">
        <ele>1221.9729</ele>
        <time>2014-05-10T08:20:12Z</time>
      </trkpt>
      <trkpt lat="42.86809" lon="-0.39278">
        <ele>1221.492188</ele>
        <time>2014-05-10T08:20:28Z</time>
      </trkpt>
      <trkpt lat="42.8681" lon="-0.3928">
        <ele>1221.9729</ele>
        <time>2014-05-10T08:20:37Z</time>
      </trkpt>
      <trkpt lat="42.86815" lon="-0.39285">
        <ele>1221.011719</ele>
        <time>2014-05-10T08:20:50Z</time>
      </trkpt>
      <trkpt lat="42.86816" lon="-0.39283">
        <ele>1221.9729</ele>
        <time>2014-05-10T08:21:17Z</time>
      </trkpt>
      <trkpt lat="42.86815" lon="-0.39284">
        <ele>1221.9729</ele>
        <time>2014-05-10T08:21:29Z</time>
      </trkpt>
      <trkpt lat="42.86805" lon="-0.39308">
        <ele>1221.492188</ele>
        <time>2014-05-10T08:21:51Z</time>
      </trkpt>
      <trkpt lat="42.86811" lon="-0.39311">
        <ele>1221.9729</ele>
        <time>2014-05-10T08:22:08Z</time>
      </trkpt>
      <trkpt lat="42.8681" lon="-0.3931">
        <ele>1221.492188</ele>
        <time>2014-05-10T08:22:14Z</time>
      </trkpt>
      <trkpt lat="42.86822" lon="-0.39307">
        <ele>1219.089111</ele>
        <time>2014-05-10T08:22:29Z</time>
      </trkpt>
      <trkpt lat="42.86823" lon="-0.39307">
        <ele>1219.569824</ele>
        <time>2014-05-10T08:22:30Z</time>
      </trkpt>
      <trkpt lat="42.86849" lon="-0.39312">
        <ele>1217.166504</ele>
        <time>2014-05-10T08:22:53Z</time>
      </trkpt>
      <trkpt lat="42.86856" lon="-0.39314">
        <ele>1217.646973</ele>
        <time>2014-05-10T08:23:08Z</time>
      </trkpt>
      <trkpt lat="42.86857" lon="-0.39314">
        <ele>1217.646973</ele>
        <time>2014-05-10T08:23:16Z</time>
      </trkpt>
      <trkpt lat="42.86861" lon="-0.39312">
        <ele>1216.685791</ele>
        <time>2014-05-10T08:23:20Z</time>
      </trkpt>
      <trkpt lat="42.86886" lon="-0.3931">
        <ele>1216.685791</ele>
        <time>2014-05-10T08:23:41Z</time>
      </trkpt>
      <trkpt lat="42.86911" lon="-0.39304">
        <ele>1216.685791</ele>
        <time>2014-05-10T08:24:03Z</time>
      </trkpt>
      <trkpt lat="42.8693" lon="-0.39298">
        <ele>1216.685791</ele>
        <time>2014-05-10T08:24:20Z</time>
      </trkpt>
      <trkpt lat="42.86951" lon="-0.39284">
        <ele>1215.724609</ele>
        <time>2014-05-10T08:24:40Z</time>
      </trkpt>
      <trkpt lat="42.86968" lon="-0.39281">
        <ele>1216.685791</ele>
        <time>2014-05-10T08:24:57Z</time>
      </trkpt>
      <trkpt lat="42.86989" lon="-0.39292">
        <ele>1218.608398</ele>
        <time>2014-05-10T08:25:17Z</time>
      </trkpt>
      <trkpt lat="42.87011" lon="-0.39294">
        <ele>1219.089111</ele>
        <time>2014-05-10T08:25:37Z</time>
      </trkpt>
      <trkpt lat="42.8702" lon="-0.39288">
        <ele>1218.608398</ele>
        <time>2014-05-10T08:25:46Z</time>
      </trkpt>
      <trkpt lat="42.87042" lon="-0.39281">
        <ele>1219.089111</ele>
        <time>2014-05-10T08:26:06Z</time>
      </trkpt>
      <trkpt lat="42.87072" lon="-0.39279">
        <ele>1218.608398</ele>
        <time>2014-05-10T08:26:31Z</time>
      </trkpt>
      <trkpt lat="42.87096" lon="-0.39284">
        <ele>1221.492188</ele>
        <time>2014-05-10T08:26:53Z</time>
      </trkpt>
      <trkpt lat="42.8712" lon="-0.39298">
        <ele>1221.9729</ele>
        <time>2014-05-10T08:27:16Z</time>
      </trkpt>
      <trkpt lat="42.87136" lon="-0.39309">
        <ele>1222.934326</ele>
        <time>2014-05-10T08:27:32Z</time>
      </trkpt>
      <trkpt lat="42.87148" lon="-0.39315">
        <ele>1223.415039</ele>
        <time>2014-05-10T08:27:44Z</time>
      </trkpt>
      <trkpt lat="42.87158" lon="-0.39313">
        <ele>1224.856934</ele>
        <time>2014-05-10T08:28:00Z</time>
      </trkpt>
      <trkpt lat="42.87158" lon="-0.39313">
        <ele>1225.337402</ele>
        <time>2014-05-10T08:28:21Z</time>
      </trkpt>
      <trkpt lat="42.87158" lon="-0.3931">
        <ele>1225.337402</ele>
        <time>2014-05-10T08:28:39Z</time>
      </trkpt>
      <trkpt lat="42.87159" lon="-0.39311">
        <ele>1224.856934</ele>
        <time>2014-05-10T08:28:55Z</time>
      </trkpt>
      <trkpt lat="42.87158" lon="-0.3931">
        <ele>1225.818115</ele>
        <time>2014-05-10T08:29:23Z</time>
      </trkpt>
      <trkpt lat="42.87158" lon="-0.3931">
        <ele>1224.856934</ele>
        <time>2014-05-10T08:29:41Z</time>
      </trkpt>
      <trkpt lat="42.87158" lon="-0.39312">
        <ele>1228.22168</ele>
        <time>2014-05-10T08:30:23Z</time>
      </trkpt>
      <trkpt lat="42.87158" lon="-0.39311">
        <ele>1228.702393</ele>
        <time>2014-05-10T08:30:38Z</time>
      </trkpt>
      <trkpt lat="42.87158" lon="-0.3931">
        <ele>1228.22168</ele>
        <time>2014-05-10T08:30:56Z</time>
      </trkpt>
      <trkpt lat="42.87162" lon="-0.39314">
        <ele>1228.22168</ele>
        <time>2014-05-10T08:31:24Z</time>
      </trkpt>
      <trkpt lat="42.8717" lon="-0.39313">
        <ele>1229.182861</ele>
        <time>2014-05-10T08:31:34Z</time>
      </trkpt>
      <trkpt lat="42.87171" lon="-0.39309">
        <ele>1229.663574</ele>
        <time>2014-05-10T08:31:48Z</time>
      </trkpt>
      <trkpt lat="42.87183" lon="-0.39318">
        <ele>1230.144287</ele>
        <time>2014-05-10T08:32:05Z</time>
      </trkpt>
      <trkpt lat="42.8719" lon="-0.39322">
        <ele>1230.144287</ele>
        <time>2014-05-10T08:32:16Z</time>
      </trkpt>
      <trkpt lat="42.87201" lon="-0.39322">
        <ele>1229.182861</ele>
        <time>2014-05-10T08:32:31Z</time>
      </trkpt>
      <trkpt lat="42.87207" lon="-0.39321">
        <ele>1229.182861</ele>
        <time>2014-05-10T08:32:42Z</time>
      </trkpt>
      <trkpt lat="42.87222" lon="-0.39324">
        <ele>1228.702393</ele>
        <time>2014-05-10T08:32:59Z</time>
      </trkpt>
      <trkpt lat="42.87227" lon="-0.39329">
        <ele>1229.663574</ele>
        <time>2014-05-10T08:33:08Z</time>
      </trkpt>
      <trkpt lat="42.87243" lon="-0.39333">
        <ele>1231.586182</ele>
        <time>2014-05-10T08:33:26Z</time>
      </trkpt>
      <trkpt lat="42.87253" lon="-0.39338">
        <ele>1231.586182</ele>
        <time>2014-05-10T08:33:44Z</time>
      </trkpt>
      <trkpt lat="42.87252" lon="-0.39337">
        <ele>1232.066895</ele>
        <time>2014-05-10T08:34:10Z</time>
      </trkpt>
      <trkpt lat="42.87252" lon="-0.39337">
        <ele>1232.547607</ele>
        <time>2014-05-10T08:34:33Z</time>
      </trkpt>
      <trkpt lat="42.87252" lon="-0.39337">
        <ele>1232.547607</ele>
        <time>2014-05-10T08:35:14Z</time>
      </trkpt>
      <trkpt lat="42.87255" lon="-0.39335">
        <ele>1232.066895</ele>
        <time>2014-05-10T08:35:26Z</time>
      </trkpt>
      <trkpt lat="42.8727" lon="-0.39332">
        <ele>1230.625</ele>
        <time>2014-05-10T08:35:42Z</time>
      </trkpt>
      <trkpt lat="42.87291" lon="-0.39349">
        <ele>1230.625</ele>
        <time>2014-05-10T08:36:03Z</time>
      </trkpt>
      <trkpt lat="42.87306" lon="-0.39355">
        <ele>1229.663574</ele>
        <time>2014-05-10T08:36:19Z</time>
      </trkpt>
      <trkpt lat="42.87326" lon="-0.3937">
        <ele>1229.663574</ele>
        <time>2014-05-10T08:36:39Z</time>
      </trkpt>
      <trkpt lat="42.87343" lon="-0.39388">
        <ele>1231.105713</ele>
        <time>2014-05-10T08:36:59Z</time>
      </trkpt>
      <trkpt lat="42.87356" lon="-0.39402">
        <ele>1231.586182</ele>
        <time>2014-05-10T08:37:15Z</time>
      </trkpt>
      <trkpt lat="42.87357" lon="-0.39401">
        <ele>1232.066895</ele>
        <time>2014-05-10T08:37:28Z</time>
      </trkpt>
      <trkpt lat="42.8738" lon="-0.39413">
        <ele>1230.625</ele>
        <time>2014-05-10T08:37:49Z</time>
      </trkpt>
      <trkpt lat="42.87397" lon="-0.39428">
        <ele>1230.625</ele>
        <time>2014-05-10T08:38:06Z</time>
      </trkpt>
      <trkpt lat="42.874" lon="-0.3943">
        <ele>1231.105713</ele>
        <time>2014-05-10T08:38:10Z</time>
      </trkpt>
      <trkpt lat="42.87402" lon="-0.39431">
        <ele>1230.625</ele>
        <time>2014-05-10T08:38:25Z</time>
      </trkpt>
      <trkpt lat="42.87403" lon="-0.39432">
        <ele>1231.105713</ele>
        <time>2014-05-10T08:38:29Z</time>
      </trkpt>
      <trkpt lat="42.87419" lon="-0.3945">
        <ele>1231.586182</ele>
        <time>2014-05-10T08:38:48Z</time>
      </trkpt>
      <trkpt lat="42.87436" lon="-0.39467">
        <ele>1232.066895</ele>
        <time>2014-05-10T08:39:07Z</time>
      </trkpt>
      <trkpt lat="42.87451" lon="-0.39475">
        <ele>1232.066895</ele>
        <time>2014-05-10T08:39:24Z</time>
      </trkpt>
      <trkpt lat="42.87472" lon="-0.39483">
        <ele>1231.105713</ele>
        <time>2014-05-10T08:39:44Z</time>
      </trkpt>
      <trkpt lat="42.87477" lon="-0.39485">
        <ele>1231.105713</ele>
        <time>2014-05-10T08:40:02Z</time>
      </trkpt>
      <trkpt lat="42.87482" lon="-0.39483">
        <ele>1231.105713</ele>
        <time>2014-05-10T08:40:16Z</time>
      </trkpt>
      <trkpt lat="42.87494" lon="-0.39486">
        <ele>1231.105713</ele>
        <time>2014-05-10T08:40:40Z</time>
      </trkpt>
      <trkpt lat="42.87518" lon="-0.39486">
        <ele>1231.105713</ele>
        <time>2014-05-10T08:41:02Z</time>
      </trkpt>
      <trkpt lat="42.87529" lon="-0.39484">
        <ele>1232.066895</ele>
        <time>2014-05-10T08:41:12Z</time>
      </trkpt>
      <trkpt lat="42.87544" lon="-0.3948">
        <ele>1232.066895</ele>
        <time>2014-05-10T08:41:27Z</time>
      </trkpt>
      <trkpt lat="42.87561" lon="-0.39474">
        <ele>1230.625</ele>
        <time>2014-05-10T08:41:45Z</time>
      </trkpt>
      <trkpt lat="42.87576" lon="-0.39472">
        <ele>1229.663574</ele>
        <time>2014-05-10T08:42:00Z</time>
      </trkpt>
      <trkpt lat="42.87593" lon="-0.39472">
        <ele>1229.663574</ele>
        <time>2014-05-10T08:42:19Z</time>
      </trkpt>
      <trkpt lat="42.87596" lon="-0.39473">
        <ele>1229.663574</ele>
        <time>2014-05-10T08:42:22Z</time>
      </trkpt>
      <trkpt lat="42.8761" lon="-0.39483">
        <ele>1231.586182</ele>
        <time>2014-05-10T08:42:39Z</time>
      </trkpt>
      <trkpt lat="42.87625" lon="-0.39492">
        <ele>1232.066895</ele>
        <time>2014-05-10T08:42:54Z</time>
      </trkpt>
      <trkpt lat="42.87639" lon="-0.39499">
        <ele>1234.470215</ele>
        <time>2014-05-10T08:43:10Z</time>
      </trkpt>
      <trkpt lat="42.87656" lon="-0.395">
        <ele>1234.950928</ele>
        <time>2014-05-10T08:43:26Z</time>
      </trkpt>
      <trkpt lat="42.8768" lon="-0.39496">
        <ele>1233.508789</ele>
        <time>2014-05-10T08:43:46Z</time>
      </trkpt>
      <trkpt lat="42.87696" lon="-0.395">
        <ele>1232.547607</ele>
        <time>2014-05-10T08:44:03Z</time>
      </trkpt>
      <trkpt lat="42.87716" lon="-0.395">
        <ele>1233.028076</ele>
        <time>2014-05-10T08:44:23Z</time>
      </trkpt>
      <trkpt lat="42.8772" lon="-0.39501">
        <ele>1233.989502</ele>
        <time>2014-05-10T08:44:27Z</time>
      </trkpt>
      <trkpt lat="42.8773" lon="-0.39501">
        <ele>1233.989502</ele>
        <time>2014-05-10T08:44:38Z</time>
      </trkpt>
      <trkpt lat="42.87734" lon="-0.39505">
        <ele>1233.989502</ele>
        <time>2014-05-10T08:44:51Z</time>
      </trkpt>
      <trkpt lat="42.87736" lon="-0.39507">
        <ele>1234.950928</ele>
        <time>2014-05-10T08:45:14Z</time>
      </trkpt>
      <trkpt lat="42.87745" lon="-0.3951">
        <ele>1234.950928</ele>
        <time>2014-05-10T08:45:26Z</time>
      </trkpt>
      <trkpt lat="42.87748" lon="-0.3951">
        <ele>1236.392822</ele>
        <time>2014-05-10T08:45:42Z</time>
      </trkpt>
      <trkpt lat="42.87748" lon="-0.39509">
        <ele>1235.431396</ele>
        <time>2014-05-10T08:46:02Z</time>
      </trkpt>
      <trkpt lat="42.8775" lon="-0.39515">
        <ele>1236.392822</ele>
        <time>2014-05-10T08:46:13Z</time>
      </trkpt>
      <trkpt lat="42.87758" lon="-0.39522">
        <ele>1238.31543</ele>
        <time>2014-05-10T08:46:23Z</time>
      </trkpt>
      <trkpt lat="42.87779" lon="-0.39536">
        <ele>1240.718506</ele>
        <time>2014-05-10T08:46:44Z</time>
      </trkpt>
      <trkpt lat="42.87794" lon="-0.39547">
        <ele>1244.083496</ele>
        <time>2014-05-10T08:47:03Z</time>
      </trkpt>
      <trkpt lat="42.87804" lon="-0.39553">
        <ele>1246.967285</ele>
        <time>2014-05-10T08:47:15Z</time>
      </trkpt>
      <trkpt lat="42.87809" lon="-0.39556">
        <ele>1248.40918</ele>
        <time>2014-05-10T08:47:30Z</time>
      </trkpt>
      <trkpt lat="42.87816" lon="-0.3956">
        <ele>1249.370605</ele>
        <time>2014-05-10T08:47:42Z</time>
      </trkpt>
      <trkpt lat="42.87822" lon="-0.39563">
        <ele>1248.889893</ele>
        <time>2014-05-10T08:47:49Z</time>
      </trkpt>
      <trkpt lat="42.87831" lon="-0.39574">
        <ele>1248.40918</ele>
        <time>2014-05-10T08:48:04Z</time>
      </trkpt>
      <trkpt lat="42.87838" lon="-0.39579">
        <ele>1248.40918</ele>
        <time>2014-05-10T08:48:18Z</time>
      </trkpt>
      <trkpt lat="42.87839" lon="-0.39579">
        <ele>1248.889893</ele>
        <time>2014-05-10T08:48:30Z</time>
      </trkpt>
      <trkpt lat="42.87837" lon="-0.39587">
        <ele>1248.40918</ele>
        <time>2014-05-10T08:48:44Z</time>
      </trkpt>
      <trkpt lat="42.87836" lon="-0.39583">
        <ele>1247.928711</ele>
        <time>2014-05-10T08:48:57Z</time>
      </trkpt>
      <trkpt lat="42.87833" lon="-0.39579">
        <ele>1249.370605</ele>
        <time>2014-05-10T08:49:05Z</time>
      </trkpt>
      <trkpt lat="42.87834" lon="-0.3957">
        <ele>1248.889893</ele>
        <time>2014-05-10T08:49:19Z</time>
      </trkpt>
      <trkpt lat="42.87832" lon="-0.39571">
        <ele>1249.851318</ele>
        <time>2014-05-10T08:49:47Z</time>
      </trkpt>
      <trkpt lat="42.87833" lon="-0.39572">
        <ele>1249.851318</ele>
        <time>2014-05-10T08:49:58Z</time>
      </trkpt>
      <trkpt lat="42.87828" lon="-0.39574">
        <ele>1249.851318</ele>
        <time>2014-05-10T08:50:07Z</time>
      </trkpt>
      <trkpt lat="42.87834" lon="-0.39571">
        <ele>1249.851318</ele>
        <time>2014-05-10T08:50:23Z</time>
      </trkpt>
      <trkpt lat="42.87834" lon="-0.3957">
        <ele>1251.293213</ele>
        <time>2014-05-10T08:50:41Z</time>
      </trkpt>
      <trkpt lat="42.87832" lon="-0.39572">
        <ele>1251.773926</ele>
        <time>2014-05-10T08:51:55Z</time>
      </trkpt>
      <trkpt lat="42.87832" lon="-0.39572">
        <ele>1251.773926</ele>
        <time>2014-05-10T08:52:14Z</time>
      </trkpt>
      <trkpt lat="42.87832" lon="-0.39572">
        <ele>1251.293213</ele>
        <time>2014-05-10T08:52:29Z</time>
      </trkpt>
      <trkpt lat="42.87832" lon="-0.39574">
        <ele>1251.773926</ele>
        <time>2014-05-10T08:52:32Z</time>
      </trkpt>
      <trkpt lat="42.87839" lon="-0.39586">
        <ele>1249.851318</ele>
        <time>2014-05-10T08:52:42Z</time>
      </trkpt>
      <trkpt lat="42.87858" lon="-0.39605">
        <ele>1249.370605</ele>
        <time>2014-05-10T08:53:03Z</time>
      </trkpt>
      <trkpt lat="42.87856" lon="-0.39608">
        <ele>1248.889893</ele>
        <time>2014-05-10T08:53:18Z</time>
      </trkpt>
      <trkpt lat="42.87863" lon="-0.39621">
        <ele>1248.889893</ele>
        <time>2014-05-10T08:53:33Z</time>
      </trkpt>
      <trkpt lat="42.87863" lon="-0.3962">
        <ele>1248.889893</ele>
        <time>2014-05-10T08:53:57Z</time>
      </trkpt>
      <trkpt lat="42.87863" lon="-0.39619">
        <ele>1248.889893</ele>
        <time>2014-05-10T08:54:34Z</time>
      </trkpt>
      <trkpt lat="42.87863" lon="-0.39619">
        <ele>1249.851318</ele>
        <time>2014-05-10T08:54:56Z</time>
      </trkpt>
      <trkpt lat="42.87864" lon="-0.39619">
        <ele>1249.851318</ele>
        <time>2014-05-10T08:55:20Z</time>
      </trkpt>
      <trkpt lat="42.87863" lon="-0.39619">
        <ele>1249.851318</ele>
        <time>2014-05-10T08:55:26Z</time>
      </trkpt>
      <trkpt lat="42.87858" lon="-0.39607">
        <ele>1249.851318</ele>
        <time>2014-05-10T08:55:34Z</time>
      </trkpt>
      <trkpt lat="42.87859" lon="-0.39597">
        <ele>1251.773926</ele>
        <time>2014-05-10T08:55:41Z</time>
      </trkpt>
      <trkpt lat="42.8788" lon="-0.39592">
        <ele>1253.21582</ele>
        <time>2014-05-10T08:56:03Z</time>
      </trkpt>
      <trkpt lat="42.87884" lon="-0.39592">
        <ele>1254.177246</ele>
        <time>2014-05-10T08:56:17Z</time>
      </trkpt>
      <trkpt lat="42.87891" lon="-0.3959">
        <ele>1253.696533</ele>
        <time>2014-05-10T08:56:28Z</time>
      </trkpt>
      <trkpt lat="42.87906" lon="-0.39585">
        <ele>1257.061035</ele>
        <time>2014-05-10T08:56:44Z</time>
      </trkpt>
      <trkpt lat="42.87915" lon="-0.39583">
        <ele>1257.061035</ele>
        <time>2014-05-10T08:56:57Z</time>
      </trkpt>
      <trkpt lat="42.87924" lon="-0.39579">
        <ele>1258.022461</ele>
        <time>2014-05-10T08:57:12Z</time>
      </trkpt>
      <trkpt lat="42.87928" lon="-0.39576">
        <ele>1259.944824</ele>
        <time>2014-05-10T08:57:27Z</time>
      </trkpt>
      <trkpt lat="42.87929" lon="-0.39576">
        <ele>1260.425781</ele>
        <time>2014-05-10T08:57:40Z</time>
      </trkpt>
      <trkpt lat="42.8793" lon="-0.39576">
        <ele>1260.425781</ele>
        <time>2014-05-10T08:57:54Z</time>
      </trkpt>
      <trkpt lat="42.87929" lon="-0.39579">
        <ele>1259.944824</ele>
        <time>2014-05-10T08:58:05Z</time>
      </trkpt>
      <trkpt lat="42.8793" lon="-0.3958">
        <ele>1260.425781</ele>
        <time>2014-05-10T08:58:18Z</time>
      </trkpt>
      <trkpt lat="42.87942" lon="-0.3958">
        <ele>1261.387207</ele>
        <time>2014-05-10T08:58:32Z</time>
      </trkpt>
      <trkpt lat="42.8795" lon="-0.39579">
        <ele>1263.790283</ele>
        <time>2014-05-10T08:58:43Z</time>
      </trkpt>
      <trkpt lat="42.87957" lon="-0.39579">
        <ele>1263.790283</ele>
        <time>2014-05-10T08:58:53Z</time>
      </trkpt>
      <trkpt lat="42.87964" lon="-0.39582">
        <ele>1264.751709</ele>
        <time>2014-05-10T08:59:05Z</time>
      </trkpt>
      <trkpt lat="42.87977" lon="-0.39586">
        <ele>1267.155029</ele>
        <time>2014-05-10T08:59:19Z</time>
      </trkpt>
      <trkpt lat="42.87996" lon="-0.39592">
        <ele>1270.038818</ele>
        <time>2014-05-10T08:59:39Z</time>
      </trkpt>
      <trkpt lat="42.88016" lon="-0.396">
        <ele>1271.000244</ele>
        <time>2014-05-10T08:59:59Z</time>
      </trkpt>
      <trkpt lat="42.88022" lon="-0.39602">
        <ele>1272.442139</ele>
        <time>2014-05-10T09:00:05Z</time>
      </trkpt>
      <trkpt lat="42.88031" lon="-0.39614">
        <ele>1274.364746</ele>
        <time>2014-05-10T09:00:18Z</time>
      </trkpt>
      <trkpt lat="42.88039" lon="-0.39632">
        <ele>1278.210205</ele>
        <time>2014-05-10T09:00:33Z</time>
      </trkpt>
      <trkpt lat="42.88043" lon="-0.39644">
        <ele>1278.690918</ele>
        <time>2014-05-10T09:00:48Z</time>
      </trkpt>
      <trkpt lat="42.88044" lon="-0.39644">
        <ele>1278.690918</ele>
        <time>2014-05-10T09:01:05Z</time>
      </trkpt>
      <trkpt lat="42.88043" lon="-0.39643">
        <ele>1279.171387</ele>
        <time>2014-05-10T09:01:39Z</time>
      </trkpt>
      <trkpt lat="42.88043" lon="-0.39643">
        <ele>1278.210205</ele>
        <time>2014-05-10T09:01:56Z</time>
      </trkpt>
      <trkpt lat="42.88044" lon="-0.39642">
        <ele>1278.210205</ele>
        <time>2014-05-10T09:02:28Z</time>
      </trkpt>
      <trkpt lat="42.88044" lon="-0.39642">
        <ele>1277.729492</ele>
        <time>2014-05-10T09:03:08Z</time>
      </trkpt>
      <trkpt lat="42.88045" lon="-0.39643">
        <ele>1277.729492</ele>
        <time>2014-05-10T09:03:35Z</time>
      </trkpt>
      <trkpt lat="42.88056" lon="-0.39664">
        <ele>1279.6521</ele>
        <time>2014-05-10T09:03:52Z</time>
      </trkpt>
      <trkpt lat="42.8806" lon="-0.39693">
        <ele>1278.690918</ele>
        <time>2014-05-10T09:04:11Z</time>
      </trkpt>
      <trkpt lat="42.88072" lon="-0.39725">
        <ele>1277.729492</ele>
        <time>2014-05-10T09:04:34Z</time>
      </trkpt>
      <trkpt lat="42.88074" lon="-0.3973">
        <ele>1276.768311</ele>
        <time>2014-05-10T09:04:38Z</time>
      </trkpt>
      <trkpt lat="42.88093" lon="-0.39761">
        <ele>1275.806641</ele>
        <time>2014-05-10T09:05:02Z</time>
      </trkpt>
      <trkpt lat="42.88119" lon="-0.39775">
        <ele>1275.325928</ele>
        <time>2014-05-10T09:05:25Z</time>
      </trkpt>
      <trkpt lat="42.88127" lon="-0.39779">
        <ele>1274.845459</ele>
        <time>2014-05-10T09:05:32Z</time>
      </trkpt>
      <trkpt lat="42.88148" lon="-0.3979">
        <ele>1273.403564</ele>
        <time>2014-05-10T09:05:51Z</time>
      </trkpt>
      <trkpt lat="42.88161" lon="-0.39812">
        <ele>1272.922852</ele>
        <time>2014-05-10T09:06:11Z</time>
      </trkpt>
      <trkpt lat="42.88164" lon="-0.39815">
        <ele>1272.922852</ele>
        <time>2014-05-10T09:06:20Z</time>
      </trkpt>
      <trkpt lat="42.8817" lon="-0.39816">
        <ele>1273.403564</ele>
        <time>2014-05-10T09:06:26Z</time>
      </trkpt>
      <trkpt lat="42.8818" lon="-0.39818">
        <ele>1274.364746</ele>
        <time>2014-05-10T09:06:42Z</time>
      </trkpt>
      <trkpt lat="42.88179" lon="-0.39819">
        <ele>1273.884033</ele>
        <time>2014-05-10T09:07:06Z</time>
      </trkpt>
      <trkpt lat="42.8818" lon="-0.39817">
        <ele>1274.364746</ele>
        <time>2014-05-10T09:07:23Z</time>
      </trkpt>
      <trkpt lat="42.88182" lon="-0.39817">
        <ele>1274.845459</ele>
        <time>2014-05-10T09:07:39Z</time>
      </trkpt>
      <trkpt lat="42.8819" lon="-0.39816">
        <ele>1274.845459</ele>
        <time>2014-05-10T09:07:49Z</time>
      </trkpt>
      <trkpt lat="42.88203" lon="-0.39813">
        <ele>1275.325928</ele>
        <time>2014-05-10T09:08:05Z</time>
      </trkpt>
      <trkpt lat="42.88213" lon="-0.39816">
        <ele>1275.806641</ele>
        <time>2014-05-10T09:08:19Z</time>
      </trkpt>
      <trkpt lat="42.88231" lon="-0.39812">
        <ele>1277.249023</ele>
        <time>2014-05-10T09:08:37Z</time>
      </trkpt>
      <trkpt lat="42.88254" lon="-0.39814">
        <ele>1278.690918</ele>
        <time>2014-05-10T09:08:57Z</time>
      </trkpt>
      <trkpt lat="42.88279" lon="-0.3981">
        <ele>1278.690918</ele>
        <time>2014-05-10T09:09:19Z</time>
      </trkpt>
      <trkpt lat="42.88302" lon="-0.39802">
        <ele>1279.171387</ele>
        <time>2014-05-10T09:09:40Z</time>
      </trkpt>
      <trkpt lat="42.88315" lon="-0.39803">
        <ele>1279.6521</ele>
        <time>2014-05-10T09:09:52Z</time>
      </trkpt>
      <trkpt lat="42.88316" lon="-0.39806">
        <ele>1279.6521</ele>
        <time>2014-05-10T09:09:55Z</time>
      </trkpt>
      <trkpt lat="42.88328" lon="-0.39813">
        <ele>1280.613525</ele>
        <time>2014-05-10T09:10:08Z</time>
      </trkpt>
      <trkpt lat="42.88336" lon="-0.3982">
        <ele>1279.6521</ele>
        <time>2014-05-10T09:10:16Z</time>
      </trkpt>
      <trkpt lat="42.88337" lon="-0.39824">
        <ele>1280.132813</ele>
        <time>2014-05-10T09:10:19Z</time>
      </trkpt>
      <trkpt lat="42.88344" lon="-0.39831">
        <ele>1280.132813</ele>
        <time>2014-05-10T09:10:27Z</time>
      </trkpt>
      <trkpt lat="42.88347" lon="-0.39834">
        <ele>1280.613525</ele>
        <time>2014-05-10T09:10:31Z</time>
      </trkpt>
      <trkpt lat="42.88368" lon="-0.39853">
        <ele>1280.132813</ele>
        <time>2014-05-10T09:10:52Z</time>
      </trkpt>
      <trkpt lat="42.88383" lon="-0.3986">
        <ele>1279.6521</ele>
        <time>2014-05-10T09:11:10Z</time>
      </trkpt>
      <trkpt lat="42.88384" lon="-0.39861">
        <ele>1280.132813</ele>
        <time>2014-05-10T09:11:29Z</time>
      </trkpt>
      <trkpt lat="42.88384" lon="-0.3986">
        <ele>1280.613525</ele>
        <time>2014-05-10T09:11:36Z</time>
      </trkpt>
      <trkpt lat="42.88405" lon="-0.39858">
        <ele>1278.690918</ele>
        <time>2014-05-10T09:11:53Z</time>
      </trkpt>
      <trkpt lat="42.88415" lon="-0.39854">
        <ele>1279.171387</ele>
        <time>2014-05-10T09:12:01Z</time>
      </trkpt>
      <trkpt lat="42.88426" lon="-0.3987">
        <ele>1279.171387</ele>
        <time>2014-05-10T09:12:15Z</time>
      </trkpt>
      <trkpt lat="42.88428" lon="-0.39902">
        <ele>1279.6521</ele>
        <time>2014-05-10T09:12:34Z</time>
      </trkpt>
      <trkpt lat="42.8843" lon="-0.39915">
        <ele>1281.574707</ele>
        <time>2014-05-10T09:12:44Z</time>
      </trkpt>
      <trkpt lat="42.88435" lon="-0.3992">
        <ele>1283.497314</ele>
        <time>2014-05-10T09:12:50Z</time>
      </trkpt>
      <trkpt lat="42.88446" lon="-0.3992">
        <ele>1284.45874</ele>
        <time>2014-05-10T09:13:04Z</time>
      </trkpt>
      <trkpt lat="42.88451" lon="-0.39917">
        <ele>1285.900635</ele>
        <time>2014-05-10T09:13:10Z</time>
      </trkpt>
      <trkpt lat="42.88461" lon="-0.39902">
        <ele>1287.342529</ele>
        <time>2014-05-10T09:13:25Z</time>
      </trkpt>
      <trkpt lat="42.88477" lon="-0.3989">
        <ele>1286.861816</ele>
        <time>2014-05-10T09:13:42Z</time>
      </trkpt>
      <trkpt lat="42.88493" lon="-0.39885">
        <ele>1289.74585</ele>
        <time>2014-05-10T09:13:58Z</time>
      </trkpt>
      <trkpt lat="42.88503" lon="-0.39886">
        <ele>1289.74585</ele>
        <time>2014-05-10T09:14:07Z</time>
      </trkpt>
      <trkpt lat="42.88512" lon="-0.39894">
        <ele>1290.707031</ele>
        <time>2014-05-10T09:14:22Z</time>
      </trkpt>
      <trkpt lat="42.88513" lon="-0.39905">
        <ele>1291.187744</ele>
        <time>2014-05-10T09:14:38Z</time>
      </trkpt>
      <trkpt lat="42.88516" lon="-0.3991">
        <ele>1291.668457</ele>
        <time>2014-05-10T09:14:51Z</time>
      </trkpt>
      <trkpt lat="42.88515" lon="-0.39911">
        <ele>1292.149414</ele>
        <time>2014-05-10T09:15:03Z</time>
      </trkpt>
      <trkpt lat="42.88512" lon="-0.39915">
        <ele>1291.187744</ele>
        <time>2014-05-10T09:15:16Z</time>
      </trkpt>
      <trkpt lat="42.88509" lon="-0.39916">
        <ele>1291.187744</ele>
        <time>2014-05-10T09:15:28Z</time>
      </trkpt>
      <trkpt lat="42.8851" lon="-0.39914">
        <ele>1291.187744</ele>
        <time>2014-05-10T09:15:48Z</time>
      </trkpt>
      <trkpt lat="42.88507" lon="-0.39914">
        <ele>1291.187744</ele>
        <time>2014-05-10T09:16:16Z</time>
      </trkpt>
      <trkpt lat="42.88507" lon="-0.39914">
        <ele>1291.668457</ele>
        <time>2014-05-10T09:16:34Z</time>
      </trkpt>
      <trkpt lat="42.88507" lon="-0.39909">
        <ele>1291.187744</ele>
        <time>2014-05-10T09:16:50Z</time>
      </trkpt>
      <trkpt lat="42.88509" lon="-0.39902">
        <ele>1292.149414</ele>
        <time>2014-05-10T09:17:07Z</time>
      </trkpt>
      <trkpt lat="42.88507" lon="-0.39905">
        <ele>1293.591309</ele>
        <time>2014-05-10T09:17:51Z</time>
      </trkpt>
      <trkpt lat="42.88503" lon="-0.39917">
        <ele>1292.630127</ele>
        <time>2014-05-10T09:18:05Z</time>
      </trkpt>
      <trkpt lat="42.88504" lon="-0.39926">
        <ele>1292.630127</ele>
        <time>2014-05-10T09:18:18Z</time>
      </trkpt>
      <trkpt lat="42.88505" lon="-0.39931">
        <ele>1292.149414</ele>
        <time>2014-05-10T09:18:21Z</time>
      </trkpt>
      <trkpt lat="42.88498" lon="-0.39943">
        <ele>1292.149414</ele>
        <time>2014-05-10T09:18:32Z</time>
      </trkpt>
      <trkpt lat="42.88497" lon="-0.39947">
        <ele>1291.668457</ele>
        <time>2014-05-10T09:18:35Z</time>
      </trkpt>
      <trkpt lat="42.88486" lon="-0.39964">
        <ele>1291.187744</ele>
        <time>2014-05-10T09:18:55Z</time>
      </trkpt>
      <trkpt lat="42.88471" lon="-0.39984">
        <ele>1290.707031</ele>
        <time>2014-05-10T09:19:14Z</time>
      </trkpt>
      <trkpt lat="42.88463" lon="-0.40001">
        <ele>1290.707031</ele>
        <time>2014-05-10T09:19:28Z</time>
      </trkpt>
      <trkpt lat="42.8846" lon="-0.40032">
        <ele>1290.226563</ele>
        <time>2014-05-10T09:19:49Z</time>
      </trkpt>
      <trkpt lat="42.88468" lon="-0.40051">
        <ele>1290.226563</ele>
        <time>2014-05-10T09:20:07Z</time>
      </trkpt>
      <trkpt lat="42.88467" lon="-0.40053">
        <ele>1290.707031</ele>
        <time>2014-05-10T09:20:23Z</time>
      </trkpt>
      <trkpt lat="42.88466" lon="-0.40055">
        <ele>1291.187744</ele>
        <time>2014-05-10T09:20:36Z</time>
      </trkpt>
      <trkpt lat="42.88459" lon="-0.40059">
        <ele>1291.668457</ele>
        <time>2014-05-10T09:20:50Z</time>
      </trkpt>
      <trkpt lat="42.88459" lon="-0.40059">
        <ele>1291.668457</ele>
        <time>2014-05-10T09:21:07Z</time>
      </trkpt>
      <trkpt lat="42.88459" lon="-0.40058">
        <ele>1291.187744</ele>
        <time>2014-05-10T09:21:29Z</time>
      </trkpt>
      <trkpt lat="42.88459" lon="-0.40058">
        <ele>1290.707031</ele>
        <time>2014-05-10T09:21:59Z</time>
      </trkpt>
      <trkpt lat="42.88458" lon="-0.40058">
        <ele>1290.707031</ele>
        <time>2014-05-10T09:22:26Z</time>
      </trkpt>
      <trkpt lat="42.88457" lon="-0.40057">
        <ele>1291.668457</ele>
        <time>2014-05-10T09:31:20Z</time>
      </trkpt>
      <trkpt lat="42.88457" lon="-0.40058">
        <ele>1292.149414</ele>
        <time>2014-05-10T09:31:31Z</time>
      </trkpt>
      <trkpt lat="42.8846" lon="-0.40055">
        <ele>1291.668457</ele>
        <time>2014-05-10T09:31:45Z</time>
      </trkpt>
      <trkpt lat="42.88463" lon="-0.40053">
        <ele>1291.668457</ele>
        <time>2014-05-10T09:31:59Z</time>
      </trkpt>
      <trkpt lat="42.88465" lon="-0.40053">
        <ele>1291.187744</ele>
        <time>2014-05-10T09:32:10Z</time>
      </trkpt>
      <trkpt lat="42.88469" lon="-0.4006">
        <ele>1289.265137</ele>
        <time>2014-05-10T09:32:28Z</time>
      </trkpt>
      <trkpt lat="42.88472" lon="-0.40063">
        <ele>1286.861816</ele>
        <time>2014-05-10T09:32:42Z</time>
      </trkpt>
      <trkpt lat="42.88474" lon="-0.40072">
        <ele>1283.497314</ele>
        <time>2014-05-10T09:32:54Z</time>
      </trkpt>
      <trkpt lat="42.88475" lon="-0.40082">
        <ele>1280.132813</ele>
        <time>2014-05-10T09:33:09Z</time>
      </trkpt>
      <trkpt lat="42.88476" lon="-0.40092">
        <ele>1277.249023</ele>
        <time>2014-05-10T09:33:22Z</time>
      </trkpt>
      <trkpt lat="42.88475" lon="-0.40098">
        <ele>1274.845459</ele>
        <time>2014-05-10T09:33:39Z</time>
      </trkpt>
      <trkpt lat="42.88474" lon="-0.401">
        <ele>1275.806641</ele>
        <time>2014-05-10T09:34:00Z</time>
      </trkpt>
      <trkpt lat="42.88475" lon="-0.40101">
        <ele>1275.806641</ele>
        <time>2014-05-10T09:34:22Z</time>
      </trkpt>
      <trkpt lat="42.88474" lon="-0.401">
        <ele>1276.287598</ele>
        <time>2014-05-10T09:34:39Z</time>
      </trkpt>
      <trkpt lat="42.88476" lon="-0.40103">
        <ele>1274.845459</ele>
        <time>2014-05-10T09:34:59Z</time>
      </trkpt>
      <trkpt lat="42.88478" lon="-0.40106">
        <ele>1273.403564</ele>
        <time>2014-05-10T09:35:15Z</time>
      </trkpt>
      <trkpt lat="42.8848" lon="-0.40113">
        <ele>1271.480713</ele>
        <time>2014-05-10T09:35:29Z</time>
      </trkpt>
      <trkpt lat="42.88482" lon="-0.40118">
        <ele>1269.55835</ele>
        <time>2014-05-10T09:35:34Z</time>
      </trkpt>
      <trkpt lat="42.88484" lon="-0.4013">
        <ele>1268.116211</ele>
        <time>2014-05-10T09:35:49Z</time>
      </trkpt>
      <trkpt lat="42.88483" lon="-0.40133">
        <ele>1266.193604</ele>
        <time>2014-05-10T09:36:01Z</time>
      </trkpt>
      <trkpt lat="42.8848" lon="-0.40139">
        <ele>1265.713135</ele>
        <time>2014-05-10T09:36:22Z</time>
      </trkpt>
      <trkpt lat="42.88479" lon="-0.40138">
        <ele>1264.751709</ele>
        <time>2014-05-10T09:36:58Z</time>
      </trkpt>
      <trkpt lat="42.88478" lon="-0.40138">
        <ele>1264.751709</ele>
        <time>2014-05-10T09:37:04Z</time>
      </trkpt>
      <trkpt lat="42.88473" lon="-0.40141">
        <ele>1265.713135</ele>
        <time>2014-05-10T09:37:25Z</time>
      </trkpt>
      <trkpt lat="42.8847" lon="-0.40131">
        <ele>1262.348389</ele>
        <time>2014-05-10T09:37:43Z</time>
      </trkpt>
      <trkpt lat="42.8846" lon="-0.40128">
        <ele>1259.944824</ele>
        <time>2014-05-10T09:37:56Z</time>
      </trkpt>
      <trkpt lat="42.88455" lon="-0.40135">
        <ele>1256.580322</ele>
        <time>2014-05-10T09:38:08Z</time>
      </trkpt>
      <trkpt lat="42.88451" lon="-0.40142">
        <ele>1253.21582</ele>
        <time>2014-05-10T09:38:18Z</time>
      </trkpt>
      <trkpt lat="42.8845" lon="-0.40143">
        <ele>1252.735107</ele>
        <time>2014-05-10T09:38:19Z</time>
      </trkpt>
      <trkpt lat="42.88447" lon="-0.40146">
        <ele>1250.332031</ele>
        <time>2014-05-10T09:38:25Z</time>
      </trkpt>
      <trkpt lat="42.88448" lon="-0.40149">
        <ele>1249.851318</ele>
        <time>2014-05-10T09:38:29Z</time>
      </trkpt>
      <trkpt lat="42.88453" lon="-0.40156">
        <ele>1246.967285</ele>
        <time>2014-05-10T09:38:41Z</time>
      </trkpt>
      <trkpt lat="42.8845" lon="-0.40161">
        <ele>1244.563965</ele>
        <time>2014-05-10T09:38:49Z</time>
      </trkpt>
      <trkpt lat="42.88448" lon="-0.40165">
        <ele>1242.641357</ele>
        <time>2014-05-10T09:38:53Z</time>
      </trkpt>
      <trkpt lat="42.88446" lon="-0.40169">
        <ele>1241.679932</ele>
        <time>2014-05-10T09:38:58Z</time>
      </trkpt>
      <trkpt lat="42.88448" lon="-0.40175">
        <ele>1239.276611</ele>
        <time>2014-05-10T09:39:10Z</time>
      </trkpt>
      <trkpt lat="42.88448" lon="-0.40181">
        <ele>1237.354004</ele>
        <time>2014-05-10T09:39:17Z</time>
      </trkpt>
      <trkpt lat="42.88444" lon="-0.40188">
        <ele>1234.470215</ele>
        <time>2014-05-10T09:39:32Z</time>
      </trkpt>
      <trkpt lat="42.88441" lon="-0.40191">
        <ele>1234.470215</ele>
        <time>2014-05-10T09:39:55Z</time>
      </trkpt>
      <trkpt lat="42.88437" lon="-0.40196">
        <ele>1232.547607</ele>
        <time>2014-05-10T09:40:13Z</time>
      </trkpt>
      <trkpt lat="42.88432" lon="-0.40203">
        <ele>1231.105713</ele>
        <time>2014-05-10T09:40:26Z</time>
      </trkpt>
      <trkpt lat="42.88427" lon="-0.40209">
        <ele>1229.182861</ele>
        <time>2014-05-10T09:40:39Z</time>
      </trkpt>
      <trkpt lat="42.88431" lon="-0.40216">
        <ele>1227.260254</ele>
        <time>2014-05-10T09:40:51Z</time>
      </trkpt>
      <trkpt lat="42.88439" lon="-0.4022">
        <ele>1225.337402</ele>
        <time>2014-05-10T09:41:05Z</time>
      </trkpt>
      <trkpt lat="42.88444" lon="-0.40222">
        <ele>1223.415039</ele>
        <time>2014-05-10T09:41:19Z</time>
      </trkpt>
      <trkpt lat="42.88446" lon="-0.40223">
        <ele>1223.895508</ele>
        <time>2014-05-10T09:41:36Z</time>
      </trkpt>
      <trkpt lat="42.88448" lon="-0.40224">
        <ele>1223.415039</ele>
        <time>2014-05-10T09:42:03Z</time>
      </trkpt>
      <trkpt lat="42.88447" lon="-0.40228">
        <ele>1224.376221</ele>
        <time>2014-05-10T09:42:43Z</time>
      </trkpt>
      <trkpt lat="42.88444" lon="-0.40226">
        <ele>1224.376221</ele>
        <time>2014-05-10T09:43:07Z</time>
      </trkpt>
      <trkpt lat="42.8845" lon="-0.40232">
        <ele>1221.011719</ele>
        <time>2014-05-10T09:43:20Z</time>
      </trkpt>
      <trkpt lat="42.8845" lon="-0.40234">
        <ele>1220.531006</ele>
        <time>2014-05-10T09:43:22Z</time>
      </trkpt>
      <trkpt lat="42.88453" lon="-0.40249">
        <ele>1217.646973</ele>
        <time>2014-05-10T09:43:37Z</time>
      </trkpt>
      <trkpt lat="42.88453" lon="-0.40263">
        <ele>1215.243896</ele>
        <time>2014-05-10T09:43:50Z</time>
      </trkpt>
      <trkpt lat="42.88444" lon="-0.40276">
        <ele>1212.840576</ele>
        <time>2014-05-10T09:44:06Z</time>
      </trkpt>
      <trkpt lat="42.88439" lon="-0.4028">
        <ele>1210.917725</ele>
        <time>2014-05-10T09:44:18Z</time>
      </trkpt>
      <trkpt lat="42.8843" lon="-0.4028">
        <ele>1207.553223</ele>
        <time>2014-05-10T09:44:32Z</time>
      </trkpt>
      <trkpt lat="42.88425" lon="-0.40285">
        <ele>1204.669189</ele>
        <time>2014-05-10T09:44:41Z</time>
      </trkpt>
      <trkpt lat="42.88432" lon="-0.40291">
        <ele>1203.227295</ele>
        <time>2014-05-10T09:44:54Z</time>
      </trkpt>
      <trkpt lat="42.88434" lon="-0.40291">
        <ele>1203.227295</ele>
        <time>2014-05-10T09:45:14Z</time>
      </trkpt>
      <trkpt lat="42.88435" lon="-0.40292">
        <ele>1202.746582</ele>
        <time>2014-05-10T09:45:30Z</time>
      </trkpt>
      <trkpt lat="42.88434" lon="-0.40293">
        <ele>1203.708008</ele>
        <time>2014-05-10T09:45:41Z</time>
      </trkpt>
      <trkpt lat="42.88433" lon="-0.40291">
        <ele>1204.188721</ele>
        <time>2014-05-10T09:45:53Z</time>
      </trkpt>
      <trkpt lat="42.88433" lon="-0.40292">
        <ele>1204.669189</ele>
        <time>2014-05-10T09:46:08Z</time>
      </trkpt>
      <trkpt lat="42.88432" lon="-0.40291">
        <ele>1204.188721</ele>
        <time>2014-05-10T09:46:23Z</time>
      </trkpt>
      <trkpt lat="42.88433" lon="-0.4029">
        <ele>1203.227295</ele>
        <time>2014-05-10T09:46:56Z</time>
      </trkpt>
      <trkpt lat="42.88436" lon="-0.40291">
        <ele>1203.227295</ele>
        <time>2014-05-10T09:47:19Z</time>
      </trkpt>
      <trkpt lat="42.88434" lon="-0.4029">
        <ele>1203.708008</ele>
        <time>2014-05-10T09:47:33Z</time>
      </trkpt>
      <trkpt lat="42.88438" lon="-0.4029">
        <ele>1203.708008</ele>
        <time>2014-05-10T09:48:02Z</time>
      </trkpt>
      <trkpt lat="42.8844" lon="-0.40292">
        <ele>1202.746582</ele>
        <time>2014-05-10T09:48:27Z</time>
      </trkpt>
      <trkpt lat="42.88437" lon="-0.40293">
        <ele>1202.265869</ele>
        <time>2014-05-10T09:49:21Z</time>
      </trkpt>
      <trkpt lat="42.88436" lon="-0.40289">
        <ele>1202.265869</ele>
        <time>2014-05-10T09:49:46Z</time>
      </trkpt>
      <trkpt lat="42.88433" lon="-0.40292">
        <ele>1203.708008</ele>
        <time>2014-05-10T09:50:07Z</time>
      </trkpt>
      <trkpt lat="42.88434" lon="-0.40295">
        <ele>1203.708008</ele>
        <time>2014-05-10T09:50:27Z</time>
      </trkpt>
      <trkpt lat="42.88437" lon="-0.40298">
        <ele>1202.746582</ele>
        <time>2014-05-10T09:50:33Z</time>
      </trkpt>
      <trkpt lat="42.8844" lon="-0.40302">
        <ele>1201.7854</ele>
        <time>2014-05-10T09:50:38Z</time>
      </trkpt>
      <trkpt lat="42.88453" lon="-0.4032">
        <ele>1198.901367</ele>
        <time>2014-05-10T09:50:54Z</time>
      </trkpt>
      <trkpt lat="42.88458" lon="-0.40338">
        <ele>1196.017578</ele>
        <time>2014-05-10T09:51:08Z</time>
      </trkpt>
      <trkpt lat="42.88466" lon="-0.40352">
        <ele>1195.055908</ele>
        <time>2014-05-10T09:51:24Z</time>
      </trkpt>
      <trkpt lat="42.8847" lon="-0.40361">
        <ele>1193.133301</ele>
        <time>2014-05-10T09:51:38Z</time>
      </trkpt>
      <trkpt lat="42.88463" lon="-0.40379">
        <ele>1192.652832</ele>
        <time>2014-05-10T09:51:55Z</time>
      </trkpt>
      <trkpt lat="42.88466" lon="-0.40392">
        <ele>1193.133301</ele>
        <time>2014-05-10T09:52:10Z</time>
      </trkpt>
      <trkpt lat="42.88466" lon="-0.40393">
        <ele>1193.133301</ele>
        <time>2014-05-10T09:52:21Z</time>
      </trkpt>
      <trkpt lat="42.88468" lon="-0.40394">
        <ele>1194.094727</ele>
        <time>2014-05-10T09:52:44Z</time>
      </trkpt>
      <trkpt lat="42.88468" lon="-0.40407">
        <ele>1195.055908</ele>
        <time>2014-05-10T09:52:59Z</time>
      </trkpt>
      <trkpt lat="42.88469" lon="-0.40423">
        <ele>1195.536621</ele>
        <time>2014-05-10T09:53:13Z</time>
      </trkpt>
      <trkpt lat="42.8848" lon="-0.4044">
        <ele>1194.575195</ele>
        <time>2014-05-10T09:53:28Z</time>
      </trkpt>
      <trkpt lat="42.88488" lon="-0.40463">
        <ele>1193.133301</ele>
        <time>2014-05-10T09:53:46Z</time>
      </trkpt>
      <trkpt lat="42.8849" lon="-0.40484">
        <ele>1192.172119</ele>
        <time>2014-05-10T09:54:01Z</time>
      </trkpt>
      <trkpt lat="42.88491" lon="-0.40491">
        <ele>1190.72998</ele>
        <time>2014-05-10T09:54:06Z</time>
      </trkpt>
      <trkpt lat="42.88491" lon="-0.40502">
        <ele>1190.249512</ele>
        <time>2014-05-10T09:54:16Z</time>
      </trkpt>
      <trkpt lat="42.88488" lon="-0.40528">
        <ele>1188.326904</ele>
        <time>2014-05-10T09:54:34Z</time>
      </trkpt>
      <trkpt lat="42.88483" lon="-0.40559">
        <ele>1185.442871</ele>
        <time>2014-05-10T09:54:54Z</time>
      </trkpt>
      <trkpt lat="42.88481" lon="-0.40595">
        <ele>1184.481689</ele>
        <time>2014-05-10T09:55:16Z</time>
      </trkpt>
      <trkpt lat="42.88481" lon="-0.40632">
        <ele>1182.078369</ele>
        <time>2014-05-10T09:55:38Z</time>
      </trkpt>
      <trkpt lat="42.88484" lon="-0.40668">
        <ele>1180.636475</ele>
        <time>2014-05-10T09:56:00Z</time>
      </trkpt>
      <trkpt lat="42.88488" lon="-0.40691">
        <ele>1179.674805</ele>
        <time>2014-05-10T09:56:15Z</time>
      </trkpt>
      <trkpt lat="42.88501" lon="-0.40729">
        <ele>1179.674805</ele>
        <time>2014-05-10T09:56:40Z</time>
      </trkpt>
      <trkpt lat="42.88512" lon="-0.4076">
        <ele>1178.713623</ele>
        <time>2014-05-10T09:57:01Z</time>
      </trkpt>
      <trkpt lat="42.88528" lon="-0.40787">
        <ele>1177.752197</ele>
        <time>2014-05-10T09:57:21Z</time>
      </trkpt>
      <trkpt lat="42.88546" lon="-0.40815">
        <ele>1176.791016</ele>
        <time>2014-05-10T09:57:43Z</time>
      </trkpt>
      <trkpt lat="42.88556" lon="-0.40839">
        <ele>1174.387695</ele>
        <time>2014-05-10T09:58:01Z</time>
      </trkpt>
      <trkpt lat="42.88563" lon="-0.40866">
        <ele>1173.426514</ele>
        <time>2014-05-10T09:58:19Z</time>
      </trkpt>
      <trkpt lat="42.88564" lon="-0.40869">
        <ele>1173.906982</ele>
        <time>2014-05-10T09:58:21Z</time>
      </trkpt>
      <trkpt lat="42.88564" lon="-0.40871">
        <ele>1173.426514</ele>
        <time>2014-05-10T09:58:23Z</time>
      </trkpt>
      <trkpt lat="42.88577" lon="-0.40893">
        <ele>1171.503662</ele>
        <time>2014-05-10T09:58:42Z</time>
      </trkpt>
      <trkpt lat="42.88594" lon="-0.40916">
        <ele>1168.13916</ele>
        <time>2014-05-10T09:59:02Z</time>
      </trkpt>
      <trkpt lat="42.88612" lon="-0.40941">
        <ele>1166.697266</ele>
        <time>2014-05-10T09:59:23Z</time>
      </trkpt>
      <trkpt lat="42.8862" lon="-0.40965">
        <ele>1165.255371</ele>
        <time>2014-05-10T09:59:40Z</time>
      </trkpt>
      <trkpt lat="42.8862" lon="-0.40994">
        <ele>1163.33252</ele>
        <time>2014-05-10T09:59:58Z</time>
      </trkpt>
      <trkpt lat="42.88615" lon="-0.41025">
        <ele>1161.890625</ele>
        <time>2014-05-10T10:00:18Z</time>
      </trkpt>
      <trkpt lat="42.88601" lon="-0.4104">
        <ele>1158.04541</ele>
        <time>2014-05-10T10:00:33Z</time>
      </trkpt>
      <trkpt lat="42.88584" lon="-0.41062">
        <ele>1157.083984</ele>
        <time>2014-05-10T10:00:52Z</time>
      </trkpt>
      <trkpt lat="42.88576" lon="-0.41089">
        <ele>1155.161377</ele>
        <time>2014-05-10T10:01:11Z</time>
      </trkpt>
      <trkpt lat="42.88576" lon="-0.41101">
        <ele>1154.200195</ele>
        <time>2014-05-10T10:01:19Z</time>
      </trkpt>
      <trkpt lat="42.88576" lon="-0.41104">
        <ele>1153.23877</ele>
        <time>2014-05-10T10:01:21Z</time>
      </trkpt>
      <trkpt lat="42.88577" lon="-0.41108">
        <ele>1153.23877</ele>
        <time>2014-05-10T10:01:24Z</time>
      </trkpt>
      <trkpt lat="42.88586" lon="-0.4113">
        <ele>1152.758057</ele>
        <time>2014-05-10T10:01:39Z</time>
      </trkpt>
      <trkpt lat="42.88596" lon="-0.41152">
        <ele>1152.277344</ele>
        <time>2014-05-10T10:01:55Z</time>
      </trkpt>
      <trkpt lat="42.88602" lon="-0.4118">
        <ele>1150.835449</ele>
        <time>2014-05-10T10:02:14Z</time>
      </trkpt>
      <trkpt lat="42.88601" lon="-0.41191">
        <ele>1149.393555</ele>
        <time>2014-05-10T10:02:22Z</time>
      </trkpt>
      <trkpt lat="42.88601" lon="-0.41195">
        <ele>1148.432129</ele>
        <time>2014-05-10T10:02:26Z</time>
      </trkpt>
      <trkpt lat="42.88594" lon="-0.41196">
        <ele>1148.912842</ele>
        <time>2014-05-10T10:02:39Z</time>
      </trkpt>
      <trkpt lat="42.88594" lon="-0.41196">
        <ele>1148.432129</ele>
        <time>2014-05-10T10:02:56Z</time>
      </trkpt>
      <trkpt lat="42.88594" lon="-0.41197">
        <ele>1148.912842</ele>
        <time>2014-05-10T10:03:30Z</time>
      </trkpt>
      <trkpt lat="42.88594" lon="-0.41195">
        <ele>1149.393555</ele>
        <time>2014-05-10T10:03:54Z</time>
      </trkpt>
      <trkpt lat="42.88594" lon="-0.41197">
        <ele>1148.912842</ele>
        <time>2014-05-10T10:04:28Z</time>
      </trkpt>
      <trkpt lat="42.88593" lon="-0.41195">
        <ele>1148.912842</ele>
        <time>2014-05-10T10:04:57Z</time>
      </trkpt>
      <trkpt lat="42.88595" lon="-0.41195">
        <ele>1148.912842</ele>
        <time>2014-05-10T10:05:00Z</time>
      </trkpt>
      <trkpt lat="42.88597" lon="-0.41197">
        <ele>1148.912842</ele>
        <time>2014-05-10T10:05:03Z</time>
      </trkpt>
      <trkpt lat="42.886" lon="-0.41228">
        <ele>1147.951416</ele>
        <time>2014-05-10T10:05:21Z</time>
      </trkpt>
      <trkpt lat="42.88607" lon="-0.4125">
        <ele>1147.951416</ele>
        <time>2014-05-10T10:05:34Z</time>
      </trkpt>
      <trkpt lat="42.8862" lon="-0.41276">
        <ele>1147.470703</ele>
        <time>2014-05-10T10:05:51Z</time>
      </trkpt>
      <trkpt lat="42.88637" lon="-0.41306">
        <ele>1146.509521</ele>
        <time>2014-05-10T10:06:11Z</time>
      </trkpt>
      <trkpt lat="42.88649" lon="-0.41336">
        <ele>1144.106201</ele>
        <time>2014-05-10T10:06:30Z</time>
      </trkpt>
      <trkpt lat="42.88658" lon="-0.41358">
        <ele>1142.664307</ele>
        <time>2014-05-10T10:06:44Z</time>
      </trkpt>
      <trkpt lat="42.8867" lon="-0.41388">
        <ele>1140.260986</ele>
        <time>2014-05-10T10:07:03Z</time>
      </trkpt>
      <trkpt lat="42.88684" lon="-0.41424">
        <ele>1137.857666</ele>
        <time>2014-05-10T10:07:26Z</time>
      </trkpt>
      <trkpt lat="42.88696" lon="-0.41453">
        <ele>1135.935059</ele>
        <time>2014-05-10T10:07:45Z</time>
      </trkpt>
      <trkpt lat="42.88696" lon="-0.41454">
        <ele>1135.454346</ele>
        <time>2014-05-10T10:08:05Z</time>
      </trkpt>
      <trkpt lat="42.88696" lon="-0.41454">
        <ele>1135.935059</ele>
        <time>2014-05-10T10:08:36Z</time>
      </trkpt>
      <trkpt lat="42.88697" lon="-0.41457">
        <ele>1135.935059</ele>
        <time>2014-05-10T10:08:49Z</time>
      </trkpt>
      <trkpt lat="42.88699" lon="-0.41461">
        <ele>1134.973877</ele>
        <time>2014-05-10T10:09:01Z</time>
      </trkpt>
      <trkpt lat="42.88701" lon="-0.41472">
        <ele>1134.493164</ele>
        <time>2014-05-10T10:09:16Z</time>
      </trkpt>
      <trkpt lat="42.88708" lon="-0.41508">
        <ele>1132.570557</ele>
        <time>2014-05-10T10:09:41Z</time>
      </trkpt>
      <trkpt lat="42.8871" lon="-0.41533">
        <ele>1131.128418</ele>
        <time>2014-05-10T10:09:59Z</time>
      </trkpt>
      <trkpt lat="42.88711" lon="-0.41559">
        <ele>1129.205566</ele>
        <time>2014-05-10T10:10:16Z</time>
      </trkpt>
      <trkpt lat="42.88713" lon="-0.41585">
        <ele>1127.283203</ele>
        <time>2014-05-10T10:10:33Z</time>
      </trkpt>
      <trkpt lat="42.88714" lon="-0.41612">
        <ele>1126.321777</ele>
        <time>2014-05-10T10:10:51Z</time>
      </trkpt>
      <trkpt lat="42.88715" lon="-0.41621">
        <ele>1126.321777</ele>
        <time>2014-05-10T10:10:56Z</time>
      </trkpt>
      <trkpt lat="42.8872" lon="-0.41654">
        <ele>1125.841064</ele>
        <time>2014-05-10T10:11:14Z</time>
      </trkpt>
      <trkpt lat="42.88729" lon="-0.41682">
        <ele>1124.879883</ele>
        <time>2014-05-10T10:11:31Z</time>
      </trkpt>
      <trkpt lat="42.8874" lon="-0.41713">
        <ele>1122.957275</ele>
        <time>2014-05-10T10:11:52Z</time>
      </trkpt>
      <trkpt lat="42.8875" lon="-0.41733">
        <ele>1121.515137</ele>
        <time>2014-05-10T10:12:06Z</time>
      </trkpt>
      <trkpt lat="42.88755" lon="-0.4175">
        <ele>1120.553955</ele>
        <time>2014-05-10T10:12:18Z</time>
      </trkpt>
      <trkpt lat="42.88761" lon="-0.41766">
        <ele>1119.592773</ele>
        <time>2014-05-10T10:12:31Z</time>
      </trkpt>
      <trkpt lat="42.88766" lon="-0.41786">
        <ele>1117.669922</ele>
        <time>2014-05-10T10:12:45Z</time>
      </trkpt>
      <trkpt lat="42.88769" lon="-0.41822">
        <ele>1116.228027</ele>
        <time>2014-05-10T10:13:03Z</time>
      </trkpt>
      <trkpt lat="42.88766" lon="-0.41843">
        <ele>1114.785889</ele>
        <time>2014-05-10T10:13:16Z</time>
      </trkpt>
      <trkpt lat="42.88759" lon="-0.41871">
        <ele>1112.863281</ele>
        <time>2014-05-10T10:13:34Z</time>
      </trkpt>
      <trkpt lat="42.88757" lon="-0.41878">
        <ele>1112.863281</ele>
        <time>2014-05-10T10:13:38Z</time>
      </trkpt>
      <trkpt lat="42.88756" lon="-0.41894">
        <ele>1111.9021</ele>
        <time>2014-05-10T10:13:47Z</time>
      </trkpt>
      <trkpt lat="42.88753" lon="-0.41918">
        <ele>1109.498779</ele>
        <time>2014-05-10T10:14:01Z</time>
      </trkpt>
      <trkpt lat="42.8875" lon="-0.41933">
        <ele>1108.537354</ele>
        <time>2014-05-10T10:14:10Z</time>
      </trkpt>
      <trkpt lat="42.88749" lon="-0.41939">
        <ele>1108.056885</ele>
        <time>2014-05-10T10:14:14Z</time>
      </trkpt>
      <trkpt lat="42.88743" lon="-0.41963">
        <ele>1106.614746</ele>
        <time>2014-05-10T10:14:29Z</time>
      </trkpt>
      <trkpt lat="42.88742" lon="-0.41966">
        <ele>1106.614746</ele>
        <time>2014-05-10T10:14:31Z</time>
      </trkpt>
      <trkpt lat="42.88739" lon="-0.41999">
        <ele>1104.21167</ele>
        <time>2014-05-10T10:14:49Z</time>
      </trkpt>
      <trkpt lat="42.88742" lon="-0.42031">
        <ele>1103.250244</ele>
        <time>2014-05-10T10:15:07Z</time>
      </trkpt>
      <trkpt lat="42.88743" lon="-0.4204">
        <ele>1102.769531</ele>
        <time>2014-05-10T10:15:12Z</time>
      </trkpt>
      <trkpt lat="42.88746" lon="-0.4205">
        <ele>1102.288818</ele>
        <time>2014-05-10T10:15:18Z</time>
      </trkpt>
      <trkpt lat="42.88757" lon="-0.42081">
        <ele>1100.366455</ele>
        <time>2014-05-10T10:15:37Z</time>
      </trkpt>
      <trkpt lat="42.88761" lon="-0.42096">
        <ele>1098.924072</ele>
        <time>2014-05-10T10:15:47Z</time>
      </trkpt>
      <trkpt lat="42.88769" lon="-0.42118">
        <ele>1097.962891</ele>
        <time>2014-05-10T10:16:02Z</time>
      </trkpt>
      <trkpt lat="42.88776" lon="-0.42138">
        <ele>1095.55957</ele>
        <time>2014-05-10T10:16:17Z</time>
      </trkpt>
      <trkpt lat="42.8878" lon="-0.42146">
        <ele>1093.636963</ele>
        <time>2014-05-10T10:16:31Z</time>
      </trkpt>
      <trkpt lat="42.88785" lon="-0.42159">
        <ele>1090.272461</ele>
        <time>2014-05-10T10:16:42Z</time>
      </trkpt>
      <trkpt lat="42.88788" lon="-0.42165">
        <ele>1090.272461</ele>
        <time>2014-05-10T10:16:47Z</time>
      </trkpt>
      <trkpt lat="42.8879" lon="-0.42181">
        <ele>1088.349854</ele>
        <time>2014-05-10T10:16:58Z</time>
      </trkpt>
      <trkpt lat="42.88792" lon="-0.42198">
        <ele>1085.946533</ele>
        <time>2014-05-10T10:17:12Z</time>
      </trkpt>
      <trkpt lat="42.8879" lon="-0.42204">
        <ele>1084.023926</ele>
        <time>2014-05-10T10:17:23Z</time>
      </trkpt>
      <trkpt lat="42.88788" lon="-0.42225">
        <ele>1083.062256</ele>
        <time>2014-05-10T10:17:41Z</time>
      </trkpt>
      <trkpt lat="42.88785" lon="-0.42243">
        <ele>1081.620361</ele>
        <time>2014-05-10T10:17:57Z</time>
      </trkpt>
      <trkpt lat="42.88784" lon="-0.42254">
        <ele>1081.139893</ele>
        <time>2014-05-10T10:18:12Z</time>
      </trkpt>
      <trkpt lat="42.88782" lon="-0.42267">
        <ele>1079.217041</ele>
        <time>2014-05-10T10:18:25Z</time>
      </trkpt>
      <trkpt lat="42.88781" lon="-0.42289">
        <ele>1077.294678</ele>
        <time>2014-05-10T10:18:43Z</time>
      </trkpt>
      <trkpt lat="42.8878" lon="-0.42293">
        <ele>1077.294678</ele>
        <time>2014-05-10T10:18:46Z</time>
      </trkpt>
      <trkpt lat="42.8878" lon="-0.42309">
        <ele>1075.852539</ele>
        <time>2014-05-10T10:18:58Z</time>
      </trkpt>
      <trkpt lat="42.8878" lon="-0.42328">
        <ele>1074.891357</ele>
        <time>2014-05-10T10:19:14Z</time>
      </trkpt>
      <trkpt lat="42.88778" lon="-0.42336">
        <ele>1073.449463</ele>
        <time>2014-05-10T10:19:29Z</time>
      </trkpt>
      <trkpt lat="42.88777" lon="-0.42347">
        <ele>1073.929932</ele>
        <time>2014-05-10T10:19:37Z</time>
      </trkpt>
      <trkpt lat="42.88777" lon="-0.42376">
        <ele>1073.449463</ele>
        <time>2014-05-10T10:19:56Z</time>
      </trkpt>
      <trkpt lat="42.88775" lon="-0.42379">
        <ele>1073.449463</ele>
        <time>2014-05-10T10:19:58Z</time>
      </trkpt>
      <trkpt lat="42.88764" lon="-0.4241">
        <ele>1072.488037</ele>
        <time>2014-05-10T10:20:18Z</time>
      </trkpt>
      <trkpt lat="42.88755" lon="-0.42431">
        <ele>1071.526611</ele>
        <time>2014-05-10T10:20:35Z</time>
      </trkpt>
      <trkpt lat="42.88752" lon="-0.42438">
        <ele>1070.56543</ele>
        <time>2014-05-10T10:20:45Z</time>
      </trkpt>
      <trkpt lat="42.8874" lon="-0.42455">
        <ele>1069.123535</ele>
        <time>2014-05-10T10:21:04Z</time>
      </trkpt>
      <trkpt lat="42.88734" lon="-0.42462">
        <ele>1069.123535</ele>
        <time>2014-05-10T10:21:17Z</time>
      </trkpt>
      <trkpt lat="42.88736" lon="-0.42468">
        <ele>1068.162109</ele>
        <time>2014-05-10T10:21:29Z</time>
      </trkpt>
      <trkpt lat="42.88735" lon="-0.42468">
        <ele>1068.162109</ele>
        <time>2014-05-10T10:21:41Z</time>
      </trkpt>
      <trkpt lat="42.88734" lon="-0.42469">
        <ele>1068.642822</ele>
        <time>2014-05-10T10:22:01Z</time>
      </trkpt>
      <trkpt lat="42.88727" lon="-0.42476">
        <ele>1066.719971</ele>
        <time>2014-05-10T10:22:15Z</time>
      </trkpt>
      <trkpt lat="42.88724" lon="-0.42481">
        <ele>1065.758789</ele>
        <time>2014-05-10T10:22:37Z</time>
      </trkpt>
      <trkpt lat="42.88721" lon="-0.42494">
        <ele>1062.874756</ele>
        <time>2014-05-10T10:22:50Z</time>
      </trkpt>
      <trkpt lat="42.88722" lon="-0.42503">
        <ele>1061.432861</ele>
        <time>2014-05-10T10:23:07Z</time>
      </trkpt>
      <trkpt lat="42.88722" lon="-0.42504">
        <ele>1061.432861</ele>
        <time>2014-05-10T10:23:08Z</time>
      </trkpt>
      <trkpt lat="42.88718" lon="-0.42512">
        <ele>1060.471436</ele>
        <time>2014-05-10T10:23:14Z</time>
      </trkpt>
      <trkpt lat="42.88714" lon="-0.4253">
        <ele>1059.029541</ele>
        <time>2014-05-10T10:23:27Z</time>
      </trkpt>
      <trkpt lat="42.88713" lon="-0.42543">
        <ele>1057.587646</ele>
        <time>2014-05-10T10:23:35Z</time>
      </trkpt>
      <trkpt lat="42.8871" lon="-0.42553">
        <ele>1056.626221</ele>
        <time>2014-05-10T10:23:43Z</time>
      </trkpt>
      <trkpt lat="42.88707" lon="-0.42576">
        <ele>1054.223145</ele>
        <time>2014-05-10T10:24:00Z</time>
      </trkpt>
      <trkpt lat="42.88705" lon="-0.42589">
        <ele>1053.261719</ele>
        <time>2014-05-10T10:24:12Z</time>
      </trkpt>
      <trkpt lat="42.887" lon="-0.42608">
        <ele>1050.377686</ele>
        <time>2014-05-10T10:24:27Z</time>
      </trkpt>
      <trkpt lat="42.88692" lon="-0.42625">
        <ele>1047.974365</ele>
        <time>2014-05-10T10:24:43Z</time>
      </trkpt>
      <trkpt lat="42.88687" lon="-0.42633">
        <ele>1046.532471</ele>
        <time>2014-05-10T10:24:59Z</time>
      </trkpt>
      <trkpt lat="42.88688" lon="-0.42635">
        <ele>1046.051758</ele>
        <time>2014-05-10T10:25:27Z</time>
      </trkpt>
      <trkpt lat="42.88689" lon="-0.42642">
        <ele>1045.090332</ele>
        <time>2014-05-10T10:25:39Z</time>
      </trkpt>
      <trkpt lat="42.88689" lon="-0.42649">
        <ele>1044.609619</ele>
        <time>2014-05-10T10:25:51Z</time>
      </trkpt>
      <trkpt lat="42.88688" lon="-0.42649">
        <ele>1045.090332</ele>
        <time>2014-05-10T10:26:06Z</time>
      </trkpt>
      <trkpt lat="42.88685" lon="-0.42649">
        <ele>1045.090332</ele>
        <time>2014-05-10T10:26:21Z</time>
      </trkpt>
      <trkpt lat="42.88685" lon="-0.42649">
        <ele>1045.090332</ele>
        <time>2014-05-10T10:26:47Z</time>
      </trkpt>
      <trkpt lat="42.88683" lon="-0.42662">
        <ele>1043.167725</ele>
        <time>2014-05-10T10:27:00Z</time>
      </trkpt>
      <trkpt lat="42.88683" lon="-0.42671">
        <ele>1043.648438</ele>
        <time>2014-05-10T10:27:12Z</time>
      </trkpt>
      <trkpt lat="42.88689" lon="-0.42704">
        <ele>1042.687256</ele>
        <time>2014-05-10T10:27:35Z</time>
      </trkpt>
      <trkpt lat="42.88702" lon="-0.42726">
        <ele>1041.72583</ele>
        <time>2014-05-10T10:27:54Z</time>
      </trkpt>
      <trkpt lat="42.88721" lon="-0.42743">
        <ele>1040.764404</ele>
        <time>2014-05-10T10:28:14Z</time>
      </trkpt>
      <trkpt lat="42.88742" lon="-0.42749">
        <ele>1039.32251</ele>
        <time>2014-05-10T10:28:33Z</time>
      </trkpt>
      <trkpt lat="42.8876" lon="-0.42744">
        <ele>1037.880615</ele>
        <time>2014-05-10T10:28:53Z</time>
      </trkpt>
      <trkpt lat="42.88758" lon="-0.42739">
        <ele>1037.399902</ele>
        <time>2014-05-10T10:29:08Z</time>
      </trkpt>
      <trkpt lat="42.88766" lon="-0.42733">
        <ele>1037.399902</ele>
        <time>2014-05-10T10:29:18Z</time>
      </trkpt>
      <trkpt lat="42.88787" lon="-0.42739">
        <ele>1036.919189</ele>
        <time>2014-05-10T10:29:36Z</time>
      </trkpt>
      <trkpt lat="42.88796" lon="-0.42746">
        <ele>1035.957764</ele>
        <time>2014-05-10T10:29:46Z</time>
      </trkpt>
      <trkpt lat="42.88823" lon="-0.42739">
        <ele>1034.515869</ele>
        <time>2014-05-10T10:30:09Z</time>
      </trkpt>
      <trkpt lat="42.88836" lon="-0.42741">
        <ele>1034.515869</ele>
        <time>2014-05-10T10:30:30Z</time>
      </trkpt>
      <trkpt lat="42.88858" lon="-0.42745">
        <ele>1033.554443</ele>
        <time>2014-05-10T10:30:48Z</time>
      </trkpt>
      <trkpt lat="42.88864" lon="-0.42746">
        <ele>1034.035156</ele>
        <time>2014-05-10T10:31:06Z</time>
      </trkpt>
      <trkpt lat="42.88861" lon="-0.42744">
        <ele>1034.035156</ele>
        <time>2014-05-10T10:31:24Z</time>
      </trkpt>
      <trkpt lat="42.88861" lon="-0.42744">
        <ele>1034.515869</ele>
        <time>2014-05-10T10:31:45Z</time>
      </trkpt>
      <trkpt lat="42.88861" lon="-0.42744">
        <ele>1033.554443</ele>
        <time>2014-05-10T10:32:20Z</time>
      </trkpt>
      <trkpt lat="42.88861" lon="-0.42742">
        <ele>1034.515869</ele>
        <time>2014-05-10T10:32:41Z</time>
      </trkpt>
      <trkpt lat="42.88861" lon="-0.42742">
        <ele>1034.035156</ele>
        <time>2014-05-10T10:33:04Z</time>
      </trkpt>
      <trkpt lat="42.8887" lon="-0.42747">
        <ele>1033.554443</ele>
        <time>2014-05-10T10:33:15Z</time>
      </trkpt>
      <trkpt lat="42.88891" lon="-0.42755">
        <ele>1033.554443</ele>
        <time>2014-05-10T10:33:34Z</time>
      </trkpt>
      <trkpt lat="42.88896" lon="-0.42758">
        <ele>1033.554443</ele>
        <time>2014-05-10T10:33:39Z</time>
      </trkpt>
      <trkpt lat="42.88917" lon="-0.42766">
        <ele>1034.996582</ele>
        <time>2014-05-10T10:33:58Z</time>
      </trkpt>
      <trkpt lat="42.88946" lon="-0.42777">
        <ele>1034.515869</ele>
        <time>2014-05-10T10:34:22Z</time>
      </trkpt>
      <trkpt lat="42.88948" lon="-0.42778">
        <ele>1034.996582</ele>
        <time>2014-05-10T10:34:24Z</time>
      </trkpt>
      <trkpt lat="42.88972" lon="-0.4278">
        <ele>1034.996582</ele>
        <time>2014-05-10T10:34:45Z</time>
      </trkpt>
      <trkpt lat="42.88989" lon="-0.42785">
        <ele>1035.477051</ele>
        <time>2014-05-10T10:35:00Z</time>
      </trkpt>
      <trkpt lat="42.89011" lon="-0.42801">
        <ele>1035.957764</ele>
        <time>2014-05-10T10:35:22Z</time>
      </trkpt>
      <trkpt lat="42.89033" lon="-0.42819">
        <ele>1036.438721</ele>
        <time>2014-05-10T10:35:44Z</time>
      </trkpt>
      <trkpt lat="42.89056" lon="-0.42826">
        <ele>1035.957764</ele>
        <time>2014-05-10T10:36:04Z</time>
      </trkpt>
      <trkpt lat="42.89069" lon="-0.42831">
        <ele>1035.957764</ele>
        <time>2014-05-10T10:36:15Z</time>
      </trkpt>
      <trkpt lat="42.89083" lon="-0.42839">
        <ele>1034.996582</ele>
        <time>2014-05-10T10:36:28Z</time>
      </trkpt>
      <trkpt lat="42.89087" lon="-0.4284">
        <ele>1034.515869</ele>
        <time>2014-05-10T10:36:33Z</time>
      </trkpt>
      <trkpt lat="42.89079" lon="-0.4284">
        <ele>1032.112549</ele>
        <time>2014-05-10T10:36:48Z</time>
      </trkpt>
    </trkseg>
  </trk>
  <trk>
    <name><![CDATA[ACTIVE LOG 002]]></name>
    <trkseg>
      <trkpt lat="42.8908" lon="-0.42834">
        <ele>1034.035156</ele>
        <time>2014-05-10T10:37:56Z</time>
      </trkpt>
      <trkpt lat="42.89078" lon="-0.42849">
        <ele>1034.996582</ele>
        <time>2014-05-10T10:38:32Z</time>
      </trkpt>
      <trkpt lat="42.89082" lon="-0.42845">
        <ele>1034.515869</ele>
        <time>2014-05-10T10:38:47Z</time>
      </trkpt>
      <trkpt lat="42.89089" lon="-0.42838">
        <ele>1034.515869</ele>
        <time>2014-05-10T10:39:11Z</time>
      </trkpt>
      <trkpt lat="42.89092" lon="-0.42838">
        <ele>1034.515869</ele>
        <time>2014-05-10T10:39:15Z</time>
      </trkpt>
      <trkpt lat="42.89099" lon="-0.42842">
        <ele>1033.554443</ele>
        <time>2014-05-10T10:39:30Z</time>
      </trkpt>
      <trkpt lat="42.89097" lon="-0.42841">
        <ele>1033.07373</ele>
        <time>2014-05-10T10:40:16Z</time>
      </trkpt>
      <trkpt lat="42.89113" lon="-0.4285">
        <ele>1032.593262</ele>
        <time>2014-05-10T10:41:23Z</time>
      </trkpt>
      <trkpt lat="42.89137" lon="-0.42864">
        <ele>1029.709229</ele>
        <time>2014-05-10T10:41:45Z</time>
      </trkpt>
      <trkpt lat="42.89151" lon="-0.42871">
        <ele>1028.748047</ele>
        <time>2014-05-10T10:41:59Z</time>
      </trkpt>
      <trkpt lat="42.89171" lon="-0.42883">
        <ele>1027.306152</ele>
        <time>2014-05-10T10:42:17Z</time>
      </trkpt>
      <trkpt lat="42.89177" lon="-0.4289">
        <ele>1026.825439</ele>
        <time>2014-05-10T10:42:33Z</time>
      </trkpt>
      <trkpt lat="42.89182" lon="-0.42891">
        <ele>1026.825439</ele>
        <time>2014-05-10T10:42:47Z</time>
      </trkpt>
      <trkpt lat="42.89184" lon="-0.42892">
        <ele>1026.344727</ele>
        <time>2014-05-10T10:42:56Z</time>
      </trkpt>
      <trkpt lat="42.89204" lon="-0.4291">
        <ele>1025.864014</ele>
        <time>2014-05-10T10:43:16Z</time>
      </trkpt>
      <trkpt lat="42.89227" lon="-0.42938">
        <ele>1024.902832</ele>
        <time>2014-05-10T10:43:42Z</time>
      </trkpt>
      <trkpt lat="42.89234" lon="-0.42945">
        <ele>1024.422119</ele>
        <time>2014-05-10T10:43:49Z</time>
      </trkpt>
      <trkpt lat="42.89263" lon="-0.42958">
        <ele>1023.941406</ele>
        <time>2014-05-10T10:44:14Z</time>
      </trkpt>
      <trkpt lat="42.89287" lon="-0.42965">
        <ele>1022.499512</ele>
        <time>2014-05-10T10:44:33Z</time>
      </trkpt>
      <trkpt lat="42.89301" lon="-0.42965">
        <ele>1022.018799</ele>
        <time>2014-05-10T10:44:44Z</time>
      </trkpt>
      <trkpt lat="42.89322" lon="-0.42959">
        <ele>1021.538086</ele>
        <time>2014-05-10T10:45:02Z</time>
      </trkpt>
      <trkpt lat="42.89349" lon="-0.42956">
        <ele>1021.538086</ele>
        <time>2014-05-10T10:45:25Z</time>
      </trkpt>
      <trkpt lat="42.89378" lon="-0.42962">
        <ele>1020.096191</ele>
        <time>2014-05-10T10:45:49Z</time>
      </trkpt>
      <trkpt lat="42.89406" lon="-0.42966">
        <ele>1019.134766</ele>
        <time>2014-05-10T10:46:12Z</time>
      </trkpt>
      <trkpt lat="42.8942" lon="-0.42966">
        <ele>1018.654053</ele>
        <time>2014-05-10T10:46:32Z</time>
      </trkpt>
      <trkpt lat="42.89434" lon="-0.42965">
        <ele>1017.212158</ele>
        <time>2014-05-10T10:46:50Z</time>
      </trkpt>
      <trkpt lat="42.89438" lon="-0.42965">
        <ele>1016.250732</ele>
        <time>2014-05-10T10:47:04Z</time>
      </trkpt>
      <trkpt lat="42.89445" lon="-0.42972">
        <ele>1017.212158</ele>
        <time>2014-05-10T10:47:17Z</time>
      </trkpt>
      <trkpt lat="42.89445" lon="-0.42974">
        <ele>1017.212158</ele>
        <time>2014-05-10T10:47:32Z</time>
      </trkpt>
      <trkpt lat="42.89445" lon="-0.42975">
        <ele>1017.212158</ele>
        <time>2014-05-10T10:47:47Z</time>
      </trkpt>
      <trkpt lat="42.89445" lon="-0.42975">
        <ele>1016.731445</ele>
        <time>2014-05-10T10:48:05Z</time>
      </trkpt>
      <trkpt lat="42.89445" lon="-0.42975">
        <ele>1015.770264</ele>
        <time>2014-05-10T10:48:28Z</time>
      </trkpt>
      <trkpt lat="42.89445" lon="-0.42976">
        <ele>1016.250732</ele>
        <time>2014-05-10T10:49:29Z</time>
      </trkpt>
      <trkpt lat="42.89445" lon="-0.42976">
        <ele>1017.212158</ele>
        <time>2014-05-10T10:50:43Z</time>
      </trkpt>
      <trkpt lat="42.89445" lon="-0.42976">
        <ele>1017.212158</ele>
        <time>2014-05-10T10:51:22Z</time>
      </trkpt>
      <trkpt lat="42.89445" lon="-0.42976">
        <ele>1017.212158</ele>
        <time>2014-05-10T10:51:40Z</time>
      </trkpt>
      <trkpt lat="42.89445" lon="-0.42977">
        <ele>1016.250732</ele>
        <time>2014-05-10T10:53:33Z</time>
      </trkpt>
      <trkpt lat="42.89444" lon="-0.42976">
        <ele>1016.250732</ele>
        <time>2014-05-10T10:53:48Z</time>
      </trkpt>
      <trkpt lat="42.89431" lon="-0.42975">
        <ele>1016.250732</ele>
        <time>2014-05-10T10:54:00Z</time>
      </trkpt>
      <trkpt lat="42.89431" lon="-0.42979">
        <ele>1017.212158</ele>
        <time>2014-05-10T10:54:09Z</time>
      </trkpt>
      <trkpt lat="42.89444" lon="-0.42983">
        <ele>1017.212158</ele>
        <time>2014-05-10T10:54:22Z</time>
      </trkpt>
      <trkpt lat="42.8945" lon="-0.42986">
        <ele>1017.692627</ele>
        <time>2014-05-10T10:54:27Z</time>
      </trkpt>
      <trkpt lat="42.89467" lon="-0.4299">
        <ele>1017.212158</ele>
        <time>2014-05-10T10:54:41Z</time>
      </trkpt>
      <trkpt lat="42.89488" lon="-0.42993">
        <ele>1017.692627</ele>
        <time>2014-05-10T10:54:58Z</time>
      </trkpt>
      <trkpt lat="42.8951" lon="-0.42997">
        <ele>1017.692627</ele>
        <time>2014-05-10T10:55:16Z</time>
      </trkpt>
      <trkpt lat="42.89517" lon="-0.42997">
        <ele>1018.17334</ele>
        <time>2014-05-10T10:55:22Z</time>
      </trkpt>
      <trkpt lat="42.8952" lon="-0.43">
        <ele>1017.692627</ele>
        <time>2014-05-10T10:55:25Z</time>
      </trkpt>
      <trkpt lat="42.89523" lon="-0.43">
        <ele>1018.17334</ele>
        <time>2014-05-10T10:55:29Z</time>
      </trkpt>
      <trkpt lat="42.89526" lon="-0.43004">
        <ele>1017.212158</ele>
        <time>2014-05-10T10:55:33Z</time>
      </trkpt>
      <trkpt lat="42.8954" lon="-0.43019">
        <ele>1014.328125</ele>
        <time>2014-05-10T10:55:46Z</time>
      </trkpt>
      <trkpt lat="42.89552" lon="-0.43041">
        <ele>1013.847412</ele>
        <time>2014-05-10T10:56:03Z</time>
      </trkpt>
      <trkpt lat="42.89564" lon="-0.43064">
        <ele>1012.405518</ele>
        <time>2014-05-10T10:56:19Z</time>
      </trkpt>
      <trkpt lat="42.8957" lon="-0.43084">
        <ele>1010.963623</ele>
        <time>2014-05-10T10:56:34Z</time>
      </trkpt>
      <trkpt lat="42.8957" lon="-0.43086">
        <ele>1010.963623</ele>
        <time>2014-05-10T10:56:49Z</time>
      </trkpt>
      <trkpt lat="42.8957" lon="-0.43087">
        <ele>1010.963623</ele>
        <time>2014-05-10T10:56:50Z</time>
      </trkpt>
      <trkpt lat="42.89578" lon="-0.43097">
        <ele>1010.48291</ele>
        <time>2014-05-10T10:56:59Z</time>
      </trkpt>
      <trkpt lat="42.89589" lon="-0.43105">
        <ele>1009.041016</ele>
        <time>2014-05-10T10:57:11Z</time>
      </trkpt>
      <trkpt lat="42.89591" lon="-0.43108">
        <ele>1008.560303</ele>
        <time>2014-05-10T10:57:14Z</time>
      </trkpt>
      <trkpt lat="42.89598" lon="-0.43109">
        <ele>1007.599121</ele>
        <time>2014-05-10T10:57:19Z</time>
      </trkpt>
      <trkpt lat="42.89603" lon="-0.43111">
        <ele>1007.599121</ele>
        <time>2014-05-10T10:57:24Z</time>
      </trkpt>
      <trkpt lat="42.8962" lon="-0.43119">
        <ele>1006.156982</ele>
        <time>2014-05-10T10:57:38Z</time>
      </trkpt>
      <trkpt lat="42.89621" lon="-0.43119">
        <ele>1005.676514</ele>
        <time>2014-05-10T10:57:39Z</time>
      </trkpt>
      <trkpt lat="42.89636" lon="-0.43126">
        <ele>1004.715088</ele>
        <time>2014-05-10T10:57:50Z</time>
      </trkpt>
      <trkpt lat="42.89639" lon="-0.43127">
        <ele>1004.715088</ele>
        <time>2014-05-10T10:57:52Z</time>
      </trkpt>
      <trkpt lat="42.89648" lon="-0.43133">
        <ele>1003.272949</ele>
        <time>2014-05-10T10:58:02Z</time>
      </trkpt>
      <trkpt lat="42.89659" lon="-0.43145">
        <ele>1002.311523</ele>
        <time>2014-05-10T10:58:14Z</time>
      </trkpt>
      <trkpt lat="42.8967" lon="-0.43152">
        <ele>1000.869629</ele>
        <time>2014-05-10T10:58:25Z</time>
      </trkpt>
      <trkpt lat="42.89678" lon="-0.43155">
        <ele>999.908447</ele>
        <time>2014-05-10T10:58:34Z</time>
      </trkpt>
      <trkpt lat="42.89688" lon="-0.4316">
        <ele>996.543945</ele>
        <time>2014-05-10T10:58:47Z</time>
      </trkpt>
      <trkpt lat="42.89697" lon="-0.43162">
        <ele>996.063232</ele>
        <time>2014-05-10T10:58:57Z</time>
      </trkpt>
      <trkpt lat="42.89698" lon="-0.43157">
        <ele>995.58252</ele>
        <time>2014-05-10T10:59:13Z</time>
      </trkpt>
      <trkpt lat="42.89699" lon="-0.43156">
        <ele>996.063232</ele>
        <time>2014-05-10T10:59:34Z</time>
      </trkpt>
      <trkpt lat="42.89698" lon="-0.43156">
        <ele>995.58252</ele>
        <time>2014-05-10T10:59:59Z</time>
      </trkpt>
      <trkpt lat="42.89703" lon="-0.43158">
        <ele>996.543945</ele>
        <time>2014-05-10T11:02:45Z</time>
      </trkpt>
      <trkpt lat="42.89709" lon="-0.43165">
        <ele>996.063232</ele>
        <time>2014-05-10T11:02:54Z</time>
      </trkpt>
      <trkpt lat="42.89727" lon="-0.43182">
        <ele>994.621094</ele>
        <time>2014-05-10T11:03:17Z</time>
      </trkpt>
      <trkpt lat="42.89751" lon="-0.43199">
        <ele>991.737305</ele>
        <time>2014-05-10T11:03:39Z</time>
      </trkpt>
      <trkpt lat="42.89753" lon="-0.43194">
        <ele>991.737305</ele>
        <time>2014-05-10T11:03:51Z</time>
      </trkpt>
      <trkpt lat="42.89734" lon="-0.4318">
        <ele>994.621094</ele>
        <time>2014-05-10T11:04:08Z</time>
      </trkpt>
      <trkpt lat="42.89739" lon="-0.43183">
        <ele>993.659912</ele>
        <time>2014-05-10T11:04:26Z</time>
      </trkpt>
      <trkpt lat="42.89752" lon="-0.43199">
        <ele>992.69873</ele>
        <time>2014-05-10T11:04:43Z</time>
      </trkpt>
      <trkpt lat="42.89767" lon="-0.43206">
        <ele>992.218018</ele>
        <time>2014-05-10T11:04:54Z</time>
      </trkpt>
      <trkpt lat="42.89799" lon="-0.43228">
        <ele>989.814697</ele>
        <time>2014-05-10T11:05:18Z</time>
      </trkpt>
      <trkpt lat="42.89816" lon="-0.43241">
        <ele>989.333984</ele>
        <time>2014-05-10T11:05:33Z</time>
      </trkpt>
      <trkpt lat="42.89838" lon="-0.43261">
        <ele>988.372803</ele>
        <time>2014-05-10T11:05:55Z</time>
      </trkpt>
      <trkpt lat="42.89843" lon="-0.43262">
        <ele>988.853516</ele>
        <time>2014-05-10T11:06:23Z</time>
      </trkpt>
      <trkpt lat="42.89851" lon="-0.43252">
        <ele>991.737305</ele>
        <time>2014-05-10T11:08:22Z</time>
      </trkpt>
      <trkpt lat="42.89838" lon="-0.43257">
        <ele>993.659912</ele>
        <time>2014-05-10T11:10:29Z</time>
      </trkpt>
      <trkpt lat="42.89858" lon="-0.43255">
        <ele>995.101807</ele>
        <time>2014-05-10T11:11:09Z</time>
      </trkpt>
      <trkpt lat="42.89864" lon="-0.43264">
        <ele>995.101807</ele>
        <time>2014-05-10T11:11:20Z</time>
      </trkpt>
      <trkpt lat="42.89873" lon="-0.43278">
        <ele>995.101807</ele>
        <time>2014-05-10T11:11:34Z</time>
      </trkpt>
      <trkpt lat="42.89884" lon="-0.43291">
        <ele>994.140625</ele>
        <time>2014-05-10T11:11:50Z</time>
      </trkpt>
      <trkpt lat="42.89892" lon="-0.433">
        <ele>994.140625</ele>
        <time>2014-05-10T11:12:08Z</time>
      </trkpt>
      <trkpt lat="42.89889" lon="-0.43304">
        <ele>995.101807</ele>
        <time>2014-05-10T11:12:29Z</time>
      </trkpt>
      <trkpt lat="42.89894" lon="-0.433">
        <ele>995.101807</ele>
        <time>2014-05-10T11:12:52Z</time>
      </trkpt>
      <trkpt lat="42.89891" lon="-0.43309">
        <ele>994.140625</ele>
        <time>2014-05-10T11:13:08Z</time>
      </trkpt>
      <trkpt lat="42.89898" lon="-0.43312">
        <ele>994.140625</ele>
        <time>2014-05-10T11:13:24Z</time>
      </trkpt>
      <trkpt lat="42.89899" lon="-0.43312">
        <ele>994.140625</ele>
        <time>2014-05-10T11:13:33Z</time>
      </trkpt>
      <trkpt lat="42.89903" lon="-0.43302">
        <ele>993.659912</ele>
        <time>2014-05-10T11:13:42Z</time>
      </trkpt>
      <trkpt lat="42.89899" lon="-0.43291">
        <ele>993.179199</ele>
        <time>2014-05-10T11:13:58Z</time>
      </trkpt>
      <trkpt lat="42.89899" lon="-0.43289">
        <ele>992.69873</ele>
        <time>2014-05-10T11:14:11Z</time>
      </trkpt>
      <trkpt lat="42.89901" lon="-0.43297">
        <ele>992.218018</ele>
        <time>2014-05-10T11:14:39Z</time>
      </trkpt>
      <trkpt lat="42.89898" lon="-0.433">
        <ele>993.179199</ele>
        <time>2014-05-10T11:14:44Z</time>
      </trkpt>
      <trkpt lat="42.89896" lon="-0.43301">
        <ele>992.69873</ele>
        <time>2014-05-10T11:14:46Z</time>
      </trkpt>
      <trkpt lat="42.89889" lon="-0.43309">
        <ele>993.659912</ele>
        <time>2014-05-10T11:14:57Z</time>
      </trkpt>
      <trkpt lat="42.89882" lon="-0.4331">
        <ele>994.140625</ele>
        <time>2014-05-10T11:15:03Z</time>
      </trkpt>
      <trkpt lat="42.89879" lon="-0.43318">
        <ele>995.58252</ele>
        <time>2014-05-10T11:15:16Z</time>
      </trkpt>
      <trkpt lat="42.89882" lon="-0.43326">
        <ele>996.543945</ele>
        <time>2014-05-10T11:15:30Z</time>
      </trkpt>
      <trkpt lat="42.89888" lon="-0.43329">
        <ele>997.505127</ele>
        <time>2014-05-10T11:15:44Z</time>
      </trkpt>
      <trkpt lat="42.89888" lon="-0.43329">
        <ele>997.024414</ele>
        <time>2014-05-10T11:16:17Z</time>
      </trkpt>
      <trkpt lat="42.89882" lon="-0.43314">
        <ele>996.543945</ele>
        <time>2014-05-10T11:16:42Z</time>
      </trkpt>
      <trkpt lat="42.89894" lon="-0.43317">
        <ele>996.543945</ele>
        <time>2014-05-10T11:16:53Z</time>
      </trkpt>
      <trkpt lat="42.89883" lon="-0.4332">
        <ele>997.024414</ele>
        <time>2014-05-10T11:17:13Z</time>
      </trkpt>
      <trkpt lat="42.8988" lon="-0.4333">
        <ele>997.505127</ele>
        <time>2014-05-10T11:17:28Z</time>
      </trkpt>
      <trkpt lat="42.89878" lon="-0.43326">
        <ele>997.505127</ele>
        <time>2014-05-10T11:17:33Z</time>
      </trkpt>
      <trkpt lat="42.89878" lon="-0.4333">
        <ele>997.024414</ele>
        <time>2014-05-10T11:17:45Z</time>
      </trkpt>
      <trkpt lat="42.89876" lon="-0.4332">
        <ele>997.505127</ele>
        <time>2014-05-10T11:18:00Z</time>
      </trkpt>
      <trkpt lat="42.89875" lon="-0.43326">
        <ele>997.024414</ele>
        <time>2014-05-10T11:18:20Z</time>
      </trkpt>
      <trkpt lat="42.89881" lon="-0.43319">
        <ele>996.543945</ele>
        <time>2014-05-10T11:18:41Z</time>
      </trkpt>
      <trkpt lat="42.89884" lon="-0.43304">
        <ele>997.505127</ele>
        <time>2014-05-10T11:19:04Z</time>
      </trkpt>
    </trkseg>
  </trk>
  <trk>
    <name><![CDATA[ACTIVE LOG 009]]></name>
    <trkseg>
      <trkpt lat="42.89871" lon="-0.43282">
        <ele>993.179199</ele>
        <time>2014-05-10T11:36:19Z</time>
      </trkpt>
      <trkpt lat="42.89849" lon="-0.43324">
        <ele>993.179199</ele>
        <time>2014-05-10T11:36:52Z</time>
      </trkpt>
      <trkpt lat="42.89859" lon="-0.43329">
        <ele>993.179199</ele>
        <time>2014-05-10T11:37:04Z</time>
      </trkpt>
      <trkpt lat="42.89863" lon="-0.43337">
        <ele>993.179199</ele>
        <time>2014-05-10T11:37:20Z</time>
      </trkpt>
      <trkpt lat="42.89872" lon="-0.43339">
        <ele>993.179199</ele>
        <time>2014-05-10T11:37:54Z</time>
      </trkpt>
      <trkpt lat="42.89881" lon="-0.43338">
        <ele>993.179199</ele>
        <time>2014-05-10T11:41:53Z</time>
      </trkpt>
      <trkpt lat="42.89877" lon="-0.43336">
        <ele>992.69873</ele>
        <time>2014-05-10T11:46:55Z</time>
      </trkpt>
      <trkpt lat="42.89879" lon="-0.43338">
        <ele>992.218018</ele>
        <time>2014-05-10T11:47:26Z</time>
      </trkpt>
      <trkpt lat="42.89882" lon="-0.43329">
        <ele>991.256592</ele>
        <time>2014-05-10T11:49:48Z</time>
      </trkpt>
      <trkpt lat="42.89882" lon="-0.43331">
        <ele>990.29541</ele>
        <time>2014-05-10T11:49:54Z</time>
      </trkpt>
      <trkpt lat="42.89883" lon="-0.4333">
        <ele>992.69873</ele>
        <time>2014-05-10T11:49:56Z</time>
      </trkpt>
      <trkpt lat="42.89876" lon="-0.43322">
        <ele>991.256592</ele>
        <time>2014-05-10T11:50:51Z</time>
      </trkpt>
      <trkpt lat="42.89875" lon="-0.43326">
        <ele>992.218018</ele>
        <time>2014-05-10T11:51:00Z</time>
      </trkpt>
      <trkpt lat="42.89876" lon="-0.43335">
        <ele>991.256592</ele>
        <time>2014-05-10T11:51:40Z</time>
      </trkpt>
      <trkpt lat="42.89895" lon="-0.43322">
        <ele>992.218018</ele>
        <time>2014-05-10T11:52:48Z</time>
      </trkpt>
      <trkpt lat="42.89879" lon="-0.43332">
        <ele>993.179199</ele>
        <time>2014-05-10T11:54:19Z</time>
      </trkpt>
      <trkpt lat="42.8988" lon="-0.43325">
        <ele>992.218018</ele>
        <time>2014-05-10T11:54:37Z</time>
      </trkpt>
      <trkpt lat="42.89875" lon="-0.43316">
        <ele>990.775879</ele>
        <time>2014-05-10T11:54:50Z</time>
      </trkpt>
      <trkpt lat="42.89877" lon="-0.43308">
        <ele>989.333984</ele>
        <time>2014-05-10T11:55:01Z</time>
      </trkpt>
      <trkpt lat="42.89886" lon="-0.4331">
        <ele>989.333984</ele>
        <time>2014-05-10T11:55:10Z</time>
      </trkpt>
      <trkpt lat="42.89893" lon="-0.43307">
        <ele>987.411133</ele>
        <time>2014-05-10T11:55:21Z</time>
      </trkpt>
      <trkpt lat="42.89902" lon="-0.43293">
        <ele>986.93042</ele>
        <time>2014-05-10T11:55:37Z</time>
      </trkpt>
      <trkpt lat="42.89895" lon="-0.43285">
        <ele>985.488525</ele>
        <time>2014-05-10T11:55:50Z</time>
      </trkpt>
      <trkpt lat="42.89889" lon="-0.43278">
        <ele>983.085205</ele>
        <time>2014-05-10T11:56:02Z</time>
      </trkpt>
      <trkpt lat="42.89889" lon="-0.43268">
        <ele>980.201416</ele>
        <time>2014-05-10T11:56:14Z</time>
      </trkpt>
      <trkpt lat="42.89899" lon="-0.43264">
        <ele>979.23999</ele>
        <time>2014-05-10T11:56:25Z</time>
      </trkpt>
      <trkpt lat="42.89907" lon="-0.43261">
        <ele>975.875488</ele>
        <time>2014-05-10T11:56:34Z</time>
      </trkpt>
      <trkpt lat="42.89915" lon="-0.43259">
        <ele>974.433594</ele>
        <time>2014-05-10T11:56:45Z</time>
      </trkpt>
      <trkpt lat="42.89924" lon="-0.4326">
        <ele>972.510986</ele>
        <time>2014-05-10T11:56:57Z</time>
      </trkpt>
      <trkpt lat="42.89933" lon="-0.43261">
        <ele>970.107422</ele>
        <time>2014-05-10T11:57:07Z</time>
      </trkpt>
      <trkpt lat="42.89946" lon="-0.43263">
        <ele>967.704102</ele>
        <time>2014-05-10T11:57:24Z</time>
      </trkpt>
      <trkpt lat="42.89952" lon="-0.43268">
        <ele>965.301025</ele>
        <time>2014-05-10T11:57:44Z</time>
      </trkpt>
      <trkpt lat="42.89958" lon="-0.43263">
        <ele>964.820313</ele>
        <time>2014-05-10T11:58:34Z</time>
      </trkpt>
      <trkpt lat="42.89935" lon="-0.43278">
        <ele>965.301025</ele>
        <time>2014-05-10T11:59:00Z</time>
      </trkpt>
      <trkpt lat="42.89956" lon="-0.43285">
        <ele>962.897705</ele>
        <time>2014-05-10T12:00:09Z</time>
      </trkpt>
      <trkpt lat="42.89971" lon="-0.4329">
        <ele>961.936523</ele>
        <time>2014-05-10T12:00:22Z</time>
      </trkpt>
      <trkpt lat="42.89982" lon="-0.43288">
        <ele>961.455811</ele>
        <time>2014-05-10T12:01:05Z</time>
      </trkpt>
      <trkpt lat="42.89986" lon="-0.43293">
        <ele>960.975098</ele>
        <time>2014-05-10T12:01:26Z</time>
      </trkpt>
      <trkpt lat="42.89983" lon="-0.43294">
        <ele>961.455811</ele>
        <time>2014-05-10T12:02:34Z</time>
      </trkpt>
      <trkpt lat="42.89979" lon="-0.43295">
        <ele>960.494385</ele>
        <time>2014-05-10T12:03:27Z</time>
      </trkpt>
      <trkpt lat="42.8997" lon="-0.43301">
        <ele>961.936523</ele>
        <time>2014-05-10T12:05:23Z</time>
      </trkpt>
      <trkpt lat="42.89993" lon="-0.43293">
        <ele>959.533203</ele>
        <time>2014-05-10T12:05:52Z</time>
      </trkpt>
      <trkpt lat="42.90001" lon="-0.43291">
        <ele>957.610596</ele>
        <time>2014-05-10T12:06:02Z</time>
      </trkpt>
      <trkpt lat="42.90008" lon="-0.43287">
        <ele>956.168457</ele>
        <time>2014-05-10T12:06:10Z</time>
      </trkpt>
      <trkpt lat="42.90019" lon="-0.43285">
        <ele>956.168457</ele>
        <time>2014-05-10T12:06:22Z</time>
      </trkpt>
      <trkpt lat="42.9003" lon="-0.43283">
        <ele>956.168457</ele>
        <time>2014-05-10T12:06:32Z</time>
      </trkpt>
      <trkpt lat="42.9004" lon="-0.43275">
        <ele>954.726318</ele>
        <time>2014-05-10T12:06:44Z</time>
      </trkpt>
      <trkpt lat="42.90049" lon="-0.43265">
        <ele>953.284424</ele>
        <time>2014-05-10T12:06:56Z</time>
      </trkpt>
      <trkpt lat="42.90052" lon="-0.43262">
        <ele>953.284424</ele>
        <time>2014-05-10T12:07:00Z</time>
      </trkpt>
      <trkpt lat="42.9006" lon="-0.43253">
        <ele>951.842529</ele>
        <time>2014-05-10T12:07:10Z</time>
      </trkpt>
      <trkpt lat="42.90068" lon="-0.43248">
        <ele>952.322998</ele>
        <time>2014-05-10T12:07:25Z</time>
      </trkpt>
      <trkpt lat="42.9007" lon="-0.43241">
        <ele>952.803711</ele>
        <time>2014-05-10T12:08:35Z</time>
      </trkpt>
      <trkpt lat="42.90068" lon="-0.43241">
        <ele>952.803711</ele>
        <time>2014-05-10T12:09:43Z</time>
      </trkpt>
      <trkpt lat="42.90064" lon="-0.43242">
        <ele>951.361816</ele>
        <time>2014-05-10T12:09:46Z</time>
      </trkpt>
      <trkpt lat="42.9006" lon="-0.4324">
        <ele>949.919922</ele>
        <time>2014-05-10T12:09:57Z</time>
      </trkpt>
      <trkpt lat="42.90065" lon="-0.4323">
        <ele>949.439209</ele>
        <time>2014-05-10T12:10:03Z</time>
      </trkpt>
      <trkpt lat="42.90077" lon="-0.43215">
        <ele>947.997314</ele>
        <time>2014-05-10T12:10:15Z</time>
      </trkpt>
      <trkpt lat="42.90084" lon="-0.43211">
        <ele>946.074707</ele>
        <time>2014-05-10T12:10:20Z</time>
      </trkpt>
      <trkpt lat="42.90093" lon="-0.43206">
        <ele>944.1521</ele>
        <time>2014-05-10T12:10:36Z</time>
      </trkpt>
      <trkpt lat="42.90093" lon="-0.43201">
        <ele>947.516602</ele>
        <time>2014-05-10T12:10:47Z</time>
      </trkpt>
      <trkpt lat="42.90104" lon="-0.43195">
        <ele>947.997314</ele>
        <time>2014-05-10T12:10:52Z</time>
      </trkpt>
      <trkpt lat="42.90088" lon="-0.43202">
        <ele>948.477783</ele>
        <time>2014-05-10T12:11:05Z</time>
      </trkpt>
      <trkpt lat="42.90095" lon="-0.43196">
        <ele>949.919922</ele>
        <time>2014-05-10T12:11:10Z</time>
      </trkpt>
      <trkpt lat="42.90093" lon="-0.43196">
        <ele>951.842529</ele>
        <time>2014-05-10T12:11:13Z</time>
      </trkpt>
      <trkpt lat="42.90086" lon="-0.43195">
        <ele>952.322998</ele>
        <time>2014-05-10T12:11:21Z</time>
      </trkpt>
      <trkpt lat="42.90079" lon="-0.43193">
        <ele>953.765137</ele>
        <time>2014-05-10T12:11:36Z</time>
      </trkpt>
      <trkpt lat="42.90085" lon="-0.43185">
        <ele>954.726318</ele>
        <time>2014-05-10T12:11:44Z</time>
      </trkpt>
      <trkpt lat="42.9009" lon="-0.43177">
        <ele>957.610596</ele>
        <time>2014-05-10T12:11:58Z</time>
      </trkpt>
      <trkpt lat="42.90138" lon="-0.43133">
        <ele>958.571777</ele>
        <time>2014-05-10T12:12:24Z</time>
      </trkpt>
      <trkpt lat="42.90145" lon="-0.43127">
        <ele>960.494385</ele>
        <time>2014-05-10T12:12:48Z</time>
      </trkpt>
      <trkpt lat="42.90145" lon="-0.43118">
        <ele>960.013672</ele>
        <time>2014-05-10T12:13:32Z</time>
      </trkpt>
      <trkpt lat="42.90146" lon="-0.43117">
        <ele>960.494385</ele>
        <time>2014-05-10T12:14:11Z</time>
      </trkpt>
      <trkpt lat="42.90146" lon="-0.43114">
        <ele>960.975098</ele>
        <time>2014-05-10T12:14:29Z</time>
      </trkpt>
      <trkpt lat="42.90154" lon="-0.43102">
        <ele>960.494385</ele>
        <time>2014-05-10T12:14:55Z</time>
      </trkpt>
      <trkpt lat="42.9014" lon="-0.43114">
        <ele>962.416992</ele>
        <time>2014-05-10T12:15:17Z</time>
      </trkpt>
      <trkpt lat="42.9014" lon="-0.4311">
        <ele>965.781738</ele>
        <time>2014-05-10T12:15:27Z</time>
      </trkpt>
      <trkpt lat="42.90149" lon="-0.43098">
        <ele>968.665527</ele>
        <time>2014-05-10T12:15:42Z</time>
      </trkpt>
      <trkpt lat="42.90154" lon="-0.4309">
        <ele>971.549316</ele>
        <time>2014-05-10T12:15:52Z</time>
      </trkpt>
      <trkpt lat="42.90176" lon="-0.4306">
        <ele>974.914307</ele>
        <time>2014-05-10T12:16:11Z</time>
      </trkpt>
      <trkpt lat="42.9018" lon="-0.43046">
        <ele>976.836914</ele>
        <time>2014-05-10T12:16:28Z</time>
      </trkpt>
      <trkpt lat="42.90174" lon="-0.43044">
        <ele>976.836914</ele>
        <time>2014-05-10T12:16:51Z</time>
      </trkpt>
      <trkpt lat="42.90185" lon="-0.43036">
        <ele>976.356201</ele>
        <time>2014-05-10T12:17:08Z</time>
      </trkpt>
      <trkpt lat="42.90196" lon="-0.43028">
        <ele>976.356201</ele>
        <time>2014-05-10T12:17:20Z</time>
      </trkpt>
      <trkpt lat="42.90211" lon="-0.43019">
        <ele>975.875488</ele>
        <time>2014-05-10T12:17:44Z</time>
      </trkpt>
      <trkpt lat="42.90218" lon="-0.43016">
        <ele>975.394775</ele>
        <time>2014-05-10T12:17:59Z</time>
      </trkpt>
      <trkpt lat="42.90219" lon="-0.43016">
        <ele>975.875488</ele>
        <time>2014-05-10T12:18:10Z</time>
      </trkpt>
      <trkpt lat="42.90219" lon="-0.43006">
        <ele>977.798096</ele>
        <time>2014-05-10T12:18:25Z</time>
      </trkpt>
      <trkpt lat="42.90227" lon="-0.42996">
        <ele>979.23999</ele>
        <time>2014-05-10T12:18:48Z</time>
      </trkpt>
      <trkpt lat="42.90239" lon="-0.42992">
        <ele>979.720703</ele>
        <time>2014-05-10T12:18:58Z</time>
      </trkpt>
      <trkpt lat="42.90246" lon="-0.42982">
        <ele>980.682129</ele>
        <time>2014-05-10T12:19:09Z</time>
      </trkpt>
      <trkpt lat="42.90247" lon="-0.42981">
        <ele>981.643311</ele>
        <time>2014-05-10T12:19:21Z</time>
      </trkpt>
      <trkpt lat="42.90256" lon="-0.42968">
        <ele>981.162842</ele>
        <time>2014-05-10T12:19:32Z</time>
      </trkpt>
      <trkpt lat="42.90264" lon="-0.42955">
        <ele>983.085205</ele>
        <time>2014-05-10T12:19:45Z</time>
      </trkpt>
      <trkpt lat="42.90268" lon="-0.42947">
        <ele>985.969238</ele>
        <time>2014-05-10T12:19:56Z</time>
      </trkpt>
      <trkpt lat="42.90274" lon="-0.42942">
        <ele>983.565918</ele>
        <time>2014-05-10T12:20:15Z</time>
      </trkpt>
      <trkpt lat="42.90271" lon="-0.42947">
        <ele>983.565918</ele>
        <time>2014-05-10T12:20:28Z</time>
      </trkpt>
      <trkpt lat="42.90274" lon="-0.42949">
        <ele>982.604736</ele>
        <time>2014-05-10T12:20:48Z</time>
      </trkpt>
      <trkpt lat="42.90283" lon="-0.42942">
        <ele>981.643311</ele>
        <time>2014-05-10T12:21:41Z</time>
      </trkpt>
      <trkpt lat="42.90271" lon="-0.4295">
        <ele>981.643311</ele>
        <time>2014-05-10T12:22:01Z</time>
      </trkpt>
      <trkpt lat="42.9027" lon="-0.42946">
        <ele>981.643311</ele>
        <time>2014-05-10T12:22:43Z</time>
      </trkpt>
      <trkpt lat="42.90266" lon="-0.42951">
        <ele>981.643311</ele>
        <time>2014-05-10T12:23:19Z</time>
      </trkpt>
      <trkpt lat="42.90268" lon="-0.42953">
        <ele>981.643311</ele>
        <time>2014-05-10T12:23:59Z</time>
      </trkpt>
      <trkpt lat="42.90265" lon="-0.42951">
        <ele>981.162842</ele>
        <time>2014-05-10T12:24:19Z</time>
      </trkpt>
      <trkpt lat="42.90269" lon="-0.42951">
        <ele>981.162842</ele>
        <time>2014-05-10T12:24:50Z</time>
      </trkpt>
      <trkpt lat="42.9027" lon="-0.4295">
        <ele>981.162842</ele>
        <time>2014-05-10T12:25:33Z</time>
      </trkpt>
      <trkpt lat="42.90275" lon="-0.42941">
        <ele>983.565918</ele>
        <time>2014-05-10T12:25:47Z</time>
      </trkpt>
      <trkpt lat="42.90274" lon="-0.42933">
        <ele>985.488525</ele>
        <time>2014-05-10T12:25:57Z</time>
      </trkpt>
      <trkpt lat="42.90277" lon="-0.42929">
        <ele>985.969238</ele>
        <time>2014-05-10T12:26:02Z</time>
      </trkpt>
      <trkpt lat="42.9028" lon="-0.42927">
        <ele>985.969238</ele>
        <time>2014-05-10T12:26:05Z</time>
      </trkpt>
      <trkpt lat="42.90288" lon="-0.42919">
        <ele>988.853516</ele>
        <time>2014-05-10T12:26:18Z</time>
      </trkpt>
      <trkpt lat="42.90294" lon="-0.4291">
        <ele>990.29541</ele>
        <time>2014-05-10T12:26:30Z</time>
      </trkpt>
      <trkpt lat="42.90306" lon="-0.42902">
        <ele>991.737305</ele>
        <time>2014-05-10T12:26:44Z</time>
      </trkpt>
      <trkpt lat="42.90311" lon="-0.42905">
        <ele>992.69873</ele>
        <time>2014-05-10T12:26:51Z</time>
      </trkpt>
      <trkpt lat="42.90324" lon="-0.42904">
        <ele>995.101807</ele>
        <time>2014-05-10T12:27:06Z</time>
      </trkpt>
      <trkpt lat="42.90328" lon="-0.42905">
        <ele>995.101807</ele>
        <time>2014-05-10T12:27:10Z</time>
      </trkpt>
      <trkpt lat="42.90341" lon="-0.42907">
        <ele>997.024414</ele>
        <time>2014-05-10T12:27:25Z</time>
      </trkpt>
      <trkpt lat="42.90349" lon="-0.42908">
        <ele>996.063232</ele>
        <time>2014-05-10T12:27:35Z</time>
      </trkpt>
      <trkpt lat="42.90364" lon="-0.42909">
        <ele>994.140625</ele>
        <time>2014-05-10T12:27:51Z</time>
      </trkpt>
      <trkpt lat="42.90377" lon="-0.42912">
        <ele>990.775879</ele>
        <time>2014-05-10T12:28:04Z</time>
      </trkpt>
      <trkpt lat="42.9039" lon="-0.42915">
        <ele>988.853516</ele>
        <time>2014-05-10T12:28:18Z</time>
      </trkpt>
      <trkpt lat="42.90401" lon="-0.42914">
        <ele>986.93042</ele>
        <time>2014-05-10T12:28:32Z</time>
      </trkpt>
      <trkpt lat="42.90407" lon="-0.42913">
        <ele>985.008057</ele>
        <time>2014-05-10T12:28:45Z</time>
      </trkpt>
      <trkpt lat="42.90413" lon="-0.4291">
        <ele>983.565918</ele>
        <time>2014-05-10T12:28:58Z</time>
      </trkpt>
      <trkpt lat="42.90418" lon="-0.42914">
        <ele>980.682129</ele>
        <time>2014-05-10T12:29:09Z</time>
      </trkpt>
      <trkpt lat="42.90428" lon="-0.4291">
        <ele>978.759521</ele>
        <time>2014-05-10T12:29:21Z</time>
      </trkpt>
      <trkpt lat="42.90434" lon="-0.42911">
        <ele>977.798096</ele>
        <time>2014-05-10T12:29:32Z</time>
      </trkpt>
      <trkpt lat="42.90437" lon="-0.4291">
        <ele>977.798096</ele>
        <time>2014-05-10T12:29:35Z</time>
      </trkpt>
      <trkpt lat="42.90442" lon="-0.42904">
        <ele>979.23999</ele>
        <time>2014-05-10T12:29:49Z</time>
      </trkpt>
      <trkpt lat="42.90456" lon="-0.42895">
        <ele>981.643311</ele>
        <time>2014-05-10T12:30:07Z</time>
      </trkpt>
      <trkpt lat="42.9047" lon="-0.42885">
        <ele>982.604736</ele>
        <time>2014-05-10T12:30:24Z</time>
      </trkpt>
      <trkpt lat="42.90479" lon="-0.42881">
        <ele>984.527344</ele>
        <time>2014-05-10T12:30:36Z</time>
      </trkpt>
      <trkpt lat="42.90486" lon="-0.42876">
        <ele>984.527344</ele>
        <time>2014-05-10T12:30:44Z</time>
      </trkpt>
      <trkpt lat="42.90501" lon="-0.42866">
        <ele>983.565918</ele>
        <time>2014-05-10T12:31:00Z</time>
      </trkpt>
      <trkpt lat="42.90513" lon="-0.42869">
        <ele>984.046631</ele>
        <time>2014-05-10T12:31:12Z</time>
      </trkpt>
      <trkpt lat="42.90526" lon="-0.4287">
        <ele>983.085205</ele>
        <time>2014-05-10T12:31:26Z</time>
      </trkpt>
      <trkpt lat="42.90534" lon="-0.42869">
        <ele>985.008057</ele>
        <time>2014-05-10T12:31:40Z</time>
      </trkpt>
      <trkpt lat="42.90543" lon="-0.42868">
        <ele>983.085205</ele>
        <time>2014-05-10T12:31:53Z</time>
      </trkpt>
      <trkpt lat="42.90556" lon="-0.42867">
        <ele>981.643311</ele>
        <time>2014-05-10T12:32:07Z</time>
      </trkpt>
      <trkpt lat="42.90574" lon="-0.42867">
        <ele>984.527344</ele>
        <time>2014-05-10T12:32:25Z</time>
      </trkpt>
      <trkpt lat="42.90577" lon="-0.42868">
        <ele>983.565918</ele>
        <time>2014-05-10T12:32:30Z</time>
      </trkpt>
      <trkpt lat="42.9059" lon="-0.42871">
        <ele>983.085205</ele>
        <time>2014-05-10T12:32:45Z</time>
      </trkpt>
      <trkpt lat="42.90599" lon="-0.42871">
        <ele>983.565918</ele>
        <time>2014-05-10T12:32:58Z</time>
      </trkpt>
      <trkpt lat="42.90601" lon="-0.42873">
        <ele>984.046631</ele>
        <time>2014-05-10T12:33:12Z</time>
      </trkpt>
      <trkpt lat="42.90603" lon="-0.42872">
        <ele>983.085205</ele>
        <time>2014-05-10T12:33:33Z</time>
      </trkpt>
      <trkpt lat="42.90605" lon="-0.42866">
        <ele>983.085205</ele>
        <time>2014-05-10T12:34:28Z</time>
      </trkpt>
      <trkpt lat="42.90605" lon="-0.4287">
        <ele>983.565918</ele>
        <time>2014-05-10T12:34:49Z</time>
      </trkpt>
      <trkpt lat="42.90599" lon="-0.42878">
        <ele>983.085205</ele>
        <time>2014-05-10T12:35:27Z</time>
      </trkpt>
      <trkpt lat="42.906" lon="-0.4288">
        <ele>983.565918</ele>
        <time>2014-05-10T12:35:54Z</time>
      </trkpt>
      <trkpt lat="42.90602" lon="-0.42872">
        <ele>982.604736</ele>
        <time>2014-05-10T12:36:15Z</time>
      </trkpt>
      <trkpt lat="42.90607" lon="-0.42865">
        <ele>980.201416</ele>
        <time>2014-05-10T12:36:26Z</time>
      </trkpt>
      <trkpt lat="42.90616" lon="-0.42863">
        <ele>976.836914</ele>
        <time>2014-05-10T12:36:38Z</time>
      </trkpt>
      <trkpt lat="42.9062" lon="-0.42867">
        <ele>977.798096</ele>
        <time>2014-05-10T12:36:42Z</time>
      </trkpt>
      <trkpt lat="42.90631" lon="-0.42872">
        <ele>978.278809</ele>
        <time>2014-05-10T12:36:54Z</time>
      </trkpt>
      <trkpt lat="42.90637" lon="-0.42874">
        <ele>978.759521</ele>
        <time>2014-05-10T12:37:03Z</time>
      </trkpt>
      <trkpt lat="42.90647" lon="-0.4287">
        <ele>978.278809</ele>
        <time>2014-05-10T12:37:12Z</time>
      </trkpt>
      <trkpt lat="42.90659" lon="-0.42872">
        <ele>981.162842</ele>
        <time>2014-05-10T12:37:24Z</time>
      </trkpt>
      <trkpt lat="42.90666" lon="-0.4287">
        <ele>981.162842</ele>
        <time>2014-05-10T12:37:30Z</time>
      </trkpt>
      <trkpt lat="42.9068" lon="-0.4287">
        <ele>980.682129</ele>
        <time>2014-05-10T12:37:44Z</time>
      </trkpt>
      <trkpt lat="42.90693" lon="-0.42871">
        <ele>979.720703</ele>
        <time>2014-05-10T12:37:58Z</time>
      </trkpt>
      <trkpt lat="42.90707" lon="-0.42857">
        <ele>980.682129</ele>
        <time>2014-05-10T12:38:11Z</time>
      </trkpt>
      <trkpt lat="42.90712" lon="-0.4285">
        <ele>980.201416</ele>
        <time>2014-05-10T12:38:29Z</time>
      </trkpt>
      <trkpt lat="42.9072" lon="-0.4285">
        <ele>977.798096</ele>
        <time>2014-05-10T12:38:42Z</time>
      </trkpt>
      <trkpt lat="42.90729" lon="-0.42849">
        <ele>974.433594</ele>
        <time>2014-05-10T12:38:56Z</time>
      </trkpt>
      <trkpt lat="42.90734" lon="-0.42851">
        <ele>973.952881</ele>
        <time>2014-05-10T12:39:01Z</time>
      </trkpt>
      <trkpt lat="42.90743" lon="-0.42849">
        <ele>972.030273</ele>
        <time>2014-05-10T12:39:14Z</time>
      </trkpt>
      <trkpt lat="42.90747" lon="-0.42847">
        <ele>971.549316</ele>
        <time>2014-05-10T12:39:18Z</time>
      </trkpt>
      <trkpt lat="42.90756" lon="-0.42847">
        <ele>969.14624</ele>
        <time>2014-05-10T12:39:31Z</time>
      </trkpt>
      <trkpt lat="42.90761" lon="-0.42847">
        <ele>967.223633</ele>
        <time>2014-05-10T12:39:39Z</time>
      </trkpt>
      <trkpt lat="42.9077" lon="-0.42848">
        <ele>965.781738</ele>
        <time>2014-05-10T12:39:52Z</time>
      </trkpt>
      <trkpt lat="42.90779" lon="-0.42847">
        <ele>965.301025</ele>
        <time>2014-05-10T12:40:06Z</time>
      </trkpt>
      <trkpt lat="42.90783" lon="-0.42849">
        <ele>962.416992</ele>
        <time>2014-05-10T12:40:13Z</time>
      </trkpt>
      <trkpt lat="42.9079" lon="-0.42846">
        <ele>962.897705</ele>
        <time>2014-05-10T12:40:20Z</time>
      </trkpt>
      <trkpt lat="42.90803" lon="-0.42836">
        <ele>963.858887</ele>
        <time>2014-05-10T12:40:33Z</time>
      </trkpt>
      <trkpt lat="42.90816" lon="-0.42829">
        <ele>964.3396</ele>
        <time>2014-05-10T12:40:47Z</time>
      </trkpt>
      <trkpt lat="42.90831" lon="-0.42824">
        <ele>963.858887</ele>
        <time>2014-05-10T12:41:01Z</time>
      </trkpt>
      <trkpt lat="42.9084" lon="-0.42826">
        <ele>963.858887</ele>
        <time>2014-05-10T12:41:11Z</time>
      </trkpt>
      <trkpt lat="42.90843" lon="-0.42826">
        <ele>964.820313</ele>
        <time>2014-05-10T12:41:14Z</time>
      </trkpt>
      <trkpt lat="42.90854" lon="-0.42825">
        <ele>965.301025</ele>
        <time>2014-05-10T12:41:29Z</time>
      </trkpt>
      <trkpt lat="42.90854" lon="-0.42823">
        <ele>964.820313</ele>
        <time>2014-05-10T12:41:51Z</time>
      </trkpt>
      <trkpt lat="42.90854" lon="-0.42824">
        <ele>964.820313</ele>
        <time>2014-05-10T12:42:13Z</time>
      </trkpt>
      <trkpt lat="42.90853" lon="-0.42831">
        <ele>964.820313</ele>
        <time>2014-05-10T12:42:41Z</time>
      </trkpt>
      <trkpt lat="42.90853" lon="-0.42826">
        <ele>965.301025</ele>
        <time>2014-05-10T12:43:08Z</time>
      </trkpt>
      <trkpt lat="42.90853" lon="-0.4282">
        <ele>965.781738</ele>
        <time>2014-05-10T12:43:38Z</time>
      </trkpt>
      <trkpt lat="42.90856" lon="-0.4282">
        <ele>964.820313</ele>
        <time>2014-05-10T12:43:55Z</time>
      </trkpt>
      <trkpt lat="42.90863" lon="-0.42831">
        <ele>965.301025</ele>
        <time>2014-05-10T12:44:09Z</time>
      </trkpt>
      <trkpt lat="42.90875" lon="-0.42841">
        <ele>963.858887</ele>
        <time>2014-05-10T12:44:22Z</time>
      </trkpt>
      <trkpt lat="42.90878" lon="-0.42843">
        <ele>964.3396</ele>
        <time>2014-05-10T12:44:25Z</time>
      </trkpt>
      <trkpt lat="42.90886" lon="-0.42849">
        <ele>963.858887</ele>
        <time>2014-05-10T12:44:34Z</time>
      </trkpt>
      <trkpt lat="42.90904" lon="-0.42855">
        <ele>964.3396</ele>
        <time>2014-05-10T12:44:49Z</time>
      </trkpt>
      <trkpt lat="42.90918" lon="-0.4287">
        <ele>965.301025</ele>
        <time>2014-05-10T12:45:03Z</time>
      </trkpt>
      <trkpt lat="42.90924" lon="-0.42875">
        <ele>966.262207</ele>
        <time>2014-05-10T12:45:09Z</time>
      </trkpt>
      <trkpt lat="42.90936" lon="-0.42888">
        <ele>965.301025</ele>
        <time>2014-05-10T12:45:22Z</time>
      </trkpt>
      <trkpt lat="42.90947" lon="-0.42895">
        <ele>963.378418</ele>
        <time>2014-05-10T12:45:38Z</time>
      </trkpt>
      <trkpt lat="42.90949" lon="-0.42893">
        <ele>962.897705</ele>
        <time>2014-05-10T12:45:51Z</time>
      </trkpt>
      <trkpt lat="42.90949" lon="-0.429">
        <ele>961.455811</ele>
        <time>2014-05-10T12:46:03Z</time>
      </trkpt>
      <trkpt lat="42.9095" lon="-0.42902">
        <ele>961.936523</ele>
        <time>2014-05-10T12:46:22Z</time>
      </trkpt>
      <trkpt lat="42.90949" lon="-0.42905">
        <ele>962.416992</ele>
        <time>2014-05-10T12:46:36Z</time>
      </trkpt>
      <trkpt lat="42.90946" lon="-0.42908">
        <ele>961.936523</ele>
        <time>2014-05-10T12:47:31Z</time>
      </trkpt>
      <trkpt lat="42.90947" lon="-0.4291">
        <ele>960.975098</ele>
        <time>2014-05-10T12:48:12Z</time>
      </trkpt>
      <trkpt lat="42.90946" lon="-0.42912">
        <ele>959.533203</ele>
        <time>2014-05-10T12:48:17Z</time>
      </trkpt>
      <trkpt lat="42.90948" lon="-0.42912">
        <ele>957.610596</ele>
        <time>2014-05-10T12:48:24Z</time>
      </trkpt>
      <trkpt lat="42.90946" lon="-0.42916">
        <ele>957.129883</ele>
        <time>2014-05-10T12:48:29Z</time>
      </trkpt>
      <trkpt lat="42.90941" lon="-0.42919">
        <ele>955.687744</ele>
        <time>2014-05-10T12:48:41Z</time>
      </trkpt>
      <trkpt lat="42.90941" lon="-0.4292">
        <ele>955.207031</ele>
        <time>2014-05-10T12:48:43Z</time>
      </trkpt>
      <trkpt lat="42.9094" lon="-0.42926">
        <ele>952.803711</ele>
        <time>2014-05-10T12:48:55Z</time>
      </trkpt>
      <trkpt lat="42.90934" lon="-0.42934">
        <ele>951.361816</ele>
        <time>2014-05-10T12:49:08Z</time>
      </trkpt>
      <trkpt lat="42.90933" lon="-0.42946">
        <ele>948.477783</ele>
        <time>2014-05-10T12:49:20Z</time>
      </trkpt>
      <trkpt lat="42.90933" lon="-0.42959">
        <ele>946.074707</ele>
        <time>2014-05-10T12:49:32Z</time>
      </trkpt>
      <trkpt lat="42.90933" lon="-0.42962">
        <ele>945.593994</ele>
        <time>2014-05-10T12:49:34Z</time>
      </trkpt>
      <trkpt lat="42.90931" lon="-0.42972">
        <ele>945.113281</ele>
        <time>2014-05-10T12:49:40Z</time>
      </trkpt>
      <trkpt lat="42.90928" lon="-0.42979">
        <ele>944.1521</ele>
        <time>2014-05-10T12:49:46Z</time>
      </trkpt>
      <trkpt lat="42.90932" lon="-0.42993">
        <ele>942.710205</ele>
        <time>2014-05-10T12:50:00Z</time>
      </trkpt>
      <trkpt lat="42.90934" lon="-0.42999">
        <ele>942.229492</ele>
        <time>2014-05-10T12:50:13Z</time>
      </trkpt>
      <trkpt lat="42.90938" lon="-0.43004">
        <ele>940.787354</ele>
        <time>2014-05-10T12:50:27Z</time>
      </trkpt>
      <trkpt lat="42.90939" lon="-0.4301">
        <ele>940.306885</ele>
        <time>2014-05-10T12:50:46Z</time>
      </trkpt>
      <trkpt lat="42.90938" lon="-0.43014">
        <ele>937.90332</ele>
        <time>2014-05-10T12:51:00Z</time>
      </trkpt>
      <trkpt lat="42.90941" lon="-0.43014">
        <ele>936.941895</ele>
        <time>2014-05-10T12:51:13Z</time>
      </trkpt>
      <trkpt lat="42.90945" lon="-0.43012">
        <ele>936.461426</ele>
        <time>2014-05-10T12:51:27Z</time>
      </trkpt>
      <trkpt lat="42.90944" lon="-0.43015">
        <ele>935.980713</ele>
        <time>2014-05-10T12:51:58Z</time>
      </trkpt>
      <trkpt lat="42.90945" lon="-0.43016">
        <ele>936.941895</ele>
        <time>2014-05-10T12:52:22Z</time>
      </trkpt>
      <trkpt lat="42.90946" lon="-0.43013">
        <ele>936.461426</ele>
        <time>2014-05-10T12:53:03Z</time>
      </trkpt>
      <trkpt lat="42.90942" lon="-0.43023">
        <ele>934.538818</ele>
        <time>2014-05-10T12:53:19Z</time>
      </trkpt>
      <trkpt lat="42.9094" lon="-0.43029">
        <ele>932.135498</ele>
        <time>2014-05-10T12:53:28Z</time>
      </trkpt>
      <trkpt lat="42.90939" lon="-0.43031">
        <ele>931.174316</ele>
        <time>2014-05-10T12:53:32Z</time>
      </trkpt>
      <trkpt lat="42.90939" lon="-0.43036">
        <ele>931.174316</ele>
        <time>2014-05-10T12:53:47Z</time>
      </trkpt>
      <trkpt lat="42.90939" lon="-0.43038">
        <ele>930.693604</ele>
        <time>2014-05-10T12:53:55Z</time>
      </trkpt>
      <trkpt lat="42.90939" lon="-0.43036">
        <ele>931.654785</ele>
        <time>2014-05-10T12:54:06Z</time>
      </trkpt>
      <trkpt lat="42.9094" lon="-0.43034">
        <ele>931.654785</ele>
        <time>2014-05-10T12:54:23Z</time>
      </trkpt>
      <trkpt lat="42.90939" lon="-0.43036">
        <ele>930.693604</ele>
        <time>2014-05-10T12:56:06Z</time>
      </trkpt>
      <trkpt lat="42.90937" lon="-0.43045">
        <ele>929.251465</ele>
        <time>2014-05-10T12:56:17Z</time>
      </trkpt>
      <trkpt lat="42.90935" lon="-0.43056">
        <ele>926.367676</ele>
        <time>2014-05-10T12:56:27Z</time>
      </trkpt>
      <trkpt lat="42.90931" lon="-0.43068">
        <ele>923.483643</ele>
        <time>2014-05-10T12:56:38Z</time>
      </trkpt>
      <trkpt lat="42.90927" lon="-0.43082">
        <ele>922.522217</ele>
        <time>2014-05-10T12:56:51Z</time>
      </trkpt>
      <trkpt lat="42.90928" lon="-0.43099">
        <ele>919.638428</ele>
        <time>2014-05-10T12:57:04Z</time>
      </trkpt>
      <trkpt lat="42.90929" lon="-0.43104">
        <ele>918.677002</ele>
        <time>2014-05-10T12:57:08Z</time>
      </trkpt>
      <trkpt lat="42.90933" lon="-0.43122">
        <ele>915.793213</ele>
        <time>2014-05-10T12:57:25Z</time>
      </trkpt>
      <trkpt lat="42.90938" lon="-0.43134">
        <ele>913.389893</ele>
        <time>2014-05-10T12:57:37Z</time>
      </trkpt>
      <trkpt lat="42.9094" lon="-0.43151">
        <ele>910.505859</ele>
        <time>2014-05-10T12:57:49Z</time>
      </trkpt>
      <trkpt lat="42.90943" lon="-0.43168">
        <ele>907.621826</ele>
        <time>2014-05-10T12:58:03Z</time>
      </trkpt>
      <trkpt lat="42.90946" lon="-0.43187">
        <ele>904.737793</ele>
        <time>2014-05-10T12:58:18Z</time>
      </trkpt>
      <trkpt lat="42.90945" lon="-0.43195">
        <ele>902.815186</ele>
        <time>2014-05-10T12:58:23Z</time>
      </trkpt>
      <trkpt lat="42.90945" lon="-0.43209">
        <ele>902.334473</ele>
        <time>2014-05-10T12:58:31Z</time>
      </trkpt>
      <trkpt lat="42.90945" lon="-0.43214">
        <ele>900.412109</ele>
        <time>2014-05-10T12:58:34Z</time>
      </trkpt>
      <trkpt lat="42.90946" lon="-0.43234">
        <ele>898.008789</ele>
        <time>2014-05-10T12:58:50Z</time>
      </trkpt>
      <trkpt lat="42.90946" lon="-0.43252">
        <ele>896.566895</ele>
        <time>2014-05-10T12:59:07Z</time>
      </trkpt>
      <trkpt lat="42.90945" lon="-0.43257">
        <ele>894.163574</ele>
        <time>2014-05-10T12:59:25Z</time>
      </trkpt>
      <trkpt lat="42.90951" lon="-0.4326">
        <ele>893.202148</ele>
        <time>2014-05-10T12:59:40Z</time>
      </trkpt>
      <trkpt lat="42.90955" lon="-0.43252">
        <ele>894.163574</ele>
        <time>2014-05-10T12:59:57Z</time>
      </trkpt>
      <trkpt lat="42.90956" lon="-0.43252">
        <ele>893.682861</ele>
        <time>2014-05-10T13:00:22Z</time>
      </trkpt>
      <trkpt lat="42.90955" lon="-0.43252">
        <ele>893.202148</ele>
        <time>2014-05-10T13:00:35Z</time>
      </trkpt>
      <trkpt lat="42.90955" lon="-0.43253">
        <ele>893.682861</ele>
        <time>2014-05-10T13:00:59Z</time>
      </trkpt>
      <trkpt lat="42.90955" lon="-0.43253">
        <ele>894.163574</ele>
        <time>2014-05-10T13:01:13Z</time>
      </trkpt>
      <trkpt lat="42.90954" lon="-0.43255">
        <ele>893.202148</ele>
        <time>2014-05-10T13:01:37Z</time>
      </trkpt>
      <trkpt lat="42.90956" lon="-0.43252">
        <ele>893.682861</ele>
        <time>2014-05-10T13:01:49Z</time>
      </trkpt>
      <trkpt lat="42.90952" lon="-0.43256">
        <ele>894.163574</ele>
        <time>2014-05-10T13:02:03Z</time>
      </trkpt>
      <trkpt lat="42.90951" lon="-0.43257">
        <ele>893.682861</ele>
        <time>2014-05-10T13:02:04Z</time>
      </trkpt>
      <trkpt lat="42.90947" lon="-0.43265">
        <ele>892.72168</ele>
        <time>2014-05-10T13:02:11Z</time>
      </trkpt>
      <trkpt lat="42.90947" lon="-0.43268">
        <ele>892.72168</ele>
        <time>2014-05-10T13:02:13Z</time>
      </trkpt>
      <trkpt lat="42.90946" lon="-0.43271">
        <ele>892.240967</ele>
        <time>2014-05-10T13:02:16Z</time>
      </trkpt>
      <trkpt lat="42.90946" lon="-0.43287">
        <ele>889.837402</ele>
        <time>2014-05-10T13:02:31Z</time>
      </trkpt>
      <trkpt lat="42.90945" lon="-0.43301">
        <ele>885.992188</ele>
        <time>2014-05-10T13:02:43Z</time>
      </trkpt>
      <trkpt lat="42.90944" lon="-0.43313">
        <ele>884.550293</ele>
        <time>2014-05-10T13:02:59Z</time>
      </trkpt>
      <trkpt lat="42.90947" lon="-0.4333">
        <ele>881.66626</ele>
        <time>2014-05-10T13:03:13Z</time>
      </trkpt>
      <trkpt lat="42.90952" lon="-0.43342">
        <ele>878.782471</ele>
        <time>2014-05-10T13:03:28Z</time>
      </trkpt>
      <trkpt lat="42.90956" lon="-0.43353">
        <ele>875.898193</ele>
        <time>2014-05-10T13:03:40Z</time>
      </trkpt>
      <trkpt lat="42.90963" lon="-0.43364">
        <ele>873.975586</ele>
        <time>2014-05-10T13:03:55Z</time>
      </trkpt>
      <trkpt lat="42.90965" lon="-0.4337">
        <ele>872.533691</ele>
        <time>2014-05-10T13:04:02Z</time>
      </trkpt>
      <trkpt lat="42.90968" lon="-0.43374">
        <ele>871.091797</ele>
        <time>2014-05-10T13:04:07Z</time>
      </trkpt>
      <trkpt lat="42.90972" lon="-0.43387">
        <ele>868.688477</ele>
        <time>2014-05-10T13:04:17Z</time>
      </trkpt>
      <trkpt lat="42.90974" lon="-0.43392">
        <ele>868.207764</ele>
        <time>2014-05-10T13:04:21Z</time>
      </trkpt>
      <trkpt lat="42.90974" lon="-0.43395">
        <ele>868.207764</ele>
        <time>2014-05-10T13:04:23Z</time>
      </trkpt>
      <trkpt lat="42.90976" lon="-0.43405">
        <ele>865.323975</ele>
        <time>2014-05-10T13:04:30Z</time>
      </trkpt>
      <trkpt lat="42.90977" lon="-0.43413">
        <ele>863.881836</ele>
        <time>2014-05-10T13:04:35Z</time>
      </trkpt>
      <trkpt lat="42.90983" lon="-0.43438">
        <ele>862.439941</ele>
        <time>2014-05-10T13:04:53Z</time>
      </trkpt>
      <trkpt lat="42.90994" lon="-0.43455">
        <ele>861.959473</ele>
        <time>2014-05-10T13:05:08Z</time>
      </trkpt>
      <trkpt lat="42.91005" lon="-0.43464">
        <ele>858.594482</ele>
        <time>2014-05-10T13:05:21Z</time>
      </trkpt>
      <trkpt lat="42.91015" lon="-0.43478">
        <ele>855.22998</ele>
        <time>2014-05-10T13:05:35Z</time>
      </trkpt>
      <trkpt lat="42.91016" lon="-0.4348">
        <ele>854.749268</ele>
        <time>2014-05-10T13:05:37Z</time>
      </trkpt>
      <trkpt lat="42.91025" lon="-0.43495">
        <ele>853.307373</ele>
        <time>2014-05-10T13:05:53Z</time>
      </trkpt>
      <trkpt lat="42.91033" lon="-0.43509">
        <ele>850.904053</ele>
        <time>2014-05-10T13:06:11Z</time>
      </trkpt>
      <trkpt lat="42.91036" lon="-0.43512">
        <ele>848.981445</ele>
        <time>2014-05-10T13:06:16Z</time>
      </trkpt>
      <trkpt lat="42.91038" lon="-0.43513">
        <ele>848.500732</ele>
        <time>2014-05-10T13:06:18Z</time>
      </trkpt>
      <trkpt lat="42.91048" lon="-0.43522">
        <ele>847.058838</ele>
        <time>2014-05-10T13:06:31Z</time>
      </trkpt>
      <trkpt lat="42.91054" lon="-0.43527">
        <ele>845.616943</ele>
        <time>2014-05-10T13:06:38Z</time>
      </trkpt>
      <trkpt lat="42.91068" lon="-0.43544">
        <ele>843.213379</ele>
        <time>2014-05-10T13:06:56Z</time>
      </trkpt>
      <trkpt lat="42.9107" lon="-0.4354">
        <ele>843.694092</ele>
        <time>2014-05-10T13:07:07Z</time>
      </trkpt>
      <trkpt lat="42.9107" lon="-0.43539">
        <ele>843.694092</ele>
        <time>2014-05-10T13:07:08Z</time>
      </trkpt>
      <trkpt lat="42.91071" lon="-0.43527">
        <ele>844.655518</ele>
        <time>2014-05-10T13:07:23Z</time>
      </trkpt>
      <trkpt lat="42.91075" lon="-0.43526">
        <ele>844.175049</ele>
        <time>2014-05-10T13:07:46Z</time>
      </trkpt>
      <trkpt lat="42.91075" lon="-0.43524">
        <ele>844.175049</ele>
        <time>2014-05-10T13:08:04Z</time>
      </trkpt>
      <trkpt lat="42.91074" lon="-0.4352">
        <ele>844.175049</ele>
        <time>2014-05-10T13:08:30Z</time>
      </trkpt>
      <trkpt lat="42.91075" lon="-0.43521">
        <ele>844.655518</ele>
        <time>2014-05-10T13:08:51Z</time>
      </trkpt>
      <trkpt lat="42.91075" lon="-0.43521">
        <ele>844.655518</ele>
        <time>2014-05-10T13:09:22Z</time>
      </trkpt>
      <trkpt lat="42.91073" lon="-0.43519">
        <ele>843.694092</ele>
        <time>2014-05-10T13:10:09Z</time>
      </trkpt>
      <trkpt lat="42.91071" lon="-0.43519">
        <ele>844.175049</ele>
        <time>2014-05-10T13:10:40Z</time>
      </trkpt>
      <trkpt lat="42.91072" lon="-0.43522">
        <ele>844.175049</ele>
        <time>2014-05-10T13:10:45Z</time>
      </trkpt>
      <trkpt lat="42.91069" lon="-0.43529">
        <ele>842.73291</ele>
        <time>2014-05-10T13:10:50Z</time>
      </trkpt>
      <trkpt lat="42.91072" lon="-0.4355">
        <ele>840.32959</ele>
        <time>2014-05-10T13:11:05Z</time>
      </trkpt>
      <trkpt lat="42.9109" lon="-0.43567">
        <ele>839.368164</ele>
        <time>2014-05-10T13:11:24Z</time>
      </trkpt>
      <trkpt lat="42.91101" lon="-0.43575">
        <ele>837.445557</ele>
        <time>2014-05-10T13:11:34Z</time>
      </trkpt>
      <trkpt lat="42.91113" lon="-0.43582">
        <ele>836.484375</ele>
        <time>2014-05-10T13:11:45Z</time>
      </trkpt>
      <trkpt lat="42.91131" lon="-0.43589">
        <ele>834.561768</ele>
        <time>2014-05-10T13:12:01Z</time>
      </trkpt>
      <trkpt lat="42.9115" lon="-0.43595">
        <ele>833.119629</ele>
        <time>2014-05-10T13:12:18Z</time>
      </trkpt>
      <trkpt lat="42.91146" lon="-0.43606">
        <ele>833.119629</ele>
        <time>2014-05-10T13:12:41Z</time>
      </trkpt>
      <trkpt lat="42.9116" lon="-0.43607">
        <ele>834.081055</ele>
        <time>2014-05-10T13:14:35Z</time>
      </trkpt>
      <trkpt lat="42.91164" lon="-0.436">
        <ele>836.964844</ele>
        <time>2014-05-10T13:16:49Z</time>
      </trkpt>
      <trkpt lat="42.9117" lon="-0.43591">
        <ele>838.887695</ele>
        <time>2014-05-10T13:17:00Z</time>
      </trkpt>
      <trkpt lat="42.91172" lon="-0.43585">
        <ele>840.810059</ele>
        <time>2014-05-10T13:17:04Z</time>
      </trkpt>
      <trkpt lat="42.91173" lon="-0.4357">
        <ele>842.252197</ele>
        <time>2014-05-10T13:17:16Z</time>
      </trkpt>
      <trkpt lat="42.91172" lon="-0.43566">
        <ele>842.252197</ele>
        <time>2014-05-10T13:17:19Z</time>
      </trkpt>
      <trkpt lat="42.91172" lon="-0.43562">
        <ele>842.73291</ele>
        <time>2014-05-10T13:17:22Z</time>
      </trkpt>
      <trkpt lat="42.91175" lon="-0.43559">
        <ele>842.252197</ele>
        <time>2014-05-10T13:17:25Z</time>
      </trkpt>
      <trkpt lat="42.91186" lon="-0.43539">
        <ele>844.175049</ele>
        <time>2014-05-10T13:17:41Z</time>
      </trkpt>
      <trkpt lat="42.91193" lon="-0.43531">
        <ele>845.616943</ele>
        <time>2014-05-10T13:17:48Z</time>
      </trkpt>
      <trkpt lat="42.91207" lon="-0.43506">
        <ele>846.097656</ele>
        <time>2014-05-10T13:18:07Z</time>
      </trkpt>
      <trkpt lat="42.91207" lon="-0.43505">
        <ele>846.097656</ele>
        <time>2014-05-10T13:18:08Z</time>
      </trkpt>
      <trkpt lat="42.91209" lon="-0.43493">
        <ele>847.539551</ele>
        <time>2014-05-10T13:18:16Z</time>
      </trkpt>
      <trkpt lat="42.91211" lon="-0.43464">
        <ele>848.020264</ele>
        <time>2014-05-10T13:18:34Z</time>
      </trkpt>
      <trkpt lat="42.91224" lon="-0.43442">
        <ele>848.981445</ele>
        <time>2014-05-10T13:18:52Z</time>
      </trkpt>
      <trkpt lat="42.91236" lon="-0.43431">
        <ele>850.904053</ele>
        <time>2014-05-10T13:19:07Z</time>
      </trkpt>
      <trkpt lat="42.91249" lon="-0.43429">
        <ele>853.307373</ele>
        <time>2014-05-10T13:19:21Z</time>
      </trkpt>
      <trkpt lat="42.91256" lon="-0.43432">
        <ele>855.710693</ele>
        <time>2014-05-10T13:19:34Z</time>
      </trkpt>
      <trkpt lat="42.91248" lon="-0.43428">
        <ele>853.788086</ele>
        <time>2014-05-10T13:19:52Z</time>
      </trkpt>
      <trkpt lat="42.91252" lon="-0.43435">
        <ele>854.749268</ele>
        <time>2014-05-10T13:21:09Z</time>
      </trkpt>
      <trkpt lat="42.91254" lon="-0.43435">
        <ele>854.749268</ele>
        <time>2014-05-10T13:21:15Z</time>
      </trkpt>
      <trkpt lat="42.9126" lon="-0.43429">
        <ele>855.22998</ele>
        <time>2014-05-10T13:21:30Z</time>
      </trkpt>
      <trkpt lat="42.91257" lon="-0.43431">
        <ele>855.22998</ele>
        <time>2014-05-10T13:22:58Z</time>
      </trkpt>
      <trkpt lat="42.91266" lon="-0.43439">
        <ele>854.268799</ele>
        <time>2014-05-10T13:23:13Z</time>
      </trkpt>
      <trkpt lat="42.91272" lon="-0.43442">
        <ele>852.82666</ele>
        <time>2014-05-10T13:23:21Z</time>
      </trkpt>
      <trkpt lat="42.91282" lon="-0.43448">
        <ele>853.788086</ele>
        <time>2014-05-10T13:23:32Z</time>
      </trkpt>
      <trkpt lat="42.91291" lon="-0.43453">
        <ele>853.307373</ele>
        <time>2014-05-10T13:23:42Z</time>
      </trkpt>
      <trkpt lat="42.913" lon="-0.43458">
        <ele>853.307373</ele>
        <time>2014-05-10T13:23:51Z</time>
      </trkpt>
      <trkpt lat="42.91312" lon="-0.43465">
        <ele>854.268799</ele>
        <time>2014-05-10T13:24:03Z</time>
      </trkpt>
      <trkpt lat="42.91321" lon="-0.43472">
        <ele>854.749268</ele>
        <time>2014-05-10T13:24:12Z</time>
      </trkpt>
      <trkpt lat="42.91338" lon="-0.43481">
        <ele>853.307373</ele>
        <time>2014-05-10T13:24:29Z</time>
      </trkpt>
      <trkpt lat="42.91346" lon="-0.43482">
        <ele>854.749268</ele>
        <time>2014-05-10T13:24:38Z</time>
      </trkpt>
      <trkpt lat="42.91353" lon="-0.43484">
        <ele>855.710693</ele>
        <time>2014-05-10T13:24:49Z</time>
      </trkpt>
      <trkpt lat="42.91362" lon="-0.43486">
        <ele>854.268799</ele>
        <time>2014-05-10T13:24:58Z</time>
      </trkpt>
      <trkpt lat="42.91381" lon="-0.43498">
        <ele>854.268799</ele>
        <time>2014-05-10T13:25:14Z</time>
      </trkpt>
      <trkpt lat="42.91384" lon="-0.43501">
        <ele>852.82666</ele>
        <time>2014-05-10T13:25:18Z</time>
      </trkpt>
      <trkpt lat="42.91386" lon="-0.43504">
        <ele>852.82666</ele>
        <time>2014-05-10T13:25:20Z</time>
      </trkpt>
      <trkpt lat="42.91399" lon="-0.43516">
        <ele>850.904053</ele>
        <time>2014-05-10T13:25:33Z</time>
      </trkpt>
      <trkpt lat="42.91413" lon="-0.43526">
        <ele>851.384766</ele>
        <time>2014-05-10T13:25:47Z</time>
      </trkpt>
      <trkpt lat="42.91427" lon="-0.43532">
        <ele>851.384766</ele>
        <time>2014-05-10T13:26:00Z</time>
      </trkpt>
      <trkpt lat="42.91438" lon="-0.4354">
        <ele>851.384766</ele>
        <time>2014-05-10T13:26:11Z</time>
      </trkpt>
      <trkpt lat="42.91446" lon="-0.43547">
        <ele>848.981445</ele>
        <time>2014-05-10T13:26:21Z</time>
      </trkpt>
      <trkpt lat="42.91452" lon="-0.43554">
        <ele>848.500732</ele>
        <time>2014-05-10T13:26:30Z</time>
      </trkpt>
      <trkpt lat="42.91454" lon="-0.43553">
        <ele>848.020264</ele>
        <time>2014-05-10T13:26:55Z</time>
      </trkpt>
      <trkpt lat="42.91457" lon="-0.43564">
        <ele>845.616943</ele>
        <time>2014-05-10T13:29:22Z</time>
      </trkpt>
      <trkpt lat="42.91465" lon="-0.43574">
        <ele>845.616943</ele>
        <time>2014-05-10T13:29:33Z</time>
      </trkpt>
      <trkpt lat="42.91479" lon="-0.43584">
        <ele>844.175049</ele>
        <time>2014-05-10T13:29:48Z</time>
      </trkpt>
      <trkpt lat="42.91489" lon="-0.43591">
        <ele>842.73291</ele>
        <time>2014-05-10T13:29:59Z</time>
      </trkpt>
      <trkpt lat="42.91505" lon="-0.436">
        <ele>842.73291</ele>
        <time>2014-05-10T13:30:14Z</time>
      </trkpt>
      <trkpt lat="42.91522" lon="-0.43607">
        <ele>842.73291</ele>
        <time>2014-05-10T13:30:29Z</time>
      </trkpt>
      <trkpt lat="42.91525" lon="-0.43608">
        <ele>842.73291</ele>
        <time>2014-05-10T13:30:32Z</time>
      </trkpt>
      <trkpt lat="42.91544" lon="-0.43612">
        <ele>842.73291</ele>
        <time>2014-05-10T13:30:48Z</time>
      </trkpt>
      <trkpt lat="42.91557" lon="-0.43619">
        <ele>841.771484</ele>
        <time>2014-05-10T13:31:01Z</time>
      </trkpt>
      <trkpt lat="42.9157" lon="-0.4363">
        <ele>842.73291</ele>
        <time>2014-05-10T13:31:18Z</time>
      </trkpt>
      <trkpt lat="42.91574" lon="-0.43631">
        <ele>842.252197</ele>
        <time>2014-05-10T13:31:37Z</time>
      </trkpt>
      <trkpt lat="42.91584" lon="-0.4364">
        <ele>841.771484</ele>
        <time>2014-05-10T13:31:56Z</time>
      </trkpt>
      <trkpt lat="42.91593" lon="-0.43645">
        <ele>840.810059</ele>
        <time>2014-05-10T13:32:07Z</time>
      </trkpt>
      <trkpt lat="42.91595" lon="-0.43647">
        <ele>839.848877</ele>
        <time>2014-05-10T13:32:09Z</time>
      </trkpt>
      <trkpt lat="42.91602" lon="-0.43656">
        <ele>838.887695</ele>
        <time>2014-05-10T13:32:18Z</time>
      </trkpt>
      <trkpt lat="42.9161" lon="-0.43666">
        <ele>837.445557</ele>
        <time>2014-05-10T13:32:28Z</time>
      </trkpt>
      <trkpt lat="42.9162" lon="-0.43678">
        <ele>836.003662</ele>
        <time>2014-05-10T13:32:39Z</time>
      </trkpt>
      <trkpt lat="42.91628" lon="-0.43687">
        <ele>834.561768</ele>
        <time>2014-05-10T13:32:48Z</time>
      </trkpt>
      <trkpt lat="42.91638" lon="-0.43695">
        <ele>834.081055</ele>
        <time>2014-05-10T13:32:57Z</time>
      </trkpt>
      <trkpt lat="42.91648" lon="-0.43707">
        <ele>832.158447</ele>
        <time>2014-05-10T13:33:07Z</time>
      </trkpt>
      <trkpt lat="42.91658" lon="-0.43711">
        <ele>829.274414</ele>
        <time>2014-05-10T13:33:17Z</time>
      </trkpt>
      <trkpt lat="42.91659" lon="-0.43712">
        <ele>829.274414</ele>
        <time>2014-05-10T13:33:18Z</time>
      </trkpt>
      <trkpt lat="42.91659" lon="-0.43714">
        <ele>829.274414</ele>
        <time>2014-05-10T13:33:19Z</time>
      </trkpt>
      <trkpt lat="42.91666" lon="-0.43726">
        <ele>828.313232</ele>
        <time>2014-05-10T13:33:29Z</time>
      </trkpt>
      <trkpt lat="42.91667" lon="-0.43727">
        <ele>827.832275</ele>
        <time>2014-05-10T13:33:30Z</time>
      </trkpt>
      <trkpt lat="42.91678" lon="-0.43736">
        <ele>827.832275</ele>
        <time>2014-05-10T13:33:40Z</time>
      </trkpt>
      <trkpt lat="42.9169" lon="-0.43751">
        <ele>828.313232</ele>
        <time>2014-05-10T13:33:53Z</time>
      </trkpt>
      <trkpt lat="42.9169" lon="-0.43757">
        <ele>828.313232</ele>
        <time>2014-05-10T13:34:04Z</time>
      </trkpt>
      <trkpt lat="42.91692" lon="-0.43756">
        <ele>828.313232</ele>
        <time>2014-05-10T13:34:40Z</time>
      </trkpt>
      <trkpt lat="42.917" lon="-0.43758">
        <ele>827.351807</ele>
        <time>2014-05-10T13:34:56Z</time>
      </trkpt>
      <trkpt lat="42.91708" lon="-0.43762">
        <ele>827.351807</ele>
        <time>2014-05-10T13:35:05Z</time>
      </trkpt>
      <trkpt lat="42.91716" lon="-0.4376">
        <ele>827.351807</ele>
        <time>2014-05-10T13:35:14Z</time>
      </trkpt>
      <trkpt lat="42.91726" lon="-0.43774">
        <ele>828.313232</ele>
        <time>2014-05-10T13:36:52Z</time>
      </trkpt>
      <trkpt lat="42.91727" lon="-0.4378">
        <ele>824.467773</ele>
        <time>2014-05-10T13:36:57Z</time>
      </trkpt>
      <trkpt lat="42.91728" lon="-0.43783">
        <ele>823.987061</ele>
        <time>2014-05-10T13:36:59Z</time>
      </trkpt>
      <trkpt lat="42.91734" lon="-0.43788">
        <ele>823.025879</ele>
        <time>2014-05-10T13:37:05Z</time>
      </trkpt>
      <trkpt lat="42.91743" lon="-0.438">
        <ele>822.064453</ele>
        <time>2014-05-10T13:37:14Z</time>
      </trkpt>
      <trkpt lat="42.91748" lon="-0.43807">
        <ele>820.141846</ele>
        <time>2014-05-10T13:37:18Z</time>
      </trkpt>
      <trkpt lat="42.91757" lon="-0.43818">
        <ele>821.103271</ele>
        <time>2014-05-10T13:37:28Z</time>
      </trkpt>
      <trkpt lat="42.9176" lon="-0.43826">
        <ele>821.58374</ele>
        <time>2014-05-10T13:37:33Z</time>
      </trkpt>
      <trkpt lat="42.91764" lon="-0.43834">
        <ele>821.103271</ele>
        <time>2014-05-10T13:37:42Z</time>
      </trkpt>
      <trkpt lat="42.91765" lon="-0.43837">
        <ele>819.661377</ele>
        <time>2014-05-10T13:37:47Z</time>
      </trkpt>
      <trkpt lat="42.91773" lon="-0.43843">
        <ele>817.738525</ele>
        <time>2014-05-10T13:38:05Z</time>
      </trkpt>
      <trkpt lat="42.91774" lon="-0.43856">
        <ele>814.374023</ele>
        <time>2014-05-10T13:38:22Z</time>
      </trkpt>
      <trkpt lat="42.91777" lon="-0.43866">
        <ele>811.009277</ele>
        <time>2014-05-10T13:38:36Z</time>
      </trkpt>
      <trkpt lat="42.91775" lon="-0.43882">
        <ele>810.528564</ele>
        <time>2014-05-10T13:38:48Z</time>
      </trkpt>
      <trkpt lat="42.9178" lon="-0.43906">
        <ele>810.047852</ele>
        <time>2014-05-10T13:39:09Z</time>
      </trkpt>
      <trkpt lat="42.91781" lon="-0.43913">
        <ele>809.567383</ele>
        <time>2014-05-10T13:39:12Z</time>
      </trkpt>
      <trkpt lat="42.91784" lon="-0.4393">
        <ele>809.08667</ele>
        <time>2014-05-10T13:39:22Z</time>
      </trkpt>
      <trkpt lat="42.9179" lon="-0.43945">
        <ele>809.567383</ele>
        <time>2014-05-10T13:39:37Z</time>
      </trkpt>
      <trkpt lat="42.91795" lon="-0.43954">
        <ele>809.08667</ele>
        <time>2014-05-10T13:39:48Z</time>
      </trkpt>
      <trkpt lat="42.918" lon="-0.43967">
        <ele>809.08667</ele>
        <time>2014-05-10T13:40:02Z</time>
      </trkpt>
      <trkpt lat="42.91806" lon="-0.43983">
        <ele>809.08667</ele>
        <time>2014-05-10T13:40:16Z</time>
      </trkpt>
      <trkpt lat="42.91807" lon="-0.43991">
        <ele>808.605957</ele>
        <time>2014-05-10T13:40:21Z</time>
      </trkpt>
      <trkpt lat="42.91811" lon="-0.44009">
        <ele>808.125488</ele>
        <time>2014-05-10T13:40:31Z</time>
      </trkpt>
      <trkpt lat="42.91813" lon="-0.44017">
        <ele>808.125488</ele>
        <time>2014-05-10T13:40:37Z</time>
      </trkpt>
      <trkpt lat="42.91818" lon="-0.44031">
        <ele>808.125488</ele>
        <time>2014-05-10T13:40:48Z</time>
      </trkpt>
      <trkpt lat="42.91828" lon="-0.44043">
        <ele>808.605957</ele>
        <time>2014-05-10T13:40:59Z</time>
      </trkpt>
      <trkpt lat="42.91834" lon="-0.44058">
        <ele>809.08667</ele>
        <time>2014-05-10T13:41:11Z</time>
      </trkpt>
      <trkpt lat="42.91844" lon="-0.44067">
        <ele>808.125488</ele>
        <time>2014-05-10T13:41:23Z</time>
      </trkpt>
      <trkpt lat="42.91848" lon="-0.44078">
        <ele>809.08667</ele>
        <time>2014-05-10T13:41:37Z</time>
      </trkpt>
      <trkpt lat="42.91847" lon="-0.44083">
        <ele>807.644775</ele>
        <time>2014-05-10T13:41:51Z</time>
      </trkpt>
      <trkpt lat="42.91854" lon="-0.44091">
        <ele>805.722168</ele>
        <time>2014-05-10T13:42:09Z</time>
      </trkpt>
      <trkpt lat="42.91859" lon="-0.44105">
        <ele>806.202637</ele>
        <time>2014-05-10T13:42:23Z</time>
      </trkpt>
      <trkpt lat="42.91866" lon="-0.44114">
        <ele>805.722168</ele>
        <time>2014-05-10T13:42:36Z</time>
      </trkpt>
      <trkpt lat="42.91875" lon="-0.44124">
        <ele>805.241455</ele>
        <time>2014-05-10T13:42:50Z</time>
      </trkpt>
      <trkpt lat="42.9188" lon="-0.44142">
        <ele>804.760742</ele>
        <time>2014-05-10T13:43:03Z</time>
      </trkpt>
      <trkpt lat="42.91885" lon="-0.4415">
        <ele>806.202637</ele>
        <time>2014-05-10T13:43:12Z</time>
      </trkpt>
      <trkpt lat="42.91885" lon="-0.44155">
        <ele>805.241455</ele>
        <time>2014-05-10T13:43:46Z</time>
      </trkpt>
      <trkpt lat="42.91875" lon="-0.44158">
        <ele>808.605957</ele>
        <time>2014-05-10T13:45:22Z</time>
      </trkpt>
      <trkpt lat="42.91884" lon="-0.44172">
        <ele>808.125488</ele>
        <time>2014-05-10T13:45:55Z</time>
      </trkpt>
      <trkpt lat="42.91889" lon="-0.44178">
        <ele>808.125488</ele>
        <time>2014-05-10T13:46:01Z</time>
      </trkpt>
      <trkpt lat="42.919" lon="-0.44189">
        <ele>807.164063</ele>
        <time>2014-05-10T13:46:11Z</time>
      </trkpt>
      <trkpt lat="42.91908" lon="-0.44189">
        <ele>806.202637</ele>
        <time>2014-05-10T13:46:21Z</time>
      </trkpt>
      <trkpt lat="42.91919" lon="-0.44193">
        <ele>806.68335</ele>
        <time>2014-05-10T13:47:05Z</time>
      </trkpt>
      <trkpt lat="42.91923" lon="-0.4419">
        <ele>806.202637</ele>
        <time>2014-05-10T13:47:18Z</time>
      </trkpt>
      <trkpt lat="42.91958" lon="-0.44208">
        <ele>805.722168</ele>
        <time>2014-05-10T13:48:14Z</time>
      </trkpt>
      <trkpt lat="42.91968" lon="-0.44213">
        <ele>804.760742</ele>
        <time>2014-05-10T13:48:25Z</time>
      </trkpt>
      <trkpt lat="42.91968" lon="-0.44214">
        <ele>804.760742</ele>
        <time>2014-05-10T13:48:26Z</time>
      </trkpt>
      <trkpt lat="42.9198" lon="-0.44219">
        <ele>804.760742</ele>
        <time>2014-05-10T13:48:40Z</time>
      </trkpt>
      <trkpt lat="42.9199" lon="-0.44221">
        <ele>807.164063</ele>
        <time>2014-05-10T13:48:56Z</time>
      </trkpt>
      <trkpt lat="42.91998" lon="-0.44223">
        <ele>805.241455</ele>
        <time>2014-05-10T13:49:11Z</time>
      </trkpt>
      <trkpt lat="42.92036" lon="-0.44253">
        <ele>807.164063</ele>
        <time>2014-05-10T13:50:09Z</time>
      </trkpt>
      <trkpt lat="42.92044" lon="-0.44265">
        <ele>806.202637</ele>
        <time>2014-05-10T13:50:19Z</time>
      </trkpt>
      <trkpt lat="42.92045" lon="-0.44266">
        <ele>806.68335</ele>
        <time>2014-05-10T13:50:20Z</time>
      </trkpt>
      <trkpt lat="42.9205" lon="-0.44276">
        <ele>805.241455</ele>
        <time>2014-05-10T13:50:40Z</time>
      </trkpt>
      <trkpt lat="42.92048" lon="-0.44282">
        <ele>801.876953</ele>
        <time>2014-05-10T13:52:37Z</time>
      </trkpt>
      <trkpt lat="42.92041" lon="-0.44287">
        <ele>800.435059</ele>
        <time>2014-05-10T13:52:45Z</time>
      </trkpt>
      <trkpt lat="42.92049" lon="-0.44305">
        <ele>800.915527</ele>
        <time>2014-05-10T13:53:03Z</time>
      </trkpt>
      <trkpt lat="42.92055" lon="-0.44304">
        <ele>801.876953</ele>
        <time>2014-05-10T13:53:07Z</time>
      </trkpt>
      <trkpt lat="42.92062" lon="-0.44305">
        <ele>799.954346</ele>
        <time>2014-05-10T13:53:13Z</time>
      </trkpt>
      <trkpt lat="42.92065" lon="-0.4431">
        <ele>800.435059</ele>
        <time>2014-05-10T13:53:17Z</time>
      </trkpt>
      <trkpt lat="42.92061" lon="-0.44322">
        <ele>800.435059</ele>
        <time>2014-05-10T13:53:26Z</time>
      </trkpt>
      <trkpt lat="42.92065" lon="-0.44326">
        <ele>800.915527</ele>
        <time>2014-05-10T13:53:30Z</time>
      </trkpt>
      <trkpt lat="42.92075" lon="-0.44334">
        <ele>800.915527</ele>
        <time>2014-05-10T13:53:41Z</time>
      </trkpt>
      <trkpt lat="42.92081" lon="-0.44337">
        <ele>800.915527</ele>
        <time>2014-05-10T13:53:46Z</time>
      </trkpt>
      <trkpt lat="42.92086" lon="-0.44345">
        <ele>800.435059</ele>
        <time>2014-05-10T13:53:51Z</time>
      </trkpt>
      <trkpt lat="42.92091" lon="-0.44348">
        <ele>799.473633</ele>
        <time>2014-05-10T13:53:54Z</time>
      </trkpt>
      <trkpt lat="42.92096" lon="-0.44355">
        <ele>799.473633</ele>
        <time>2014-05-10T13:53:58Z</time>
      </trkpt>
      <trkpt lat="42.92103" lon="-0.44362">
        <ele>799.473633</ele>
        <time>2014-05-10T13:54:09Z</time>
      </trkpt>
      <trkpt lat="42.92115" lon="-0.44349">
        <ele>799.473633</ele>
        <time>2014-05-10T13:54:48Z</time>
      </trkpt>
      <trkpt lat="42.92111" lon="-0.44386">
        <ele>799.473633</ele>
        <time>2014-05-10T13:55:39Z</time>
      </trkpt>
      <trkpt lat="42.92122" lon="-0.44394">
        <ele>799.473633</ele>
        <time>2014-05-10T13:55:53Z</time>
      </trkpt>
      <trkpt lat="42.92137" lon="-0.44401">
        <ele>798.99292</ele>
        <time>2014-05-10T13:56:06Z</time>
      </trkpt>
      <trkpt lat="42.92139" lon="-0.44403">
        <ele>799.954346</ele>
        <time>2014-05-10T13:56:08Z</time>
      </trkpt>
      <trkpt lat="42.92149" lon="-0.44414">
        <ele>798.512207</ele>
        <time>2014-05-10T13:56:18Z</time>
      </trkpt>
      <trkpt lat="42.92155" lon="-0.44421">
        <ele>798.512207</ele>
        <time>2014-05-10T13:56:26Z</time>
      </trkpt>
      <trkpt lat="42.92167" lon="-0.44428">
        <ele>797.551025</ele>
        <time>2014-05-10T13:56:38Z</time>
      </trkpt>
      <trkpt lat="42.9217" lon="-0.44428">
        <ele>797.070313</ele>
        <time>2014-05-10T13:56:41Z</time>
      </trkpt>
      <trkpt lat="42.9218" lon="-0.44428">
        <ele>797.551025</ele>
        <time>2014-05-10T13:56:48Z</time>
      </trkpt>
      <trkpt lat="42.92186" lon="-0.44441">
        <ele>796.109131</ele>
        <time>2014-05-10T13:56:58Z</time>
      </trkpt>
      <trkpt lat="42.92194" lon="-0.44446">
        <ele>796.589844</ele>
        <time>2014-05-10T13:57:08Z</time>
      </trkpt>
      <trkpt lat="42.92206" lon="-0.44451">
        <ele>795.628174</ele>
        <time>2014-05-10T13:57:20Z</time>
      </trkpt>
      <trkpt lat="42.92218" lon="-0.4446">
        <ele>794.666748</ele>
        <time>2014-05-10T13:57:32Z</time>
      </trkpt>
      <trkpt lat="42.9223" lon="-0.44467">
        <ele>794.186279</ele>
        <time>2014-05-10T13:57:42Z</time>
      </trkpt>
      <trkpt lat="42.92239" lon="-0.44475">
        <ele>794.186279</ele>
        <time>2014-05-10T13:57:51Z</time>
      </trkpt>
      <trkpt lat="42.92248" lon="-0.44473">
        <ele>795.628174</ele>
        <time>2014-05-10T13:57:59Z</time>
      </trkpt>
      <trkpt lat="42.92261" lon="-0.44478">
        <ele>795.147461</ele>
        <time>2014-05-10T13:58:13Z</time>
      </trkpt>
      <trkpt lat="42.92276" lon="-0.44484">
        <ele>795.628174</ele>
        <time>2014-05-10T13:58:30Z</time>
      </trkpt>
      <trkpt lat="42.92277" lon="-0.44484">
        <ele>795.628174</ele>
        <time>2014-05-10T13:58:31Z</time>
      </trkpt>
      <trkpt lat="42.92288" lon="-0.44483">
        <ele>796.589844</ele>
        <time>2014-05-10T13:58:41Z</time>
      </trkpt>
      <trkpt lat="42.92297" lon="-0.44486">
        <ele>798.031738</ele>
        <time>2014-05-10T13:58:53Z</time>
      </trkpt>
      <trkpt lat="42.92302" lon="-0.44489">
        <ele>798.031738</ele>
        <time>2014-05-10T13:59:11Z</time>
      </trkpt>
      <trkpt lat="42.92303" lon="-0.44489">
        <ele>797.551025</ele>
        <time>2014-05-10T14:00:20Z</time>
      </trkpt>
      <trkpt lat="42.92301" lon="-0.44497">
        <ele>796.109131</ele>
        <time>2014-05-10T14:00:57Z</time>
      </trkpt>
      <trkpt lat="42.92307" lon="-0.44496">
        <ele>795.628174</ele>
        <time>2014-05-10T14:01:25Z</time>
      </trkpt>
      <trkpt lat="42.92305" lon="-0.44493">
        <ele>794.186279</ele>
        <time>2014-05-10T14:02:04Z</time>
      </trkpt>
      <trkpt lat="42.92308" lon="-0.44497">
        <ele>793.705566</ele>
        <time>2014-05-10T14:02:10Z</time>
      </trkpt>
      <trkpt lat="42.92314" lon="-0.44506">
        <ele>792.744385</ele>
        <time>2014-05-10T14:02:22Z</time>
      </trkpt>
      <trkpt lat="42.92321" lon="-0.44513">
        <ele>791.302246</ele>
        <time>2014-05-10T14:02:33Z</time>
      </trkpt>
      <trkpt lat="42.92334" lon="-0.44518">
        <ele>790.821533</ele>
        <time>2014-05-10T14:02:47Z</time>
      </trkpt>
      <trkpt lat="42.92339" lon="-0.44527">
        <ele>789.379639</ele>
        <time>2014-05-10T14:02:58Z</time>
      </trkpt>
      <trkpt lat="42.92349" lon="-0.44533">
        <ele>789.379639</ele>
        <time>2014-05-10T14:03:07Z</time>
      </trkpt>
      <trkpt lat="42.92355" lon="-0.44531">
        <ele>790.821533</ele>
        <time>2014-05-10T14:03:18Z</time>
      </trkpt>
      <trkpt lat="42.92363" lon="-0.44528">
        <ele>792.744385</ele>
        <time>2014-05-10T14:03:30Z</time>
      </trkpt>
      <trkpt lat="42.9237" lon="-0.44533">
        <ele>793.224854</ele>
        <time>2014-05-10T14:03:42Z</time>
      </trkpt>
      <trkpt lat="42.92373" lon="-0.44539">
        <ele>792.744385</ele>
        <time>2014-05-10T14:03:48Z</time>
      </trkpt>
      <trkpt lat="42.92388" lon="-0.44545">
        <ele>790.821533</ele>
        <time>2014-05-10T14:04:01Z</time>
      </trkpt>
      <trkpt lat="42.92403" lon="-0.44548">
        <ele>790.341064</ele>
        <time>2014-05-10T14:04:16Z</time>
      </trkpt>
      <trkpt lat="42.9241" lon="-0.44552">
        <ele>788.89917</ele>
        <time>2014-05-10T14:04:25Z</time>
      </trkpt>
      <trkpt lat="42.92414" lon="-0.44554">
        <ele>788.418457</ele>
        <time>2014-05-10T14:04:28Z</time>
      </trkpt>
      <trkpt lat="42.92426" lon="-0.44546">
        <ele>788.89917</ele>
        <time>2014-05-10T14:04:39Z</time>
      </trkpt>
      <trkpt lat="42.92438" lon="-0.44551">
        <ele>788.89917</ele>
        <time>2014-05-10T14:04:50Z</time>
      </trkpt>
      <trkpt lat="42.9244" lon="-0.44553">
        <ele>788.418457</ele>
        <time>2014-05-10T14:04:52Z</time>
      </trkpt>
      <trkpt lat="42.92445" lon="-0.44555">
        <ele>788.418457</ele>
        <time>2014-05-10T14:04:55Z</time>
      </trkpt>
      <trkpt lat="42.92454" lon="-0.44558">
        <ele>787.457031</ele>
        <time>2014-05-10T14:05:04Z</time>
      </trkpt>
      <trkpt lat="42.92458" lon="-0.44561">
        <ele>786.976318</ele>
        <time>2014-05-10T14:05:07Z</time>
      </trkpt>
      <trkpt lat="42.92466" lon="-0.4457">
        <ele>783.611816</ele>
        <time>2014-05-10T14:05:20Z</time>
      </trkpt>
      <trkpt lat="42.92467" lon="-0.44576">
        <ele>783.611816</ele>
        <time>2014-05-10T14:05:24Z</time>
      </trkpt>
      <trkpt lat="42.9247" lon="-0.44591">
        <ele>782.169922</ele>
        <time>2014-05-10T14:05:35Z</time>
      </trkpt>
      <trkpt lat="42.92471" lon="-0.44588">
        <ele>783.131104</ele>
        <time>2014-05-10T14:05:46Z</time>
      </trkpt>
      <trkpt lat="42.92474" lon="-0.44579">
        <ele>784.092529</ele>
        <time>2014-05-10T14:05:59Z</time>
      </trkpt>
      <trkpt lat="42.92474" lon="-0.44582">
        <ele>783.611816</ele>
        <time>2014-05-10T14:06:12Z</time>
      </trkpt>
      <trkpt lat="42.9247" lon="-0.44578">
        <ele>784.092529</ele>
        <time>2014-05-10T14:06:39Z</time>
      </trkpt>
      <trkpt lat="42.92472" lon="-0.44578">
        <ele>783.611816</ele>
        <time>2014-05-10T14:07:01Z</time>
      </trkpt>
      <trkpt lat="42.92466" lon="-0.44579">
        <ele>784.092529</ele>
        <time>2014-05-10T14:07:42Z</time>
      </trkpt>
      <trkpt lat="42.92473" lon="-0.44576">
        <ele>784.573242</ele>
        <time>2014-05-10T14:08:39Z</time>
      </trkpt>
      <trkpt lat="42.92476" lon="-0.44585">
        <ele>784.092529</ele>
        <time>2014-05-10T14:09:00Z</time>
      </trkpt>
      <trkpt lat="42.92475" lon="-0.44585">
        <ele>784.092529</ele>
        <time>2014-05-10T14:09:35Z</time>
      </trkpt>
      <trkpt lat="42.92475" lon="-0.44588">
        <ele>784.092529</ele>
        <time>2014-05-10T14:09:37Z</time>
      </trkpt>
      <trkpt lat="42.92478" lon="-0.44595">
        <ele>784.092529</ele>
        <time>2014-05-10T14:09:47Z</time>
      </trkpt>
      <trkpt lat="42.92481" lon="-0.44595">
        <ele>784.092529</ele>
        <time>2014-05-10T14:09:52Z</time>
      </trkpt>
      <trkpt lat="42.92483" lon="-0.44597">
        <ele>784.092529</ele>
        <time>2014-05-10T14:09:54Z</time>
      </trkpt>
      <trkpt lat="42.92491" lon="-0.446">
        <ele>784.092529</ele>
        <time>2014-05-10T14:10:00Z</time>
      </trkpt>
      <trkpt lat="42.92499" lon="-0.446">
        <ele>783.611816</ele>
        <time>2014-05-10T14:10:06Z</time>
      </trkpt>
      <trkpt lat="42.92504" lon="-0.44615">
        <ele>783.131104</ele>
        <time>2014-05-10T14:10:15Z</time>
      </trkpt>
      <trkpt lat="42.92515" lon="-0.44629">
        <ele>782.650635</ele>
        <time>2014-05-10T14:10:28Z</time>
      </trkpt>
      <trkpt lat="42.92517" lon="-0.4463">
        <ele>783.131104</ele>
        <time>2014-05-10T14:10:30Z</time>
      </trkpt>
      <trkpt lat="42.92523" lon="-0.44629">
        <ele>786.015137</ele>
        <time>2014-05-10T14:10:41Z</time>
      </trkpt>
      <trkpt lat="42.92529" lon="-0.44625">
        <ele>788.89917</ele>
        <time>2014-05-10T14:10:52Z</time>
      </trkpt>
      <trkpt lat="42.92532" lon="-0.44628">
        <ele>789.379639</ele>
        <time>2014-05-10T14:10:56Z</time>
      </trkpt>
      <trkpt lat="42.9254" lon="-0.44633">
        <ele>791.302246</ele>
        <time>2014-05-10T14:11:05Z</time>
      </trkpt>
      <trkpt lat="42.92555" lon="-0.44635">
        <ele>794.186279</ele>
        <time>2014-05-10T14:11:21Z</time>
      </trkpt>
      <trkpt lat="42.92557" lon="-0.44637">
        <ele>794.666748</ele>
        <time>2014-05-10T14:11:24Z</time>
      </trkpt>
      <trkpt lat="42.92573" lon="-0.44643">
        <ele>798.512207</ele>
        <time>2014-05-10T14:11:41Z</time>
      </trkpt>
      <trkpt lat="42.92583" lon="-0.44643">
        <ele>801.39624</ele>
        <time>2014-05-10T14:11:53Z</time>
      </trkpt>
      <trkpt lat="42.92584" lon="-0.44642">
        <ele>801.39624</ele>
        <time>2014-05-10T14:11:54Z</time>
      </trkpt>
      <trkpt lat="42.92588" lon="-0.44641">
        <ele>802.838135</ele>
        <time>2014-05-10T14:11:59Z</time>
      </trkpt>
      <trkpt lat="42.92596" lon="-0.44639">
        <ele>805.722168</ele>
        <time>2014-05-10T14:12:10Z</time>
      </trkpt>
      <trkpt lat="42.92601" lon="-0.44637">
        <ele>806.202637</ele>
        <time>2014-05-10T14:12:22Z</time>
      </trkpt>
      <trkpt lat="42.92606" lon="-0.44633">
        <ele>805.241455</ele>
        <time>2014-05-10T14:12:54Z</time>
      </trkpt>
      <trkpt lat="42.92611" lon="-0.44625">
        <ele>805.722168</ele>
        <time>2014-05-10T14:13:07Z</time>
      </trkpt>
      <trkpt lat="42.92618" lon="-0.44612">
        <ele>807.644775</ele>
        <time>2014-05-10T14:13:22Z</time>
      </trkpt>
      <trkpt lat="42.92619" lon="-0.44606">
        <ele>809.08667</ele>
        <time>2014-05-10T14:13:34Z</time>
      </trkpt>
      <trkpt lat="42.92623" lon="-0.44594">
        <ele>811.48999</ele>
        <time>2014-05-10T14:13:45Z</time>
      </trkpt>
      <trkpt lat="42.92631" lon="-0.44589">
        <ele>814.854736</ele>
        <time>2014-05-10T14:13:56Z</time>
      </trkpt>
      <trkpt lat="42.92638" lon="-0.44586">
        <ele>817.258057</ele>
        <time>2014-05-10T14:14:05Z</time>
      </trkpt>
      <trkpt lat="42.9264" lon="-0.44584">
        <ele>818.699951</ele>
        <time>2014-05-10T14:14:09Z</time>
      </trkpt>
      <trkpt lat="42.92652" lon="-0.4458">
        <ele>819.180664</ele>
        <time>2014-05-10T14:14:24Z</time>
      </trkpt>
      <trkpt lat="42.92657" lon="-0.44578">
        <ele>819.661377</ele>
        <time>2014-05-10T14:14:30Z</time>
      </trkpt>
      <trkpt lat="42.92659" lon="-0.44577">
        <ele>819.661377</ele>
        <time>2014-05-10T14:14:32Z</time>
      </trkpt>
      <trkpt lat="42.92673" lon="-0.4457">
        <ele>820.141846</ele>
        <time>2014-05-10T14:14:45Z</time>
      </trkpt>
      <trkpt lat="42.92678" lon="-0.44566">
        <ele>821.103271</ele>
        <time>2014-05-10T14:14:52Z</time>
      </trkpt>
      <trkpt lat="42.92679" lon="-0.44564">
        <ele>822.064453</ele>
        <time>2014-05-10T14:14:54Z</time>
      </trkpt>
      <trkpt lat="42.92695" lon="-0.4456">
        <ele>822.545166</ele>
        <time>2014-05-10T14:15:06Z</time>
      </trkpt>
      <trkpt lat="42.92701" lon="-0.44556">
        <ele>823.025879</ele>
        <time>2014-05-10T14:15:12Z</time>
      </trkpt>
      <trkpt lat="42.92709" lon="-0.44557">
        <ele>824.948486</ele>
        <time>2014-05-10T14:15:25Z</time>
      </trkpt>
      <trkpt lat="42.92711" lon="-0.44559">
        <ele>825.909668</ele>
        <time>2014-05-10T14:15:50Z</time>
      </trkpt>
      <trkpt lat="42.92709" lon="-0.44563">
        <ele>823.987061</ele>
        <time>2014-05-10T14:17:00Z</time>
      </trkpt>
      <trkpt lat="42.92711" lon="-0.44563">
        <ele>823.506592</ele>
        <time>2014-05-10T14:17:41Z</time>
      </trkpt>
      <trkpt lat="42.92709" lon="-0.44561">
        <ele>823.025879</ele>
        <time>2014-05-10T14:19:39Z</time>
      </trkpt>
      <trkpt lat="42.92709" lon="-0.44561">
        <ele>822.545166</ele>
        <time>2014-05-10T14:20:09Z</time>
      </trkpt>
      <trkpt lat="42.92716" lon="-0.44568">
        <ele>823.025879</ele>
        <time>2014-05-10T14:20:23Z</time>
      </trkpt>
      <trkpt lat="42.92723" lon="-0.44574">
        <ele>823.025879</ele>
        <time>2014-05-10T14:20:37Z</time>
      </trkpt>
      <trkpt lat="42.92734" lon="-0.44578">
        <ele>820.622559</ele>
        <time>2014-05-10T14:20:50Z</time>
      </trkpt>
      <trkpt lat="42.92741" lon="-0.44579">
        <ele>819.661377</ele>
        <time>2014-05-10T14:20:58Z</time>
      </trkpt>
      <trkpt lat="42.92753" lon="-0.4458">
        <ele>815.816162</ele>
        <time>2014-05-10T14:21:12Z</time>
      </trkpt>
      <trkpt lat="42.9276" lon="-0.44579">
        <ele>814.374023</ele>
        <time>2014-05-10T14:21:21Z</time>
      </trkpt>
      <trkpt lat="42.92762" lon="-0.4458">
        <ele>813.893311</ele>
        <time>2014-05-10T14:21:23Z</time>
      </trkpt>
      <trkpt lat="42.92769" lon="-0.44583">
        <ele>811.48999</ele>
        <time>2014-05-10T14:21:30Z</time>
      </trkpt>
      <trkpt lat="42.92774" lon="-0.44581">
        <ele>811.009277</ele>
        <time>2014-05-10T14:21:34Z</time>
      </trkpt>
      <trkpt lat="42.92776" lon="-0.44577">
        <ele>811.48999</ele>
        <time>2014-05-10T14:21:37Z</time>
      </trkpt>
      <trkpt lat="42.92782" lon="-0.44573">
        <ele>810.047852</ele>
        <time>2014-05-10T14:21:41Z</time>
      </trkpt>
      <trkpt lat="42.92785" lon="-0.4457">
        <ele>810.528564</ele>
        <time>2014-05-10T14:21:45Z</time>
      </trkpt>
      <trkpt lat="42.92795" lon="-0.44554">
        <ele>811.009277</ele>
        <time>2014-05-10T14:21:58Z</time>
      </trkpt>
      <trkpt lat="42.92807" lon="-0.44547">
        <ele>810.528564</ele>
        <time>2014-05-10T14:22:12Z</time>
      </trkpt>
      <trkpt lat="42.9281" lon="-0.44549">
        <ele>810.528564</ele>
        <time>2014-05-10T14:22:16Z</time>
      </trkpt>
      <trkpt lat="42.92813" lon="-0.44551">
        <ele>810.528564</ele>
        <time>2014-05-10T14:22:20Z</time>
      </trkpt>
      <trkpt lat="42.92816" lon="-0.44558">
        <ele>810.528564</ele>
        <time>2014-05-10T14:22:29Z</time>
      </trkpt>
      <trkpt lat="42.92828" lon="-0.44562">
        <ele>811.009277</ele>
        <time>2014-05-10T14:22:44Z</time>
      </trkpt>
      <trkpt lat="42.92844" lon="-0.44567">
        <ele>807.644775</ele>
        <time>2014-05-10T14:22:58Z</time>
      </trkpt>
      <trkpt lat="42.92852" lon="-0.44573">
        <ele>804.280273</ele>
        <time>2014-05-10T14:23:07Z</time>
      </trkpt>
      <trkpt lat="42.92858" lon="-0.44582">
        <ele>801.39624</ele>
        <time>2014-05-10T14:23:18Z</time>
      </trkpt>
      <trkpt lat="42.9286" lon="-0.44586">
        <ele>799.954346</ele>
        <time>2014-05-10T14:23:22Z</time>
      </trkpt>
      <trkpt lat="42.92863" lon="-0.44592">
        <ele>798.99292</ele>
        <time>2014-05-10T14:23:27Z</time>
      </trkpt>
      <trkpt lat="42.92864" lon="-0.44596">
        <ele>798.031738</ele>
        <time>2014-05-10T14:23:30Z</time>
      </trkpt>
      <trkpt lat="42.92873" lon="-0.44602">
        <ele>796.589844</ele>
        <time>2014-05-10T14:23:41Z</time>
      </trkpt>
      <trkpt lat="42.92881" lon="-0.44605">
        <ele>796.109131</ele>
        <time>2014-05-10T14:23:49Z</time>
      </trkpt>
      <trkpt lat="42.92885" lon="-0.44604">
        <ele>796.109131</ele>
        <time>2014-05-10T14:24:00Z</time>
      </trkpt>
      <trkpt lat="42.92895" lon="-0.44604">
        <ele>796.589844</ele>
        <time>2014-05-10T14:24:09Z</time>
      </trkpt>
      <trkpt lat="42.92901" lon="-0.44608">
        <ele>797.551025</ele>
        <time>2014-05-10T14:24:19Z</time>
      </trkpt>
      <trkpt lat="42.92905" lon="-0.44609">
        <ele>798.512207</ele>
        <time>2014-05-10T14:24:23Z</time>
      </trkpt>
      <trkpt lat="42.92918" lon="-0.44613">
        <ele>797.070313</ele>
        <time>2014-05-10T14:24:39Z</time>
      </trkpt>
      <trkpt lat="42.92928" lon="-0.44613">
        <ele>796.589844</ele>
        <time>2014-05-10T14:24:55Z</time>
      </trkpt>
      <trkpt lat="42.92942" lon="-0.44616">
        <ele>795.628174</ele>
        <time>2014-05-10T14:25:08Z</time>
      </trkpt>
      <trkpt lat="42.92948" lon="-0.44615">
        <ele>793.705566</ele>
        <time>2014-05-10T14:25:13Z</time>
      </trkpt>
      <trkpt lat="42.92949" lon="-0.44614">
        <ele>793.224854</ele>
        <time>2014-05-10T14:25:14Z</time>
      </trkpt>
      <trkpt lat="42.9296" lon="-0.44615">
        <ele>792.744385</ele>
        <time>2014-05-10T14:25:30Z</time>
      </trkpt>
      <trkpt lat="42.92956" lon="-0.44618">
        <ele>792.263672</ele>
        <time>2014-05-10T14:26:07Z</time>
      </trkpt>
      <trkpt lat="42.92956" lon="-0.44615">
        <ele>792.744385</ele>
        <time>2014-05-10T14:27:10Z</time>
      </trkpt>
      <trkpt lat="42.92965" lon="-0.44615">
        <ele>792.744385</ele>
        <time>2014-05-10T14:27:34Z</time>
      </trkpt>
      <trkpt lat="42.92976" lon="-0.44617">
        <ele>790.821533</ele>
        <time>2014-05-10T14:27:45Z</time>
      </trkpt>
      <trkpt lat="42.92988" lon="-0.4462">
        <ele>788.89917</ele>
        <time>2014-05-10T14:28:02Z</time>
      </trkpt>
      <trkpt lat="42.92988" lon="-0.4462">
        <ele>787.937744</ele>
        <time>2014-05-10T14:28:04Z</time>
      </trkpt>
      <trkpt lat="42.9299" lon="-0.44622">
        <ele>788.89917</ele>
        <time>2014-05-10T14:28:50Z</time>
      </trkpt>
      <trkpt lat="42.92996" lon="-0.4462">
        <ele>786.015137</ele>
        <time>2014-05-10T14:29:12Z</time>
      </trkpt>
      <trkpt lat="42.93002" lon="-0.4462">
        <ele>784.092529</ele>
        <time>2014-05-10T14:29:19Z</time>
      </trkpt>
      <trkpt lat="42.93008" lon="-0.44619">
        <ele>782.169922</ele>
        <time>2014-05-10T14:29:29Z</time>
      </trkpt>
      <trkpt lat="42.93007" lon="-0.44623">
        <ele>781.20874</ele>
        <time>2014-05-10T14:29:33Z</time>
      </trkpt>
      <trkpt lat="42.93005" lon="-0.44628">
        <ele>778.805176</ele>
        <time>2014-05-10T14:29:43Z</time>
      </trkpt>
      <trkpt lat="42.93014" lon="-0.44629">
        <ele>775.44043</ele>
        <time>2014-05-10T14:29:55Z</time>
      </trkpt>
      <trkpt lat="42.93015" lon="-0.44633">
        <ele>773.518066</ele>
        <time>2014-05-10T14:30:00Z</time>
      </trkpt>
      <trkpt lat="42.93018" lon="-0.44647">
        <ele>770.634033</ele>
        <time>2014-05-10T14:30:13Z</time>
      </trkpt>
      <trkpt lat="42.93023" lon="-0.44645">
        <ele>767.75</ele>
        <time>2014-05-10T14:30:21Z</time>
      </trkpt>
      <trkpt lat="42.93028" lon="-0.44645">
        <ele>766.788818</ele>
        <time>2014-05-10T14:30:28Z</time>
      </trkpt>
      <trkpt lat="42.93034" lon="-0.44652">
        <ele>764.385498</ele>
        <time>2014-05-10T14:30:40Z</time>
      </trkpt>
      <trkpt lat="42.93042" lon="-0.44648">
        <ele>761.501465</ele>
        <time>2014-05-10T14:31:00Z</time>
      </trkpt>
      <trkpt lat="42.93045" lon="-0.44646">
        <ele>758.617432</ele>
        <time>2014-05-10T14:31:07Z</time>
      </trkpt>
      <trkpt lat="42.93053" lon="-0.44652">
        <ele>755.733643</ele>
        <time>2014-05-10T14:31:21Z</time>
      </trkpt>
      <trkpt lat="42.93055" lon="-0.44657">
        <ele>754.291748</ele>
        <time>2014-05-10T14:31:31Z</time>
      </trkpt>
      <trkpt lat="42.93059" lon="-0.4466">
        <ele>750.927002</ele>
        <time>2014-05-10T14:31:44Z</time>
      </trkpt>
      <trkpt lat="42.93066" lon="-0.44661">
        <ele>748.523682</ele>
        <time>2014-05-10T14:31:56Z</time>
      </trkpt>
      <trkpt lat="42.93075" lon="-0.44657">
        <ele>747.081543</ele>
        <time>2014-05-10T14:32:10Z</time>
      </trkpt>
      <trkpt lat="42.93084" lon="-0.44652">
        <ele>747.562256</ele>
        <time>2014-05-10T14:33:59Z</time>
      </trkpt>
      <trkpt lat="42.93094" lon="-0.44644">
        <ele>748.043213</ele>
        <time>2014-05-10T14:34:10Z</time>
      </trkpt>
      <trkpt lat="42.93095" lon="-0.44643">
        <ele>747.562256</ele>
        <time>2014-05-10T14:34:11Z</time>
      </trkpt>
      <trkpt lat="42.93104" lon="-0.44633">
        <ele>747.081543</ele>
        <time>2014-05-10T14:34:21Z</time>
      </trkpt>
      <trkpt lat="42.9311" lon="-0.44628">
        <ele>745.639648</ele>
        <time>2014-05-10T14:34:28Z</time>
      </trkpt>
      <trkpt lat="42.93125" lon="-0.4462">
        <ele>747.081543</ele>
        <time>2014-05-10T14:34:40Z</time>
      </trkpt>
      <trkpt lat="42.93126" lon="-0.44619">
        <ele>747.562256</ele>
        <time>2014-05-10T14:34:41Z</time>
      </trkpt>
      <trkpt lat="42.9313" lon="-0.44615">
        <ele>747.081543</ele>
        <time>2014-05-10T14:34:47Z</time>
      </trkpt>
      <trkpt lat="42.93133" lon="-0.44614">
        <ele>748.043213</ele>
        <time>2014-05-10T14:34:49Z</time>
      </trkpt>
      <trkpt lat="42.93151" lon="-0.44606">
        <ele>749.004395</ele>
        <time>2014-05-10T14:35:03Z</time>
      </trkpt>
      <trkpt lat="42.93161" lon="-0.4461">
        <ele>746.601074</ele>
        <time>2014-05-10T14:35:18Z</time>
      </trkpt>
      <trkpt lat="42.93169" lon="-0.44613">
        <ele>743.236328</ele>
        <time>2014-05-10T14:35:31Z</time>
      </trkpt>
      <trkpt lat="42.93174" lon="-0.44607">
        <ele>744.678223</ele>
        <time>2014-05-10T14:35:43Z</time>
      </trkpt>
      <trkpt lat="42.93176" lon="-0.446">
        <ele>747.562256</ele>
        <time>2014-05-10T14:35:54Z</time>
      </trkpt>
      <trkpt lat="42.93182" lon="-0.44592">
        <ele>748.523682</ele>
        <time>2014-05-10T14:36:05Z</time>
      </trkpt>
      <trkpt lat="42.93187" lon="-0.44588">
        <ele>751.407715</ele>
        <time>2014-05-10T14:36:20Z</time>
      </trkpt>
      <trkpt lat="42.93195" lon="-0.44587">
        <ele>754.291748</ele>
        <time>2014-05-10T14:36:57Z</time>
      </trkpt>
      <trkpt lat="42.93202" lon="-0.44577">
        <ele>751.888428</ele>
        <time>2014-05-10T14:37:21Z</time>
      </trkpt>
      <trkpt lat="42.93203" lon="-0.44573">
        <ele>751.888428</ele>
        <time>2014-05-10T14:37:34Z</time>
      </trkpt>
      <trkpt lat="42.93209" lon="-0.44569">
        <ele>753.330322</ele>
        <time>2014-05-10T14:37:50Z</time>
      </trkpt>
      <trkpt lat="42.93215" lon="-0.44569">
        <ele>754.291748</ele>
        <time>2014-05-10T14:38:02Z</time>
      </trkpt>
      <trkpt lat="42.9322" lon="-0.44573">
        <ele>750.927002</ele>
        <time>2014-05-10T14:38:19Z</time>
      </trkpt>
      <trkpt lat="42.93217" lon="-0.44579">
        <ele>748.043213</ele>
        <time>2014-05-10T14:38:36Z</time>
      </trkpt>
      <trkpt lat="42.93224" lon="-0.44581">
        <ele>745.158936</ele>
        <time>2014-05-10T14:38:43Z</time>
      </trkpt>
      <trkpt lat="42.93238" lon="-0.44576">
        <ele>744.197754</ele>
        <time>2014-05-10T14:38:58Z</time>
      </trkpt>
      <trkpt lat="42.93247" lon="-0.44577">
        <ele>743.717041</ele>
        <time>2014-05-10T14:39:08Z</time>
      </trkpt>
      <trkpt lat="42.93258" lon="-0.44574">
        <ele>743.236328</ele>
        <time>2014-05-10T14:39:27Z</time>
      </trkpt>
      <trkpt lat="42.93281" lon="-0.44571">
        <ele>743.236328</ele>
        <time>2014-05-10T14:39:47Z</time>
      </trkpt>
      <trkpt lat="42.93304" lon="-0.44566">
        <ele>743.236328</ele>
        <time>2014-05-10T14:40:06Z</time>
      </trkpt>
      <trkpt lat="42.93315" lon="-0.44562">
        <ele>743.236328</ele>
        <time>2014-05-10T14:40:16Z</time>
      </trkpt>
      <trkpt lat="42.93325" lon="-0.44561">
        <ele>743.717041</ele>
        <time>2014-05-10T14:40:25Z</time>
      </trkpt>
      <trkpt lat="42.93335" lon="-0.44557">
        <ele>743.717041</ele>
        <time>2014-05-10T14:40:36Z</time>
      </trkpt>
      <trkpt lat="42.93352" lon="-0.4455">
        <ele>743.717041</ele>
        <time>2014-05-10T14:40:52Z</time>
      </trkpt>
      <trkpt lat="42.93367" lon="-0.44544">
        <ele>743.717041</ele>
        <time>2014-05-10T14:41:05Z</time>
      </trkpt>
      <trkpt lat="42.93384" lon="-0.44538">
        <ele>744.197754</ele>
        <time>2014-05-10T14:41:21Z</time>
      </trkpt>
      <trkpt lat="42.93394" lon="-0.44532">
        <ele>744.197754</ele>
        <time>2014-05-10T14:41:32Z</time>
      </trkpt>
      <trkpt lat="42.9341" lon="-0.44517">
        <ele>743.717041</ele>
        <time>2014-05-10T14:41:48Z</time>
      </trkpt>
      <trkpt lat="42.9342" lon="-0.44511">
        <ele>742.755859</ele>
        <time>2014-05-10T14:41:59Z</time>
      </trkpt>
      <trkpt lat="42.93429" lon="-0.44515">
        <ele>739.871826</ele>
        <time>2014-05-10T14:42:15Z</time>
      </trkpt>
      <trkpt lat="42.93438" lon="-0.44511">
        <ele>737.949219</ele>
        <time>2014-05-10T14:42:26Z</time>
      </trkpt>
      <trkpt lat="42.93444" lon="-0.44508">
        <ele>737.949219</ele>
        <time>2014-05-10T14:42:32Z</time>
      </trkpt>
      <trkpt lat="42.93455" lon="-0.44507">
        <ele>737.949219</ele>
        <time>2014-05-10T14:42:42Z</time>
      </trkpt>
      <trkpt lat="42.93464" lon="-0.44507">
        <ele>736.987793</ele>
        <time>2014-05-10T14:42:50Z</time>
      </trkpt>
      <trkpt lat="42.93472" lon="-0.44501">
        <ele>736.507324</ele>
        <time>2014-05-10T14:42:59Z</time>
      </trkpt>
      <trkpt lat="42.9348" lon="-0.44492">
        <ele>736.987793</ele>
        <time>2014-05-10T14:43:09Z</time>
      </trkpt>
      <trkpt lat="42.93491" lon="-0.44485">
        <ele>736.987793</ele>
        <time>2014-05-10T14:43:21Z</time>
      </trkpt>
      <trkpt lat="42.93493" lon="-0.44482">
        <ele>736.507324</ele>
        <time>2014-05-10T14:43:24Z</time>
      </trkpt>
      <trkpt lat="42.93495" lon="-0.44477">
        <ele>736.987793</ele>
        <time>2014-05-10T14:43:27Z</time>
      </trkpt>
      <trkpt lat="42.93502" lon="-0.44475">
        <ele>736.507324</ele>
        <time>2014-05-10T14:43:36Z</time>
      </trkpt>
      <trkpt lat="42.93516" lon="-0.44456">
        <ele>736.026611</ele>
        <time>2014-05-10T14:43:52Z</time>
      </trkpt>
      <trkpt lat="42.93519" lon="-0.4445">
        <ele>737.468506</ele>
        <time>2014-05-10T14:43:59Z</time>
      </trkpt>
      <trkpt lat="42.93525" lon="-0.44439">
        <ele>736.987793</ele>
        <time>2014-05-10T14:44:20Z</time>
      </trkpt>
      <trkpt lat="42.93532" lon="-0.44426">
        <ele>736.026611</ele>
        <time>2014-05-10T14:44:31Z</time>
      </trkpt>
      <trkpt lat="42.93535" lon="-0.44423">
        <ele>736.987793</ele>
        <time>2014-05-10T14:44:35Z</time>
      </trkpt>
      <trkpt lat="42.93541" lon="-0.4442">
        <ele>736.987793</ele>
        <time>2014-05-10T14:44:41Z</time>
      </trkpt>
      <trkpt lat="42.93544" lon="-0.44419">
        <ele>736.507324</ele>
        <time>2014-05-10T14:44:43Z</time>
      </trkpt>
      <trkpt lat="42.93561" lon="-0.4441">
        <ele>736.987793</ele>
        <time>2014-05-10T14:44:58Z</time>
      </trkpt>
      <trkpt lat="42.93563" lon="-0.44405">
        <ele>736.987793</ele>
        <time>2014-05-10T14:45:02Z</time>
      </trkpt>
      <trkpt lat="42.9357" lon="-0.44389">
        <ele>736.987793</ele>
        <time>2014-05-10T14:45:13Z</time>
      </trkpt>
      <trkpt lat="42.9358" lon="-0.44376">
        <ele>736.026611</ele>
        <time>2014-05-10T14:45:31Z</time>
      </trkpt>
      <trkpt lat="42.93583" lon="-0.44372">
        <ele>736.507324</ele>
        <time>2014-05-10T14:45:35Z</time>
      </trkpt>
      <trkpt lat="42.93587" lon="-0.44355">
        <ele>735.545898</ele>
        <time>2014-05-10T14:45:49Z</time>
      </trkpt>
      <trkpt lat="42.93584" lon="-0.44366">
        <ele>732.662109</ele>
        <time>2014-05-10T14:45:59Z</time>
      </trkpt>
      <trkpt lat="42.93592" lon="-0.44364">
        <ele>731.219971</ele>
        <time>2014-05-10T14:46:10Z</time>
      </trkpt>
      <trkpt lat="42.93593" lon="-0.44374">
        <ele>730.258545</ele>
        <time>2014-05-10T14:46:27Z</time>
      </trkpt>
      <trkpt lat="42.93609" lon="-0.4439">
        <ele>729.777832</ele>
        <time>2014-05-10T14:48:37Z</time>
      </trkpt>
      <trkpt lat="42.93613" lon="-0.44396">
        <ele>729.777832</ele>
        <time>2014-05-10T14:48:46Z</time>
      </trkpt>
      <trkpt lat="42.9363" lon="-0.44397">
        <ele>730.258545</ele>
        <time>2014-05-10T14:49:03Z</time>
      </trkpt>
      <trkpt lat="42.93633" lon="-0.44395">
        <ele>730.258545</ele>
        <time>2014-05-10T14:49:07Z</time>
      </trkpt>
      <trkpt lat="42.93637" lon="-0.44393">
        <ele>729.777832</ele>
        <time>2014-05-10T14:49:11Z</time>
      </trkpt>
      <trkpt lat="42.93649" lon="-0.44383">
        <ele>728.81665</ele>
        <time>2014-05-10T14:49:31Z</time>
      </trkpt>
      <trkpt lat="42.93645" lon="-0.44384">
        <ele>727.855225</ele>
        <time>2014-05-10T14:49:35Z</time>
      </trkpt>
    </trkseg>
  </trk>
</gpx>